<?xml version="1.0" encoding="UTF-8" standalone="no" ?><gpx xmlns="http://www.topografix.com/GPX/1/1" xmlns:gpxx="http://www.garmin.com/xmlschemas/GpxExtensions/v3" xmlns:wptx1="http://www.garmin.com/xmlschemas/WaypointExtension/v1" xmlns:gpxtpx="http://www.garmin.com/xmlschemas/TrackPointExtension/v1" creator="GuideVTT.com" version="1.1" xmlns:xsi="http://www.w3.org/2001/XMLSchema-instance" xsi:schemaLocation="http://www.topografix.com/GPX/1/1 http://www.topografix.com/GPX/1/1/gpx.xsd http://www.garmin.com/xmlschemas/GpxExtensions/v3 http://www8.garmin.com/xmlschemas/GpxExtensionsv3.xsd http://www.garmin.com/xmlschemas/WaypointExtension/v1 http://www8.garmin.com/xmlschemas/WaypointExtensionv1.xsd http://www.garmin.com/xmlschemas/TrackPointExtension/v1 http://www.garmin.com/xmlschemas/TrackPointExtensionv1.xsd">
<metadata><link href="http://www.garmin.com"><text>Garmin International</text></link><time>2013-06-22T15:13:50Z</time></metadata>
<trk><name>autour_du_bessin.gpx</name><extensions><gpxx:TrackExtension><gpxx:DisplayColor>Cyan</gpxx:DisplayColor></gpxx:TrackExtension></extensions><trkseg>
<trkpt lat="49.304295" lon="-0.553901"><ele></ele><time>2015-1-4T1:37:1Z</time></trkpt>
<trkpt lat="49.304425" lon="-0.553911"><ele></ele><time>2015-1-4T1:37:4Z</time></trkpt>
<trkpt lat="49.304565" lon="-0.553912"><ele></ele><time>2015-1-4T1:37:7Z</time></trkpt>
<trkpt lat="49.30471" lon="-0.553966"><ele></ele><time>2015-1-4T1:37:10Z</time></trkpt>
<trkpt lat="49.304871" lon="-0.554009"><ele></ele><time>2015-1-4T1:37:13Z</time></trkpt>
<trkpt lat="49.305037" lon="-0.554042"><ele></ele><time>2015-1-4T1:37:16Z</time></trkpt>
<trkpt lat="49.305211" lon="-0.554081"><ele></ele><time>2015-1-4T1:37:19Z</time></trkpt>
<trkpt lat="49.305403" lon="-0.554085"><ele></ele><time>2015-1-4T1:37:22Z</time></trkpt>
<trkpt lat="49.305594" lon="-0.554089"><ele></ele><time>2015-1-4T1:37:25Z</time></trkpt>
<trkpt lat="49.30578" lon="-0.55412"><ele></ele><time>2015-1-4T1:37:28Z</time></trkpt>
<trkpt lat="49.305966" lon="-0.554143"><ele></ele><time>2015-1-4T1:37:31Z</time></trkpt>
<trkpt lat="49.30615" lon="-0.554153"><ele></ele><time>2015-1-4T1:37:34Z</time></trkpt>
<trkpt lat="49.306333" lon="-0.554178"><ele></ele><time>2015-1-4T1:37:37Z</time></trkpt>
<trkpt lat="49.306507" lon="-0.554202"><ele></ele><time>2015-1-4T1:37:40Z</time></trkpt>
<trkpt lat="49.306681" lon="-0.55424"><ele></ele><time>2015-1-4T1:37:43Z</time></trkpt>
<trkpt lat="49.306855" lon="-0.554275"><ele></ele><time>2015-1-4T1:37:46Z</time></trkpt>
<trkpt lat="49.307017" lon="-0.554294"><ele></ele><time>2015-1-4T1:37:49Z</time></trkpt>
<trkpt lat="49.307197" lon="-0.554299"><ele></ele><time>2015-1-4T1:37:52Z</time></trkpt>
<trkpt lat="49.307341" lon="-0.554219"><ele></ele><time>2015-1-4T1:37:55Z</time></trkpt>
<trkpt lat="49.307435" lon="-0.554003"><ele></ele><time>2015-1-4T1:37:58Z</time></trkpt>
<trkpt lat="49.30755" lon="-0.553774"><ele></ele><time>2015-1-4T1:38:1Z</time></trkpt>
<trkpt lat="49.307655" lon="-0.553606"><ele></ele><time>2015-1-4T1:38:4Z</time></trkpt>
<trkpt lat="49.307777" lon="-0.55342"><ele></ele><time>2015-1-4T1:38:7Z</time></trkpt>
<trkpt lat="49.307939" lon="-0.553199"><ele></ele><time>2015-1-4T1:38:10Z</time></trkpt>
<trkpt lat="49.308096" lon="-0.552991"><ele></ele><time>2015-1-4T1:38:13Z</time></trkpt>
<trkpt lat="49.308266" lon="-0.552762"><ele></ele><time>2015-1-4T1:38:16Z</time></trkpt>
<trkpt lat="49.308414" lon="-0.552539"><ele></ele><time>2015-1-4T1:38:19Z</time></trkpt>
<trkpt lat="49.308569" lon="-0.552312"><ele></ele><time>2015-1-4T1:38:22Z</time></trkpt>
<trkpt lat="49.308714" lon="-0.552089"><ele></ele><time>2015-1-4T1:38:25Z</time></trkpt>
<trkpt lat="49.308851" lon="-0.551828"><ele></ele><time>2015-1-4T1:38:28Z</time></trkpt>
<trkpt lat="49.308978" lon="-0.551549"><ele></ele><time>2015-1-4T1:38:31Z</time></trkpt>
<trkpt lat="49.309108" lon="-0.551249"><ele></ele><time>2015-1-4T1:38:34Z</time></trkpt>
<trkpt lat="49.309238" lon="-0.550937"><ele></ele><time>2015-1-4T1:38:37Z</time></trkpt>
<trkpt lat="49.309348" lon="-0.550623"><ele></ele><time>2015-1-4T1:38:40Z</time></trkpt>
<trkpt lat="49.309476" lon="-0.550333"><ele></ele><time>2015-1-4T1:38:43Z</time></trkpt>
<trkpt lat="49.309603" lon="-0.550083"><ele></ele><time>2015-1-4T1:38:46Z</time></trkpt>
<trkpt lat="49.309765" lon="-0.55004"><ele></ele><time>2015-1-4T1:38:49Z</time></trkpt>
<trkpt lat="49.309802" lon="-0.550051"><ele></ele><time>2015-1-4T1:38:52Z</time></trkpt>
<trkpt lat="49.30976" lon="-0.550066"><ele></ele><time>2015-1-4T1:38:55Z</time></trkpt>
<trkpt lat="49.309714" lon="-0.550073"><ele></ele><time>2015-1-4T1:38:58Z</time></trkpt>
<trkpt lat="49.309712" lon="-0.55009"><ele></ele><time>2015-1-4T1:39:1Z</time></trkpt>
<trkpt lat="49.309777" lon="-0.550107"><ele></ele><time>2015-1-4T1:39:4Z</time></trkpt>
<trkpt lat="49.30989" lon="-0.550116"><ele></ele><time>2015-1-4T1:39:7Z</time></trkpt>
<trkpt lat="49.310027" lon="-0.550083"><ele></ele><time>2015-1-4T1:39:10Z</time></trkpt>
<trkpt lat="49.310187" lon="-0.550036"><ele></ele><time>2015-1-4T1:39:13Z</time></trkpt>
<trkpt lat="49.31034" lon="-0.549947"><ele></ele><time>2015-1-4T1:39:16Z</time></trkpt>
<trkpt lat="49.310503" lon="-0.549817"><ele></ele><time>2015-1-4T1:39:19Z</time></trkpt>
<trkpt lat="49.310669" lon="-0.549674"><ele></ele><time>2015-1-4T1:39:22Z</time></trkpt>
<trkpt lat="49.310853" lon="-0.549579"><ele></ele><time>2015-1-4T1:39:25Z</time></trkpt>
<trkpt lat="49.311046" lon="-0.549491"><ele></ele><time>2015-1-4T1:39:28Z</time></trkpt>
<trkpt lat="49.311215" lon="-0.549513"><ele></ele><time>2015-1-4T1:39:31Z</time></trkpt>
<trkpt lat="49.311356" lon="-0.54958"><ele></ele><time>2015-1-4T1:39:34Z</time></trkpt>
<trkpt lat="49.311389" lon="-0.549806"><ele></ele><time>2015-1-4T1:39:37Z</time></trkpt>
<trkpt lat="49.31143" lon="-0.549982"><ele></ele><time>2015-1-4T1:39:40Z</time></trkpt>
<trkpt lat="49.31147" lon="-0.550284"><ele></ele><time>2015-1-4T1:39:43Z</time></trkpt>
<trkpt lat="49.311521" lon="-0.550576"><ele></ele><time>2015-1-4T1:39:46Z</time></trkpt>
<trkpt lat="49.311616" lon="-0.550964"><ele></ele><time>2015-1-4T1:39:49Z</time></trkpt>
<trkpt lat="49.311699" lon="-0.551326"><ele></ele><time>2015-1-4T1:39:52Z</time></trkpt>
<trkpt lat="49.31169" lon="-0.55167"><ele></ele><time>2015-1-4T1:39:55Z</time></trkpt>
<trkpt lat="49.311567" lon="-0.551936"><ele></ele><time>2015-1-4T1:39:58Z</time></trkpt>
<trkpt lat="49.311469" lon="-0.552237"><ele></ele><time>2015-1-4T1:40:1Z</time></trkpt>
<trkpt lat="49.311387" lon="-0.552522"><ele></ele><time>2015-1-4T1:40:4Z</time></trkpt>
<trkpt lat="49.311295" lon="-0.552813"><ele></ele><time>2015-1-4T1:40:7Z</time></trkpt>
<trkpt lat="49.311196" lon="-0.553099"><ele></ele><time>2015-1-4T1:40:10Z</time></trkpt>
<trkpt lat="49.31111" lon="-0.553372"><ele></ele><time>2015-1-4T1:40:13Z</time></trkpt>
<trkpt lat="49.311025" lon="-0.553649"><ele></ele><time>2015-1-4T1:40:16Z</time></trkpt>
<trkpt lat="49.310941" lon="-0.553922"><ele></ele><time>2015-1-4T1:40:19Z</time></trkpt>
<trkpt lat="49.310857" lon="-0.554171"><ele></ele><time>2015-1-4T1:40:22Z</time></trkpt>
<trkpt lat="49.310789" lon="-0.554437"><ele></ele><time>2015-1-4T1:40:25Z</time></trkpt>
<trkpt lat="49.310708" lon="-0.554694"><ele></ele><time>2015-1-4T1:40:28Z</time></trkpt>
<trkpt lat="49.310622" lon="-0.554929"><ele></ele><time>2015-1-4T1:40:31Z</time></trkpt>
<trkpt lat="49.310506" lon="-0.555146"><ele></ele><time>2015-1-4T1:40:34Z</time></trkpt>
<trkpt lat="49.310402" lon="-0.555358"><ele></ele><time>2015-1-4T1:40:37Z</time></trkpt>
<trkpt lat="49.310304" lon="-0.555564"><ele></ele><time>2015-1-4T1:40:40Z</time></trkpt>
<trkpt lat="49.310197" lon="-0.555793"><ele></ele><time>2015-1-4T1:40:43Z</time></trkpt>
<trkpt lat="49.310092" lon="-0.556007"><ele></ele><time>2015-1-4T1:40:46Z</time></trkpt>
<trkpt lat="49.30998" lon="-0.55625"><ele></ele><time>2015-1-4T1:40:49Z</time></trkpt>
<trkpt lat="49.309888" lon="-0.556492"><ele></ele><time>2015-1-4T1:40:52Z</time></trkpt>
<trkpt lat="49.309796" lon="-0.556708"><ele></ele><time>2015-1-4T1:40:55Z</time></trkpt>
<trkpt lat="49.309701" lon="-0.556934"><ele></ele><time>2015-1-4T1:40:58Z</time></trkpt>
<trkpt lat="49.309605" lon="-0.557136"><ele></ele><time>2015-1-4T1:41:1Z</time></trkpt>
<trkpt lat="49.309523" lon="-0.557356"><ele></ele><time>2015-1-4T1:41:4Z</time></trkpt>
<trkpt lat="49.309433" lon="-0.55757"><ele></ele><time>2015-1-4T1:41:7Z</time></trkpt>
<trkpt lat="49.309339" lon="-0.5578"><ele></ele><time>2015-1-4T1:41:10Z</time></trkpt>
<trkpt lat="49.309228" lon="-0.558031"><ele></ele><time>2015-1-4T1:41:13Z</time></trkpt>
<trkpt lat="49.309116" lon="-0.558227"><ele></ele><time>2015-1-4T1:41:16Z</time></trkpt>
<trkpt lat="49.309002" lon="-0.558439"><ele></ele><time>2015-1-4T1:41:19Z</time></trkpt>
<trkpt lat="49.308888" lon="-0.558655"><ele></ele><time>2015-1-4T1:41:22Z</time></trkpt>
<trkpt lat="49.308776" lon="-0.558858"><ele></ele><time>2015-1-4T1:41:25Z</time></trkpt>
<trkpt lat="49.308672" lon="-0.559071"><ele></ele><time>2015-1-4T1:41:28Z</time></trkpt>
<trkpt lat="49.308597" lon="-0.559299"><ele></ele><time>2015-1-4T1:41:31Z</time></trkpt>
<trkpt lat="49.308547" lon="-0.559534"><ele></ele><time>2015-1-4T1:41:34Z</time></trkpt>
<trkpt lat="49.308488" lon="-0.559788"><ele></ele><time>2015-1-4T1:41:37Z</time></trkpt>
<trkpt lat="49.308431" lon="-0.560032"><ele></ele><time>2015-1-4T1:41:40Z</time></trkpt>
<trkpt lat="49.308372" lon="-0.560289"><ele></ele><time>2015-1-4T1:41:43Z</time></trkpt>
<trkpt lat="49.308335" lon="-0.560538"><ele></ele><time>2015-1-4T1:41:46Z</time></trkpt>
<trkpt lat="49.308289" lon="-0.560812"><ele></ele><time>2015-1-4T1:41:49Z</time></trkpt>
<trkpt lat="49.308231" lon="-0.561097"><ele></ele><time>2015-1-4T1:41:52Z</time></trkpt>
<trkpt lat="49.308178" lon="-0.561396"><ele></ele><time>2015-1-4T1:41:55Z</time></trkpt>
<trkpt lat="49.308124" lon="-0.561696"><ele></ele><time>2015-1-4T1:41:58Z</time></trkpt>
<trkpt lat="49.308071" lon="-0.562016"><ele></ele><time>2015-1-4T1:42:1Z</time></trkpt>
<trkpt lat="49.308026" lon="-0.562294"><ele></ele><time>2015-1-4T1:42:4Z</time></trkpt>
<trkpt lat="49.307967" lon="-0.562581"><ele></ele><time>2015-1-4T1:42:7Z</time></trkpt>
<trkpt lat="49.307966" lon="-0.562885"><ele></ele><time>2015-1-4T1:42:10Z</time></trkpt>
<trkpt lat="49.308026" lon="-0.563164"><ele></ele><time>2015-1-4T1:42:13Z</time></trkpt>
<trkpt lat="49.30807" lon="-0.56341"><ele></ele><time>2015-1-4T1:42:16Z</time></trkpt>
<trkpt lat="49.308091" lon="-0.563577"><ele></ele><time>2015-1-4T1:42:19Z</time></trkpt>
<trkpt lat="49.308098" lon="-0.563821"><ele></ele><time>2015-1-4T1:42:22Z</time></trkpt>
<trkpt lat="49.30811" lon="-0.564068"><ele></ele><time>2015-1-4T1:42:25Z</time></trkpt>
<trkpt lat="49.3081" lon="-0.564295"><ele></ele><time>2015-1-4T1:42:28Z</time></trkpt>
<trkpt lat="49.30812" lon="-0.564552"><ele></ele><time>2015-1-4T1:42:31Z</time></trkpt>
<trkpt lat="49.308094" lon="-0.5649"><ele></ele><time>2015-1-4T1:42:34Z</time></trkpt>
<trkpt lat="49.308026" lon="-0.565278"><ele></ele><time>2015-1-4T1:42:37Z</time></trkpt>
<trkpt lat="49.308014" lon="-0.565614"><ele></ele><time>2015-1-4T1:42:40Z</time></trkpt>
<trkpt lat="49.308014" lon="-0.565935"><ele></ele><time>2015-1-4T1:42:43Z</time></trkpt>
<trkpt lat="49.307946" lon="-0.566169"><ele></ele><time>2015-1-4T1:42:46Z</time></trkpt>
<trkpt lat="49.307938" lon="-0.566378"><ele></ele><time>2015-1-4T1:42:49Z</time></trkpt>
<trkpt lat="49.307935" lon="-0.566584"><ele></ele><time>2015-1-4T1:42:52Z</time></trkpt>
<trkpt lat="49.307842" lon="-0.566885"><ele></ele><time>2015-1-4T1:42:55Z</time></trkpt>
<trkpt lat="49.307782" lon="-0.56717"><ele></ele><time>2015-1-4T1:42:58Z</time></trkpt>
<trkpt lat="49.307716" lon="-0.567444"><ele></ele><time>2015-1-4T1:43:1Z</time></trkpt>
<trkpt lat="49.307674" lon="-0.567725"><ele></ele><time>2015-1-4T1:43:4Z</time></trkpt>
<trkpt lat="49.307637" lon="-0.56802"><ele></ele><time>2015-1-4T1:43:7Z</time></trkpt>
<trkpt lat="49.307531" lon="-0.56828"><ele></ele><time>2015-1-4T1:43:10Z</time></trkpt>
<trkpt lat="49.307473" lon="-0.568561"><ele></ele><time>2015-1-4T1:43:13Z</time></trkpt>
<trkpt lat="49.307435" lon="-0.568852"><ele></ele><time>2015-1-4T1:43:16Z</time></trkpt>
<trkpt lat="49.307412" lon="-0.569121"><ele></ele><time>2015-1-4T1:43:19Z</time></trkpt>
<trkpt lat="49.307376" lon="-0.569387"><ele></ele><time>2015-1-4T1:43:22Z</time></trkpt>
<trkpt lat="49.307324" lon="-0.569664"><ele></ele><time>2015-1-4T1:43:25Z</time></trkpt>
<trkpt lat="49.307288" lon="-0.569933"><ele></ele><time>2015-1-4T1:43:28Z</time></trkpt>
<trkpt lat="49.307272" lon="-0.570185"><ele></ele><time>2015-1-4T1:43:31Z</time></trkpt>
<trkpt lat="49.30722" lon="-0.570474"><ele></ele><time>2015-1-4T1:43:34Z</time></trkpt>
<trkpt lat="49.307162" lon="-0.570764"><ele></ele><time>2015-1-4T1:43:37Z</time></trkpt>
<trkpt lat="49.307108" lon="-0.57107"><ele></ele><time>2015-1-4T1:43:40Z</time></trkpt>
<trkpt lat="49.307058" lon="-0.571357"><ele></ele><time>2015-1-4T1:43:43Z</time></trkpt>
<trkpt lat="49.307004" lon="-0.57163"><ele></ele><time>2015-1-4T1:43:46Z</time></trkpt>
<trkpt lat="49.306971" lon="-0.571905"><ele></ele><time>2015-1-4T1:43:49Z</time></trkpt>
<trkpt lat="49.306926" lon="-0.572193"><ele></ele><time>2015-1-4T1:43:52Z</time></trkpt>
<trkpt lat="49.306892" lon="-0.572495"><ele></ele><time>2015-1-4T1:43:55Z</time></trkpt>
<trkpt lat="49.306841" lon="-0.572803"><ele></ele><time>2015-1-4T1:43:58Z</time></trkpt>
<trkpt lat="49.306829" lon="-0.573129"><ele></ele><time>2015-1-4T1:44:1Z</time></trkpt>
<trkpt lat="49.30683" lon="-0.573421"><ele></ele><time>2015-1-4T1:44:4Z</time></trkpt>
<trkpt lat="49.30682" lon="-0.573693"><ele></ele><time>2015-1-4T1:44:7Z</time></trkpt>
<trkpt lat="49.306803" lon="-0.573971"><ele></ele><time>2015-1-4T1:44:10Z</time></trkpt>
<trkpt lat="49.306788" lon="-0.57423"><ele></ele><time>2015-1-4T1:44:13Z</time></trkpt>
<trkpt lat="49.306782" lon="-0.574495"><ele></ele><time>2015-1-4T1:44:16Z</time></trkpt>
<trkpt lat="49.306788" lon="-0.574784"><ele></ele><time>2015-1-4T1:44:19Z</time></trkpt>
<trkpt lat="49.306757" lon="-0.575058"><ele></ele><time>2015-1-4T1:44:22Z</time></trkpt>
<trkpt lat="49.306754" lon="-0.575372"><ele></ele><time>2015-1-4T1:44:25Z</time></trkpt>
<trkpt lat="49.30671" lon="-0.575651"><ele></ele><time>2015-1-4T1:44:28Z</time></trkpt>
<trkpt lat="49.306687" lon="-0.575883"><ele></ele><time>2015-1-4T1:44:31Z</time></trkpt>
<trkpt lat="49.30665" lon="-0.576119"><ele></ele><time>2015-1-4T1:44:34Z</time></trkpt>
<trkpt lat="49.306635" lon="-0.576392"><ele></ele><time>2015-1-4T1:44:37Z</time></trkpt>
<trkpt lat="49.306618" lon="-0.57667"><ele></ele><time>2015-1-4T1:44:40Z</time></trkpt>
<trkpt lat="49.306603" lon="-0.576907"><ele></ele><time>2015-1-4T1:44:43Z</time></trkpt>
<trkpt lat="49.306594" lon="-0.577142"><ele></ele><time>2015-1-4T1:44:46Z</time></trkpt>
<trkpt lat="49.306531" lon="-0.577399"><ele></ele><time>2015-1-4T1:44:49Z</time></trkpt>
<trkpt lat="49.306495" lon="-0.577583"><ele></ele><time>2015-1-4T1:44:52Z</time></trkpt>
<trkpt lat="49.306485" lon="-0.577774"><ele></ele><time>2015-1-4T1:44:55Z</time></trkpt>
<trkpt lat="49.306487" lon="-0.577989"><ele></ele><time>2015-1-4T1:44:58Z</time></trkpt>
<trkpt lat="49.306497" lon="-0.578197"><ele></ele><time>2015-1-4T1:45:1Z</time></trkpt>
<trkpt lat="49.306502" lon="-0.578403"><ele></ele><time>2015-1-4T1:45:4Z</time></trkpt>
<trkpt lat="49.306498" lon="-0.578632"><ele></ele><time>2015-1-4T1:45:7Z</time></trkpt>
<trkpt lat="49.306486" lon="-0.578905"><ele></ele><time>2015-1-4T1:45:10Z</time></trkpt>
<trkpt lat="49.306473" lon="-0.579175"><ele></ele><time>2015-1-4T1:45:13Z</time></trkpt>
<trkpt lat="49.306455" lon="-0.579486"><ele></ele><time>2015-1-4T1:45:16Z</time></trkpt>
<trkpt lat="49.306445" lon="-0.579769"><ele></ele><time>2015-1-4T1:45:19Z</time></trkpt>
<trkpt lat="49.306458" lon="-0.580116"><ele></ele><time>2015-1-4T1:45:22Z</time></trkpt>
<trkpt lat="49.306449" lon="-0.580414"><ele></ele><time>2015-1-4T1:45:25Z</time></trkpt>
<trkpt lat="49.306444" lon="-0.580747"><ele></ele><time>2015-1-4T1:45:28Z</time></trkpt>
<trkpt lat="49.306416" lon="-0.58108"><ele></ele><time>2015-1-4T1:45:31Z</time></trkpt>
<trkpt lat="49.306371" lon="-0.581401"><ele></ele><time>2015-1-4T1:45:34Z</time></trkpt>
<trkpt lat="49.306377" lon="-0.581723"><ele></ele><time>2015-1-4T1:45:37Z</time></trkpt>
<trkpt lat="49.306516" lon="-0.581949"><ele></ele><time>2015-1-4T1:45:40Z</time></trkpt>
<trkpt lat="49.306684" lon="-0.582158"><ele></ele><time>2015-1-4T1:45:43Z</time></trkpt>
<trkpt lat="49.306869" lon="-0.582391"><ele></ele><time>2015-1-4T1:45:46Z</time></trkpt>
<trkpt lat="49.307047" lon="-0.582643"><ele></ele><time>2015-1-4T1:45:49Z</time></trkpt>
<trkpt lat="49.30721" lon="-0.582871"><ele></ele><time>2015-1-4T1:45:52Z</time></trkpt>
<trkpt lat="49.307394" lon="-0.583094"><ele></ele><time>2015-1-4T1:45:55Z</time></trkpt>
<trkpt lat="49.30757" lon="-0.583328"><ele></ele><time>2015-1-4T1:45:58Z</time></trkpt>
<trkpt lat="49.307765" lon="-0.583556"><ele></ele><time>2015-1-4T1:46:1Z</time></trkpt>
<trkpt lat="49.307959" lon="-0.583789"><ele></ele><time>2015-1-4T1:46:4Z</time></trkpt>
<trkpt lat="49.308147" lon="-0.584015"><ele></ele><time>2015-1-4T1:46:7Z</time></trkpt>
<trkpt lat="49.308313" lon="-0.584233"><ele></ele><time>2015-1-4T1:46:10Z</time></trkpt>
<trkpt lat="49.308491" lon="-0.584462"><ele></ele><time>2015-1-4T1:46:13Z</time></trkpt>
<trkpt lat="49.308647" lon="-0.584643"><ele></ele><time>2015-1-4T1:46:16Z</time></trkpt>
<trkpt lat="49.308766" lon="-0.584781"><ele></ele><time>2015-1-4T1:46:19Z</time></trkpt>
<trkpt lat="49.308803" lon="-0.584891"><ele></ele><time>2015-1-4T1:46:22Z</time></trkpt>
<trkpt lat="49.308713" lon="-0.58501"><ele></ele><time>2015-1-4T1:46:25Z</time></trkpt>
<trkpt lat="49.308614" lon="-0.585232"><ele></ele><time>2015-1-4T1:46:28Z</time></trkpt>
<trkpt lat="49.308504" lon="-0.585498"><ele></ele><time>2015-1-4T1:46:31Z</time></trkpt>
<trkpt lat="49.308393" lon="-0.585787"><ele></ele><time>2015-1-4T1:46:34Z</time></trkpt>
<trkpt lat="49.308262" lon="-0.58609"><ele></ele><time>2015-1-4T1:46:37Z</time></trkpt>
<trkpt lat="49.308136" lon="-0.586379"><ele></ele><time>2015-1-4T1:46:40Z</time></trkpt>
<trkpt lat="49.308037" lon="-0.586684"><ele></ele><time>2015-1-4T1:46:43Z</time></trkpt>
<trkpt lat="49.307947" lon="-0.586945"><ele></ele><time>2015-1-4T1:46:46Z</time></trkpt>
<trkpt lat="49.307846" lon="-0.587259"><ele></ele><time>2015-1-4T1:46:49Z</time></trkpt>
<trkpt lat="49.307753" lon="-0.587591"><ele></ele><time>2015-1-4T1:46:52Z</time></trkpt>
<trkpt lat="49.307701" lon="-0.587901"><ele></ele><time>2015-1-4T1:46:55Z</time></trkpt>
<trkpt lat="49.307638" lon="-0.588232"><ele></ele><time>2015-1-4T1:46:58Z</time></trkpt>
<trkpt lat="49.30763" lon="-0.588546"><ele></ele><time>2015-1-4T1:47:1Z</time></trkpt>
<trkpt lat="49.307582" lon="-0.588865"><ele></ele><time>2015-1-4T1:47:4Z</time></trkpt>
<trkpt lat="49.307531" lon="-0.589191"><ele></ele><time>2015-1-4T1:47:7Z</time></trkpt>
<trkpt lat="49.307461" lon="-0.589511"><ele></ele><time>2015-1-4T1:47:10Z</time></trkpt>
<trkpt lat="49.307415" lon="-0.589853"><ele></ele><time>2015-1-4T1:47:13Z</time></trkpt>
<trkpt lat="49.307368" lon="-0.590174"><ele></ele><time>2015-1-4T1:47:16Z</time></trkpt>
<trkpt lat="49.307316" lon="-0.5905"><ele></ele><time>2015-1-4T1:47:19Z</time></trkpt>
<trkpt lat="49.307259" lon="-0.590846"><ele></ele><time>2015-1-4T1:47:22Z</time></trkpt>
<trkpt lat="49.307203" lon="-0.591193"><ele></ele><time>2015-1-4T1:47:25Z</time></trkpt>
<trkpt lat="49.307159" lon="-0.591517"><ele></ele><time>2015-1-4T1:47:28Z</time></trkpt>
<trkpt lat="49.307114" lon="-0.591851"><ele></ele><time>2015-1-4T1:47:31Z</time></trkpt>
<trkpt lat="49.307045" lon="-0.592179"><ele></ele><time>2015-1-4T1:47:34Z</time></trkpt>
<trkpt lat="49.306976" lon="-0.592523"><ele></ele><time>2015-1-4T1:47:37Z</time></trkpt>
<trkpt lat="49.306905" lon="-0.592845"><ele></ele><time>2015-1-4T1:47:40Z</time></trkpt>
<trkpt lat="49.306807" lon="-0.593177"><ele></ele><time>2015-1-4T1:47:43Z</time></trkpt>
<trkpt lat="49.306714" lon="-0.593509"><ele></ele><time>2015-1-4T1:47:46Z</time></trkpt>
<trkpt lat="49.30662" lon="-0.593817"><ele></ele><time>2015-1-4T1:47:49Z</time></trkpt>
<trkpt lat="49.306509" lon="-0.594116"><ele></ele><time>2015-1-4T1:47:52Z</time></trkpt>
<trkpt lat="49.306394" lon="-0.594422"><ele></ele><time>2015-1-4T1:47:55Z</time></trkpt>
<trkpt lat="49.306284" lon="-0.59473"><ele></ele><time>2015-1-4T1:47:58Z</time></trkpt>
<trkpt lat="49.306164" lon="-0.595026"><ele></ele><time>2015-1-4T1:48:1Z</time></trkpt>
<trkpt lat="49.306051" lon="-0.595306"><ele></ele><time>2015-1-4T1:48:4Z</time></trkpt>
<trkpt lat="49.305911" lon="-0.595569"><ele></ele><time>2015-1-4T1:48:7Z</time></trkpt>
<trkpt lat="49.305762" lon="-0.595845"><ele></ele><time>2015-1-4T1:48:10Z</time></trkpt>
<trkpt lat="49.305617" lon="-0.596093"><ele></ele><time>2015-1-4T1:48:13Z</time></trkpt>
<trkpt lat="49.305461" lon="-0.596343"><ele></ele><time>2015-1-4T1:48:16Z</time></trkpt>
<trkpt lat="49.305309" lon="-0.5966"><ele></ele><time>2015-1-4T1:48:19Z</time></trkpt>
<trkpt lat="49.305193" lon="-0.596881"><ele></ele><time>2015-1-4T1:48:22Z</time></trkpt>
<trkpt lat="49.305099" lon="-0.597205"><ele></ele><time>2015-1-4T1:48:25Z</time></trkpt>
<trkpt lat="49.305003" lon="-0.59752"><ele></ele><time>2015-1-4T1:48:28Z</time></trkpt>
<trkpt lat="49.304903" lon="-0.597836"><ele></ele><time>2015-1-4T1:48:31Z</time></trkpt>
<trkpt lat="49.304798" lon="-0.598148"><ele></ele><time>2015-1-4T1:48:34Z</time></trkpt>
<trkpt lat="49.304703" lon="-0.598455"><ele></ele><time>2015-1-4T1:48:37Z</time></trkpt>
<trkpt lat="49.304593" lon="-0.598742"><ele></ele><time>2015-1-4T1:48:40Z</time></trkpt>
<trkpt lat="49.304486" lon="-0.599037"><ele></ele><time>2015-1-4T1:48:43Z</time></trkpt>
<trkpt lat="49.304359" lon="-0.599316"><ele></ele><time>2015-1-4T1:48:46Z</time></trkpt>
<trkpt lat="49.304203" lon="-0.599573"><ele></ele><time>2015-1-4T1:48:49Z</time></trkpt>
<trkpt lat="49.304022" lon="-0.599784"><ele></ele><time>2015-1-4T1:48:52Z</time></trkpt>
<trkpt lat="49.303842" lon="-0.599988"><ele></ele><time>2015-1-4T1:48:55Z</time></trkpt>
<trkpt lat="49.303661" lon="-0.600203"><ele></ele><time>2015-1-4T1:48:58Z</time></trkpt>
<trkpt lat="49.303488" lon="-0.600432"><ele></ele><time>2015-1-4T1:49:1Z</time></trkpt>
<trkpt lat="49.303326" lon="-0.60068"><ele></ele><time>2015-1-4T1:49:4Z</time></trkpt>
<trkpt lat="49.303162" lon="-0.600961"><ele></ele><time>2015-1-4T1:49:7Z</time></trkpt>
<trkpt lat="49.303021" lon="-0.601293"><ele></ele><time>2015-1-4T1:49:10Z</time></trkpt>
<trkpt lat="49.302912" lon="-0.601598"><ele></ele><time>2015-1-4T1:49:13Z</time></trkpt>
<trkpt lat="49.302808" lon="-0.601939"><ele></ele><time>2015-1-4T1:49:16Z</time></trkpt>
<trkpt lat="49.302703" lon="-0.602291"><ele></ele><time>2015-1-4T1:49:19Z</time></trkpt>
<trkpt lat="49.302605" lon="-0.602635"><ele></ele><time>2015-1-4T1:49:22Z</time></trkpt>
<trkpt lat="49.302559" lon="-0.602968"><ele></ele><time>2015-1-4T1:49:25Z</time></trkpt>
<trkpt lat="49.302487" lon="-0.603285"><ele></ele><time>2015-1-4T1:49:28Z</time></trkpt>
<trkpt lat="49.30251" lon="-0.603556"><ele></ele><time>2015-1-4T1:49:31Z</time></trkpt>
<trkpt lat="49.302739" lon="-0.603568"><ele></ele><time>2015-1-4T1:49:34Z</time></trkpt>
<trkpt lat="49.303043" lon="-0.603571"><ele></ele><time>2015-1-4T1:49:37Z</time></trkpt>
<trkpt lat="49.303397" lon="-0.603542"><ele></ele><time>2015-1-4T1:49:40Z</time></trkpt>
<trkpt lat="49.303784" lon="-0.603553"><ele></ele><time>2015-1-4T1:49:43Z</time></trkpt>
<trkpt lat="49.304205" lon="-0.603752"><ele></ele><time>2015-1-4T1:49:46Z</time></trkpt>
<trkpt lat="49.30455" lon="-0.604171"><ele></ele><time>2015-1-4T1:49:49Z</time></trkpt>
<trkpt lat="49.304824" lon="-0.60469"><ele></ele><time>2015-1-4T1:49:52Z</time></trkpt>
<trkpt lat="49.305047" lon="-0.605221"><ele></ele><time>2015-1-4T1:49:55Z</time></trkpt>
<trkpt lat="49.305266" lon="-0.605713"><ele></ele><time>2015-1-4T1:49:58Z</time></trkpt>
<trkpt lat="49.305456" lon="-0.606178"><ele></ele><time>2015-1-4T1:50:1Z</time></trkpt>
<trkpt lat="49.305636" lon="-0.606646"><ele></ele><time>2015-1-4T1:50:4Z</time></trkpt>
<trkpt lat="49.305821" lon="-0.607105"><ele></ele><time>2015-1-4T1:50:7Z</time></trkpt>
<trkpt lat="49.306002" lon="-0.607546"><ele></ele><time>2015-1-4T1:50:10Z</time></trkpt>
<trkpt lat="49.306188" lon="-0.607956"><ele></ele><time>2015-1-4T1:50:13Z</time></trkpt>
<trkpt lat="49.306347" lon="-0.608367"><ele></ele><time>2015-1-4T1:50:16Z</time></trkpt>
<trkpt lat="49.306504" lon="-0.608727"><ele></ele><time>2015-1-4T1:50:19Z</time></trkpt>
<trkpt lat="49.306669" lon="-0.609111"><ele></ele><time>2015-1-4T1:50:22Z</time></trkpt>
<trkpt lat="49.306833" lon="-0.609489"><ele></ele><time>2015-1-4T1:50:25Z</time></trkpt>
<trkpt lat="49.307025" lon="-0.609857"><ele></ele><time>2015-1-4T1:50:28Z</time></trkpt>
<trkpt lat="49.30721" lon="-0.610209"><ele></ele><time>2015-1-4T1:50:31Z</time></trkpt>
<trkpt lat="49.307367" lon="-0.610595"><ele></ele><time>2015-1-4T1:50:34Z</time></trkpt>
<trkpt lat="49.307534" lon="-0.610972"><ele></ele><time>2015-1-4T1:50:37Z</time></trkpt>
<trkpt lat="49.307666" lon="-0.611362"><ele></ele><time>2015-1-4T1:50:40Z</time></trkpt>
<trkpt lat="49.307778" lon="-0.611763"><ele></ele><time>2015-1-4T1:50:43Z</time></trkpt>
<trkpt lat="49.30788" lon="-0.61215"><ele></ele><time>2015-1-4T1:50:46Z</time></trkpt>
<trkpt lat="49.307981" lon="-0.612541"><ele></ele><time>2015-1-4T1:50:49Z</time></trkpt>
<trkpt lat="49.308078" lon="-0.612914"><ele></ele><time>2015-1-4T1:50:52Z</time></trkpt>
<trkpt lat="49.308168" lon="-0.613316"><ele></ele><time>2015-1-4T1:50:55Z</time></trkpt>
<trkpt lat="49.308255" lon="-0.613702"><ele></ele><time>2015-1-4T1:50:58Z</time></trkpt>
<trkpt lat="49.308383" lon="-0.614093"><ele></ele><time>2015-1-4T1:51:1Z</time></trkpt>
<trkpt lat="49.308514" lon="-0.614517"><ele></ele><time>2015-1-4T1:51:4Z</time></trkpt>
<trkpt lat="49.308627" lon="-0.614952"><ele></ele><time>2015-1-4T1:51:7Z</time></trkpt>
<trkpt lat="49.30875" lon="-0.615366"><ele></ele><time>2015-1-4T1:51:10Z</time></trkpt>
<trkpt lat="49.308873" lon="-0.615756"><ele></ele><time>2015-1-4T1:51:13Z</time></trkpt>
<trkpt lat="49.308974" lon="-0.616136"><ele></ele><time>2015-1-4T1:51:16Z</time></trkpt>
<trkpt lat="49.309059" lon="-0.616499"><ele></ele><time>2015-1-4T1:51:19Z</time></trkpt>
<trkpt lat="49.309134" lon="-0.616856"><ele></ele><time>2015-1-4T1:51:22Z</time></trkpt>
<trkpt lat="49.309208" lon="-0.617208"><ele></ele><time>2015-1-4T1:51:25Z</time></trkpt>
<trkpt lat="49.309295" lon="-0.617559"><ele></ele><time>2015-1-4T1:51:28Z</time></trkpt>
<trkpt lat="49.309394" lon="-0.617879"><ele></ele><time>2015-1-4T1:51:31Z</time></trkpt>
<trkpt lat="49.30949" lon="-0.618209"><ele></ele><time>2015-1-4T1:51:34Z</time></trkpt>
<trkpt lat="49.309605" lon="-0.618552"><ele></ele><time>2015-1-4T1:51:37Z</time></trkpt>
<trkpt lat="49.309697" lon="-0.618945"><ele></ele><time>2015-1-4T1:51:40Z</time></trkpt>
<trkpt lat="49.309806" lon="-0.619305"><ele></ele><time>2015-1-4T1:51:43Z</time></trkpt>
<trkpt lat="49.309922" lon="-0.619664"><ele></ele><time>2015-1-4T1:51:46Z</time></trkpt>
<trkpt lat="49.310057" lon="-0.620082"><ele></ele><time>2015-1-4T1:51:49Z</time></trkpt>
<trkpt lat="49.310191" lon="-0.620465"><ele></ele><time>2015-1-4T1:51:52Z</time></trkpt>
<trkpt lat="49.310362" lon="-0.620761"><ele></ele><time>2015-1-4T1:51:55Z</time></trkpt>
<trkpt lat="49.310593" lon="-0.621067"><ele></ele><time>2015-1-4T1:51:58Z</time></trkpt>
<trkpt lat="49.310805" lon="-0.621329"><ele></ele><time>2015-1-4T1:52:1Z</time></trkpt>
<trkpt lat="49.311048" lon="-0.621639"><ele></ele><time>2015-1-4T1:52:4Z</time></trkpt>
<trkpt lat="49.311296" lon="-0.621912"><ele></ele><time>2015-1-4T1:52:7Z</time></trkpt>
<trkpt lat="49.311505" lon="-0.622187"><ele></ele><time>2015-1-4T1:52:10Z</time></trkpt>
<trkpt lat="49.311642" lon="-0.622562"><ele></ele><time>2015-1-4T1:52:13Z</time></trkpt>
<trkpt lat="49.311696" lon="-0.62295"><ele></ele><time>2015-1-4T1:52:16Z</time></trkpt>
<trkpt lat="49.311717" lon="-0.623329"><ele></ele><time>2015-1-4T1:52:19Z</time></trkpt>
<trkpt lat="49.3117" lon="-0.623623"><ele></ele><time>2015-1-4T1:52:22Z</time></trkpt>
<trkpt lat="49.31171" lon="-0.623748"><ele></ele><time>2015-1-4T1:52:25Z</time></trkpt>
<trkpt lat="49.311715" lon="-0.623931"><ele></ele><time>2015-1-4T1:52:28Z</time></trkpt>
<trkpt lat="49.311817" lon="-0.624079"><ele></ele><time>2015-1-4T1:52:31Z</time></trkpt>
<trkpt lat="49.311992" lon="-0.624161"><ele></ele><time>2015-1-4T1:52:34Z</time></trkpt>
<trkpt lat="49.312197" lon="-0.624116"><ele></ele><time>2015-1-4T1:52:37Z</time></trkpt>
<trkpt lat="49.31241" lon="-0.623982"><ele></ele><time>2015-1-4T1:52:40Z</time></trkpt>
<trkpt lat="49.312591" lon="-0.623853"><ele></ele><time>2015-1-4T1:52:43Z</time></trkpt>
<trkpt lat="49.312745" lon="-0.623912"><ele></ele><time>2015-1-4T1:52:46Z</time></trkpt>
<trkpt lat="49.312808" lon="-0.62417"><ele></ele><time>2015-1-4T1:52:49Z</time></trkpt>
<trkpt lat="49.312825" lon="-0.624518"><ele></ele><time>2015-1-4T1:52:52Z</time></trkpt>
<trkpt lat="49.312906" lon="-0.624865"><ele></ele><time>2015-1-4T1:52:55Z</time></trkpt>
<trkpt lat="49.312988" lon="-0.625219"><ele></ele><time>2015-1-4T1:52:58Z</time></trkpt>
<trkpt lat="49.313041" lon="-0.625508"><ele></ele><time>2015-1-4T1:53:1Z</time></trkpt>
<trkpt lat="49.313075" lon="-0.625831"><ele></ele><time>2015-1-4T1:53:4Z</time></trkpt>
<trkpt lat="49.313033" lon="-0.626158"><ele></ele><time>2015-1-4T1:53:7Z</time></trkpt>
<trkpt lat="49.312966" lon="-0.62649"><ele></ele><time>2015-1-4T1:53:10Z</time></trkpt>
<trkpt lat="49.312863" lon="-0.626814"><ele></ele><time>2015-1-4T1:53:13Z</time></trkpt>
<trkpt lat="49.31276" lon="-0.627104"><ele></ele><time>2015-1-4T1:53:16Z</time></trkpt>
<trkpt lat="49.31262" lon="-0.627344"><ele></ele><time>2015-1-4T1:53:19Z</time></trkpt>
<trkpt lat="49.312437" lon="-0.627473"><ele></ele><time>2015-1-4T1:53:22Z</time></trkpt>
<trkpt lat="49.312229" lon="-0.627613"><ele></ele><time>2015-1-4T1:53:25Z</time></trkpt>
<trkpt lat="49.312033" lon="-0.627772"><ele></ele><time>2015-1-4T1:53:28Z</time></trkpt>
<trkpt lat="49.311862" lon="-0.627923"><ele></ele><time>2015-1-4T1:53:31Z</time></trkpt>
<trkpt lat="49.311693" lon="-0.628019"><ele></ele><time>2015-1-4T1:53:34Z</time></trkpt>
<trkpt lat="49.311611" lon="-0.628042"><ele></ele><time>2015-1-4T1:53:37Z</time></trkpt>
<trkpt lat="49.311548" lon="-0.627988"><ele></ele><time>2015-1-4T1:53:40Z</time></trkpt>
<trkpt lat="49.311581" lon="-0.627996"><ele></ele><time>2015-1-4T1:53:43Z</time></trkpt>
<trkpt lat="49.311599" lon="-0.628064"><ele></ele><time>2015-1-4T1:53:46Z</time></trkpt>
<trkpt lat="49.311568" lon="-0.628112"><ele></ele><time>2015-1-4T1:53:49Z</time></trkpt>
<trkpt lat="49.311541" lon="-0.628148"><ele></ele><time>2015-1-4T1:53:52Z</time></trkpt>
<trkpt lat="49.311436" lon="-0.62822"><ele></ele><time>2015-1-4T1:53:55Z</time></trkpt>
<trkpt lat="49.311384" lon="-0.628309"><ele></ele><time>2015-1-4T1:53:58Z</time></trkpt>
<trkpt lat="49.311293" lon="-0.628406"><ele></ele><time>2015-1-4T1:54:1Z</time></trkpt>
<trkpt lat="49.311167" lon="-0.628563"><ele></ele><time>2015-1-4T1:54:4Z</time></trkpt>
<trkpt lat="49.311048" lon="-0.628695"><ele></ele><time>2015-1-4T1:54:7Z</time></trkpt>
<trkpt lat="49.310936" lon="-0.628814"><ele></ele><time>2015-1-4T1:54:10Z</time></trkpt>
<trkpt lat="49.310841" lon="-0.628964"><ele></ele><time>2015-1-4T1:54:13Z</time></trkpt>
<trkpt lat="49.310755" lon="-0.629114"><ele></ele><time>2015-1-4T1:54:16Z</time></trkpt>
<trkpt lat="49.31066" lon="-0.629304"><ele></ele><time>2015-1-4T1:54:19Z</time></trkpt>
<trkpt lat="49.310551" lon="-0.629509"><ele></ele><time>2015-1-4T1:54:22Z</time></trkpt>
<trkpt lat="49.310413" lon="-0.62968"><ele></ele><time>2015-1-4T1:54:25Z</time></trkpt>
<trkpt lat="49.310314" lon="-0.629869"><ele></ele><time>2015-1-4T1:54:28Z</time></trkpt>
<trkpt lat="49.310222" lon="-0.630002"><ele></ele><time>2015-1-4T1:54:31Z</time></trkpt>
<trkpt lat="49.310119" lon="-0.630175"><ele></ele><time>2015-1-4T1:54:34Z</time></trkpt>
<trkpt lat="49.310007" lon="-0.630274"><ele></ele><time>2015-1-4T1:54:37Z</time></trkpt>
<trkpt lat="49.30988" lon="-0.630443"><ele></ele><time>2015-1-4T1:54:40Z</time></trkpt>
<trkpt lat="49.309774" lon="-0.630591"><ele></ele><time>2015-1-4T1:54:43Z</time></trkpt>
<trkpt lat="49.309698" lon="-0.630736"><ele></ele><time>2015-1-4T1:54:46Z</time></trkpt>
<trkpt lat="49.309616" lon="-0.630878"><ele></ele><time>2015-1-4T1:54:49Z</time></trkpt>
<trkpt lat="49.309536" lon="-0.631"><ele></ele><time>2015-1-4T1:54:52Z</time></trkpt>
<trkpt lat="49.309458" lon="-0.631114"><ele></ele><time>2015-1-4T1:54:55Z</time></trkpt>
<trkpt lat="49.309373" lon="-0.631245"><ele></ele><time>2015-1-4T1:54:58Z</time></trkpt>
<trkpt lat="49.309267" lon="-0.631427"><ele></ele><time>2015-1-4T1:55:1Z</time></trkpt>
<trkpt lat="49.309169" lon="-0.631553"><ele></ele><time>2015-1-4T1:55:4Z</time></trkpt>
<trkpt lat="49.30901" lon="-0.631646"><ele></ele><time>2015-1-4T1:55:7Z</time></trkpt>
<trkpt lat="49.308891" lon="-0.631745"><ele></ele><time>2015-1-4T1:55:10Z</time></trkpt>
<trkpt lat="49.308806" lon="-0.631716"><ele></ele><time>2015-1-4T1:55:13Z</time></trkpt>
<trkpt lat="49.308766" lon="-0.631726"><ele></ele><time>2015-1-4T1:55:16Z</time></trkpt>
<trkpt lat="49.308785" lon="-0.631711"><ele></ele><time>2015-1-4T1:55:19Z</time></trkpt>
<trkpt lat="49.308823" lon="-0.631739"><ele></ele><time>2015-1-4T1:55:22Z</time></trkpt>
<trkpt lat="49.30882" lon="-0.63175"><ele></ele><time>2015-1-4T1:55:25Z</time></trkpt>
<trkpt lat="49.308817" lon="-0.631629"><ele></ele><time>2015-1-4T1:55:28Z</time></trkpt>
<trkpt lat="49.308818" lon="-0.631509"><ele></ele><time>2015-1-4T1:55:31Z</time></trkpt>
<trkpt lat="49.308865" lon="-0.631347"><ele></ele><time>2015-1-4T1:55:34Z</time></trkpt>
<trkpt lat="49.308931" lon="-0.6311"><ele></ele><time>2015-1-4T1:55:37Z</time></trkpt>
<trkpt lat="49.308929" lon="-0.630846"><ele></ele><time>2015-1-4T1:55:40Z</time></trkpt>
<trkpt lat="49.308952" lon="-0.63067"><ele></ele><time>2015-1-4T1:55:43Z</time></trkpt>
<trkpt lat="49.309" lon="-0.63049"><ele></ele><time>2015-1-4T1:55:46Z</time></trkpt>
<trkpt lat="49.309031" lon="-0.630228"><ele></ele><time>2015-1-4T1:55:49Z</time></trkpt>
<trkpt lat="49.309048" lon="-0.629987"><ele></ele><time>2015-1-4T1:55:52Z</time></trkpt>
<trkpt lat="49.309091" lon="-0.629759"><ele></ele><time>2015-1-4T1:55:55Z</time></trkpt>
<trkpt lat="49.309089" lon="-0.629537"><ele></ele><time>2015-1-4T1:55:58Z</time></trkpt>
<trkpt lat="49.30913" lon="-0.62926"><ele></ele><time>2015-1-4T1:56:1Z</time></trkpt>
<trkpt lat="49.309232" lon="-0.628971"><ele></ele><time>2015-1-4T1:56:4Z</time></trkpt>
<trkpt lat="49.309267" lon="-0.628722"><ele></ele><time>2015-1-4T1:56:7Z</time></trkpt>
<trkpt lat="49.309216" lon="-0.628476"><ele></ele><time>2015-1-4T1:56:10Z</time></trkpt>
<trkpt lat="49.309229" lon="-0.628183"><ele></ele><time>2015-1-4T1:56:13Z</time></trkpt>
<trkpt lat="49.309246" lon="-0.627936"><ele></ele><time>2015-1-4T1:56:16Z</time></trkpt>
<trkpt lat="49.309295" lon="-0.627721"><ele></ele><time>2015-1-4T1:56:19Z</time></trkpt>
<trkpt lat="49.309296" lon="-0.627483"><ele></ele><time>2015-1-4T1:56:22Z</time></trkpt>
<trkpt lat="49.309246" lon="-0.627181"><ele></ele><time>2015-1-4T1:56:25Z</time></trkpt>
<trkpt lat="49.309169" lon="-0.626825"><ele></ele><time>2015-1-4T1:56:28Z</time></trkpt>
<trkpt lat="49.309078" lon="-0.62648"><ele></ele><time>2015-1-4T1:56:31Z</time></trkpt>
<trkpt lat="49.308959" lon="-0.626169"><ele></ele><time>2015-1-4T1:56:34Z</time></trkpt>
<trkpt lat="49.30884" lon="-0.625896"><ele></ele><time>2015-1-4T1:56:37Z</time></trkpt>
<trkpt lat="49.308692" lon="-0.625705"><ele></ele><time>2015-1-4T1:56:40Z</time></trkpt>
<trkpt lat="49.308644" lon="-0.625632"><ele></ele><time>2015-1-4T1:56:43Z</time></trkpt>
<trkpt lat="49.308635" lon="-0.625629"><ele></ele><time>2015-1-4T1:56:46Z</time></trkpt>
<trkpt lat="49.308549" lon="-0.62549"><ele></ele><time>2015-1-4T1:56:49Z</time></trkpt>
<trkpt lat="49.308463" lon="-0.6253"><ele></ele><time>2015-1-4T1:56:52Z</time></trkpt>
<trkpt lat="49.308408" lon="-0.625159"><ele></ele><time>2015-1-4T1:56:55Z</time></trkpt>
<trkpt lat="49.308306" lon="-0.624899"><ele></ele><time>2015-1-4T1:56:58Z</time></trkpt>
<trkpt lat="49.308313" lon="-0.624594"><ele></ele><time>2015-1-4T1:57:1Z</time></trkpt>
<trkpt lat="49.308381" lon="-0.624377"><ele></ele><time>2015-1-4T1:57:4Z</time></trkpt>
<trkpt lat="49.308441" lon="-0.624217"><ele></ele><time>2015-1-4T1:57:7Z</time></trkpt>
<trkpt lat="49.308482" lon="-0.624015"><ele></ele><time>2015-1-4T1:57:10Z</time></trkpt>
<trkpt lat="49.308515" lon="-0.623826"><ele></ele><time>2015-1-4T1:57:13Z</time></trkpt>
<trkpt lat="49.308546" lon="-0.62362"><ele></ele><time>2015-1-4T1:57:16Z</time></trkpt>
<trkpt lat="49.308582" lon="-0.623409"><ele></ele><time>2015-1-4T1:57:19Z</time></trkpt>
<trkpt lat="49.308643" lon="-0.623208"><ele></ele><time>2015-1-4T1:57:22Z</time></trkpt>
<trkpt lat="49.308689" lon="-0.623006"><ele></ele><time>2015-1-4T1:57:25Z</time></trkpt>
<trkpt lat="49.30873" lon="-0.622797"><ele></ele><time>2015-1-4T1:57:28Z</time></trkpt>
<trkpt lat="49.308789" lon="-0.622606"><ele></ele><time>2015-1-4T1:57:31Z</time></trkpt>
<trkpt lat="49.308842" lon="-0.622364"><ele></ele><time>2015-1-4T1:57:34Z</time></trkpt>
<trkpt lat="49.308947" lon="-0.622122"><ele></ele><time>2015-1-4T1:57:37Z</time></trkpt>
<trkpt lat="49.309086" lon="-0.621871"><ele></ele><time>2015-1-4T1:57:40Z</time></trkpt>
<trkpt lat="49.309227" lon="-0.621648"><ele></ele><time>2015-1-4T1:57:43Z</time></trkpt>
<trkpt lat="49.309377" lon="-0.621497"><ele></ele><time>2015-1-4T1:57:46Z</time></trkpt>
<trkpt lat="49.309481" lon="-0.621334"><ele></ele><time>2015-1-4T1:57:49Z</time></trkpt>
<trkpt lat="49.309557" lon="-0.62114"><ele></ele><time>2015-1-4T1:57:52Z</time></trkpt>
<trkpt lat="49.309709" lon="-0.620991"><ele></ele><time>2015-1-4T1:57:55Z</time></trkpt>
<trkpt lat="49.309805" lon="-0.620826"><ele></ele><time>2015-1-4T1:57:58Z</time></trkpt>
<trkpt lat="49.309953" lon="-0.620682"><ele></ele><time>2015-1-4T1:58:1Z</time></trkpt>
<trkpt lat="49.310068" lon="-0.620572"><ele></ele><time>2015-1-4T1:58:4Z</time></trkpt>
<trkpt lat="49.310151" lon="-0.620463"><ele></ele><time>2015-1-4T1:58:7Z</time></trkpt>
<trkpt lat="49.310213" lon="-0.620351"><ele></ele><time>2015-1-4T1:58:10Z</time></trkpt>
<trkpt lat="49.310299" lon="-0.620251"><ele></ele><time>2015-1-4T1:58:13Z</time></trkpt>
<trkpt lat="49.310378" lon="-0.620182"><ele></ele><time>2015-1-4T1:58:16Z</time></trkpt>
<trkpt lat="49.31048" lon="-0.620096"><ele></ele><time>2015-1-4T1:58:19Z</time></trkpt>
<trkpt lat="49.310579" lon="-0.619964"><ele></ele><time>2015-1-4T1:58:22Z</time></trkpt>
<trkpt lat="49.310649" lon="-0.619821"><ele></ele><time>2015-1-4T1:58:25Z</time></trkpt>
<trkpt lat="49.310759" lon="-0.619682"><ele></ele><time>2015-1-4T1:58:28Z</time></trkpt>
<trkpt lat="49.310846" lon="-0.619518"><ele></ele><time>2015-1-4T1:58:31Z</time></trkpt>
<trkpt lat="49.310951" lon="-0.619354"><ele></ele><time>2015-1-4T1:58:34Z</time></trkpt>
<trkpt lat="49.311053" lon="-0.619172"><ele></ele><time>2015-1-4T1:58:37Z</time></trkpt>
<trkpt lat="49.311167" lon="-0.619028"><ele></ele><time>2015-1-4T1:58:40Z</time></trkpt>
<trkpt lat="49.311284" lon="-0.618834"><ele></ele><time>2015-1-4T1:58:43Z</time></trkpt>
<trkpt lat="49.311396" lon="-0.618706"><ele></ele><time>2015-1-4T1:58:46Z</time></trkpt>
<trkpt lat="49.311541" lon="-0.618519"><ele></ele><time>2015-1-4T1:58:49Z</time></trkpt>
<trkpt lat="49.311663" lon="-0.618316"><ele></ele><time>2015-1-4T1:58:52Z</time></trkpt>
<trkpt lat="49.311792" lon="-0.618155"><ele></ele><time>2015-1-4T1:58:55Z</time></trkpt>
<trkpt lat="49.311901" lon="-0.617937"><ele></ele><time>2015-1-4T1:58:58Z</time></trkpt>
<trkpt lat="49.31201" lon="-0.617714"><ele></ele><time>2015-1-4T1:59:1Z</time></trkpt>
<trkpt lat="49.312108" lon="-0.617525"><ele></ele><time>2015-1-4T1:59:4Z</time></trkpt>
<trkpt lat="49.312211" lon="-0.61734"><ele></ele><time>2015-1-4T1:59:7Z</time></trkpt>
<trkpt lat="49.312299" lon="-0.617167"><ele></ele><time>2015-1-4T1:59:10Z</time></trkpt>
<trkpt lat="49.312408" lon="-0.61701"><ele></ele><time>2015-1-4T1:59:13Z</time></trkpt>
<trkpt lat="49.312523" lon="-0.616806"><ele></ele><time>2015-1-4T1:59:16Z</time></trkpt>
<trkpt lat="49.312641" lon="-0.616595"><ele></ele><time>2015-1-4T1:59:19Z</time></trkpt>
<trkpt lat="49.312774" lon="-0.616359"><ele></ele><time>2015-1-4T1:59:22Z</time></trkpt>
<trkpt lat="49.3129" lon="-0.616104"><ele></ele><time>2015-1-4T1:59:25Z</time></trkpt>
<trkpt lat="49.313017" lon="-0.615862"><ele></ele><time>2015-1-4T1:59:28Z</time></trkpt>
<trkpt lat="49.313125" lon="-0.615629"><ele></ele><time>2015-1-4T1:59:31Z</time></trkpt>
<trkpt lat="49.313238" lon="-0.615399"><ele></ele><time>2015-1-4T1:59:34Z</time></trkpt>
<trkpt lat="49.313325" lon="-0.615178"><ele></ele><time>2015-1-4T1:59:37Z</time></trkpt>
<trkpt lat="49.313429" lon="-0.614913"><ele></ele><time>2015-1-4T1:59:40Z</time></trkpt>
<trkpt lat="49.313534" lon="-0.614655"><ele></ele><time>2015-1-4T1:59:43Z</time></trkpt>
<trkpt lat="49.313632" lon="-0.614394"><ele></ele><time>2015-1-4T1:59:46Z</time></trkpt>
<trkpt lat="49.313692" lon="-0.614077"><ele></ele><time>2015-1-4T1:59:49Z</time></trkpt>
<trkpt lat="49.313704" lon="-0.613774"><ele></ele><time>2015-1-4T1:59:52Z</time></trkpt>
<trkpt lat="49.313716" lon="-0.613462"><ele></ele><time>2015-1-4T1:59:55Z</time></trkpt>
<trkpt lat="49.313711" lon="-0.61321"><ele></ele><time>2015-1-4T1:59:58Z</time></trkpt>
<trkpt lat="49.313694" lon="-0.612921"><ele></ele><time>2015-1-4T2:0:1Z</time></trkpt>
<trkpt lat="49.3137" lon="-0.612673"><ele></ele><time>2015-1-4T2:0:4Z</time></trkpt>
<trkpt lat="49.313756" lon="-0.612444"><ele></ele><time>2015-1-4T2:0:7Z</time></trkpt>
<trkpt lat="49.313807" lon="-0.612266"><ele></ele><time>2015-1-4T2:0:10Z</time></trkpt>
<trkpt lat="49.313883" lon="-0.61206"><ele></ele><time>2015-1-4T2:0:13Z</time></trkpt>
<trkpt lat="49.313959" lon="-0.61184"><ele></ele><time>2015-1-4T2:0:16Z</time></trkpt>
<trkpt lat="49.314038" lon="-0.611625"><ele></ele><time>2015-1-4T2:0:19Z</time></trkpt>
<trkpt lat="49.314119" lon="-0.611448"><ele></ele><time>2015-1-4T2:0:22Z</time></trkpt>
<trkpt lat="49.314195" lon="-0.611322"><ele></ele><time>2015-1-4T2:0:25Z</time></trkpt>
<trkpt lat="49.314257" lon="-0.611224"><ele></ele><time>2015-1-4T2:0:28Z</time></trkpt>
<trkpt lat="49.31434" lon="-0.611043"><ele></ele><time>2015-1-4T2:0:31Z</time></trkpt>
<trkpt lat="49.314418" lon="-0.61087"><ele></ele><time>2015-1-4T2:0:34Z</time></trkpt>
<trkpt lat="49.31446" lon="-0.610741"><ele></ele><time>2015-1-4T2:0:37Z</time></trkpt>
<trkpt lat="49.3145" lon="-0.610576"><ele></ele><time>2015-1-4T2:0:40Z</time></trkpt>
<trkpt lat="49.314541" lon="-0.610416"><ele></ele><time>2015-1-4T2:0:43Z</time></trkpt>
<trkpt lat="49.314609" lon="-0.610263"><ele></ele><time>2015-1-4T2:0:46Z</time></trkpt>
<trkpt lat="49.314637" lon="-0.61011"><ele></ele><time>2015-1-4T2:0:49Z</time></trkpt>
<trkpt lat="49.314683" lon="-0.609954"><ele></ele><time>2015-1-4T2:0:52Z</time></trkpt>
<trkpt lat="49.314735" lon="-0.609766"><ele></ele><time>2015-1-4T2:0:55Z</time></trkpt>
<trkpt lat="49.314806" lon="-0.609578"><ele></ele><time>2015-1-4T2:0:58Z</time></trkpt>
<trkpt lat="49.31485" lon="-0.609404"><ele></ele><time>2015-1-4T2:1:1Z</time></trkpt>
<trkpt lat="49.314874" lon="-0.609229"><ele></ele><time>2015-1-4T2:1:4Z</time></trkpt>
<trkpt lat="49.314865" lon="-0.609026"><ele></ele><time>2015-1-4T2:1:7Z</time></trkpt>
<trkpt lat="49.314865" lon="-0.608804"><ele></ele><time>2015-1-4T2:1:10Z</time></trkpt>
<trkpt lat="49.314865" lon="-0.608592"><ele></ele><time>2015-1-4T2:1:13Z</time></trkpt>
<trkpt lat="49.314837" lon="-0.60841"><ele></ele><time>2015-1-4T2:1:16Z</time></trkpt>
<trkpt lat="49.314816" lon="-0.608201"><ele></ele><time>2015-1-4T2:1:19Z</time></trkpt>
<trkpt lat="49.314818" lon="-0.608004"><ele></ele><time>2015-1-4T2:1:22Z</time></trkpt>
<trkpt lat="49.314797" lon="-0.607823"><ele></ele><time>2015-1-4T2:1:25Z</time></trkpt>
<trkpt lat="49.31476" lon="-0.607636"><ele></ele><time>2015-1-4T2:1:28Z</time></trkpt>
<trkpt lat="49.314744" lon="-0.607426"><ele></ele><time>2015-1-4T2:1:31Z</time></trkpt>
<trkpt lat="49.314744" lon="-0.607235"><ele></ele><time>2015-1-4T2:1:34Z</time></trkpt>
<trkpt lat="49.314742" lon="-0.607035"><ele></ele><time>2015-1-4T2:1:37Z</time></trkpt>
<trkpt lat="49.31477" lon="-0.606869"><ele></ele><time>2015-1-4T2:1:40Z</time></trkpt>
<trkpt lat="49.314806" lon="-0.60669"><ele></ele><time>2015-1-4T2:1:43Z</time></trkpt>
<trkpt lat="49.314865" lon="-0.606502"><ele></ele><time>2015-1-4T2:1:46Z</time></trkpt>
<trkpt lat="49.314934" lon="-0.606344"><ele></ele><time>2015-1-4T2:1:49Z</time></trkpt>
<trkpt lat="49.315023" lon="-0.606224"><ele></ele><time>2015-1-4T2:1:52Z</time></trkpt>
<trkpt lat="49.315084" lon="-0.606057"><ele></ele><time>2015-1-4T2:1:55Z</time></trkpt>
<trkpt lat="49.315137" lon="-0.60591"><ele></ele><time>2015-1-4T2:1:58Z</time></trkpt>
<trkpt lat="49.315191" lon="-0.605758"><ele></ele><time>2015-1-4T2:2:1Z</time></trkpt>
<trkpt lat="49.315257" lon="-0.605591"><ele></ele><time>2015-1-4T2:2:4Z</time></trkpt>
<trkpt lat="49.315353" lon="-0.605439"><ele></ele><time>2015-1-4T2:2:7Z</time></trkpt>
<trkpt lat="49.315464" lon="-0.605297"><ele></ele><time>2015-1-4T2:2:10Z</time></trkpt>
<trkpt lat="49.315549" lon="-0.605158"><ele></ele><time>2015-1-4T2:2:13Z</time></trkpt>
<trkpt lat="49.315655" lon="-0.605062"><ele></ele><time>2015-1-4T2:2:16Z</time></trkpt>
<trkpt lat="49.315736" lon="-0.604911"><ele></ele><time>2015-1-4T2:2:19Z</time></trkpt>
<trkpt lat="49.315826" lon="-0.604753"><ele></ele><time>2015-1-4T2:2:22Z</time></trkpt>
<trkpt lat="49.315929" lon="-0.604636"><ele></ele><time>2015-1-4T2:2:25Z</time></trkpt>
<trkpt lat="49.316014" lon="-0.604506"><ele></ele><time>2015-1-4T2:2:28Z</time></trkpt>
<trkpt lat="49.316078" lon="-0.604325"><ele></ele><time>2015-1-4T2:2:31Z</time></trkpt>
<trkpt lat="49.316114" lon="-0.604136"><ele></ele><time>2015-1-4T2:2:34Z</time></trkpt>
<trkpt lat="49.316169" lon="-0.603971"><ele></ele><time>2015-1-4T2:2:37Z</time></trkpt>
<trkpt lat="49.316226" lon="-0.603818"><ele></ele><time>2015-1-4T2:2:40Z</time></trkpt>
<trkpt lat="49.316327" lon="-0.603615"><ele></ele><time>2015-1-4T2:2:43Z</time></trkpt>
<trkpt lat="49.316406" lon="-0.603417"><ele></ele><time>2015-1-4T2:2:46Z</time></trkpt>
<trkpt lat="49.31647" lon="-0.603213"><ele></ele><time>2015-1-4T2:2:49Z</time></trkpt>
<trkpt lat="49.316526" lon="-0.603013"><ele></ele><time>2015-1-4T2:2:52Z</time></trkpt>
<trkpt lat="49.316558" lon="-0.602819"><ele></ele><time>2015-1-4T2:2:55Z</time></trkpt>
<trkpt lat="49.316618" lon="-0.602639"><ele></ele><time>2015-1-4T2:2:58Z</time></trkpt>
<trkpt lat="49.316703" lon="-0.602497"><ele></ele><time>2015-1-4T2:3:1Z</time></trkpt>
<trkpt lat="49.316838" lon="-0.602411"><ele></ele><time>2015-1-4T2:3:4Z</time></trkpt>
<trkpt lat="49.31692" lon="-0.602283"><ele></ele><time>2015-1-4T2:3:7Z</time></trkpt>
<trkpt lat="49.316976" lon="-0.602187"><ele></ele><time>2015-1-4T2:3:10Z</time></trkpt>
<trkpt lat="49.317043" lon="-0.602098"><ele></ele><time>2015-1-4T2:3:13Z</time></trkpt>
<trkpt lat="49.317093" lon="-0.602067"><ele></ele><time>2015-1-4T2:3:16Z</time></trkpt>
<trkpt lat="49.3171" lon="-0.602053"><ele></ele><time>2015-1-4T2:3:19Z</time></trkpt>
<trkpt lat="49.317077" lon="-0.602031"><ele></ele><time>2015-1-4T2:3:22Z</time></trkpt>
<trkpt lat="49.317095" lon="-0.6021"><ele></ele><time>2015-1-4T2:3:25Z</time></trkpt>
<trkpt lat="49.317109" lon="-0.602059"><ele></ele><time>2015-1-4T2:3:28Z</time></trkpt>
<trkpt lat="49.317138" lon="-0.601919"><ele></ele><time>2015-1-4T2:3:31Z</time></trkpt>
<trkpt lat="49.31724" lon="-0.601814"><ele></ele><time>2015-1-4T2:3:34Z</time></trkpt>
<trkpt lat="49.317328" lon="-0.601676"><ele></ele><time>2015-1-4T2:3:37Z</time></trkpt>
<trkpt lat="49.317406" lon="-0.601551"><ele></ele><time>2015-1-4T2:3:40Z</time></trkpt>
<trkpt lat="49.317488" lon="-0.601401"><ele></ele><time>2015-1-4T2:3:43Z</time></trkpt>
<trkpt lat="49.317604" lon="-0.601252"><ele></ele><time>2015-1-4T2:3:46Z</time></trkpt>
<trkpt lat="49.317722" lon="-0.601088"><ele></ele><time>2015-1-4T2:3:49Z</time></trkpt>
<trkpt lat="49.317826" lon="-0.600958"><ele></ele><time>2015-1-4T2:3:52Z</time></trkpt>
<trkpt lat="49.317924" lon="-0.600845"><ele></ele><time>2015-1-4T2:3:55Z</time></trkpt>
<trkpt lat="49.318009" lon="-0.600708"><ele></ele><time>2015-1-4T2:3:58Z</time></trkpt>
<trkpt lat="49.3181" lon="-0.600578"><ele></ele><time>2015-1-4T2:4:1Z</time></trkpt>
<trkpt lat="49.318191" lon="-0.600451"><ele></ele><time>2015-1-4T2:4:4Z</time></trkpt>
<trkpt lat="49.318307" lon="-0.600331"><ele></ele><time>2015-1-4T2:4:7Z</time></trkpt>
<trkpt lat="49.31841" lon="-0.600223"><ele></ele><time>2015-1-4T2:4:10Z</time></trkpt>
<trkpt lat="49.318526" lon="-0.60012"><ele></ele><time>2015-1-4T2:4:13Z</time></trkpt>
<trkpt lat="49.318616" lon="-0.600006"><ele></ele><time>2015-1-4T2:4:16Z</time></trkpt>
<trkpt lat="49.318737" lon="-0.599903"><ele></ele><time>2015-1-4T2:4:19Z</time></trkpt>
<trkpt lat="49.318848" lon="-0.599769"><ele></ele><time>2015-1-4T2:4:22Z</time></trkpt>
<trkpt lat="49.319008" lon="-0.599675"><ele></ele><time>2015-1-4T2:4:25Z</time></trkpt>
<trkpt lat="49.319131" lon="-0.599568"><ele></ele><time>2015-1-4T2:4:28Z</time></trkpt>
<trkpt lat="49.319236" lon="-0.599425"><ele></ele><time>2015-1-4T2:4:31Z</time></trkpt>
<trkpt lat="49.319374" lon="-0.599372"><ele></ele><time>2015-1-4T2:4:34Z</time></trkpt>
<trkpt lat="49.319518" lon="-0.599307"><ele></ele><time>2015-1-4T2:4:37Z</time></trkpt>
<trkpt lat="49.319622" lon="-0.599244"><ele></ele><time>2015-1-4T2:4:40Z</time></trkpt>
<trkpt lat="49.319698" lon="-0.599198"><ele></ele><time>2015-1-4T2:4:43Z</time></trkpt>
<trkpt lat="49.319673" lon="-0.59908"><ele></ele><time>2015-1-4T2:4:46Z</time></trkpt>
<trkpt lat="49.319635" lon="-0.598915"><ele></ele><time>2015-1-4T2:4:49Z</time></trkpt>
<trkpt lat="49.319575" lon="-0.598718"><ele></ele><time>2015-1-4T2:4:52Z</time></trkpt>
<trkpt lat="49.319525" lon="-0.598484"><ele></ele><time>2015-1-4T2:4:55Z</time></trkpt>
<trkpt lat="49.319443" lon="-0.598276"><ele></ele><time>2015-1-4T2:4:58Z</time></trkpt>
<trkpt lat="49.319378" lon="-0.598089"><ele></ele><time>2015-1-4T2:5:1Z</time></trkpt>
<trkpt lat="49.319291" lon="-0.597955"><ele></ele><time>2015-1-4T2:5:4Z</time></trkpt>
<trkpt lat="49.319219" lon="-0.59783"><ele></ele><time>2015-1-4T2:5:7Z</time></trkpt>
<trkpt lat="49.319136" lon="-0.597714"><ele></ele><time>2015-1-4T2:5:10Z</time></trkpt>
<trkpt lat="49.319018" lon="-0.597575"><ele></ele><time>2015-1-4T2:5:13Z</time></trkpt>
<trkpt lat="49.31892" lon="-0.597459"><ele></ele><time>2015-1-4T2:5:16Z</time></trkpt>
<trkpt lat="49.318834" lon="-0.597361"><ele></ele><time>2015-1-4T2:5:19Z</time></trkpt>
<trkpt lat="49.318735" lon="-0.597224"><ele></ele><time>2015-1-4T2:5:22Z</time></trkpt>
<trkpt lat="49.318648" lon="-0.597102"><ele></ele><time>2015-1-4T2:5:25Z</time></trkpt>
<trkpt lat="49.318561" lon="-0.596992"><ele></ele><time>2015-1-4T2:5:28Z</time></trkpt>
<trkpt lat="49.318511" lon="-0.596915"><ele></ele><time>2015-1-4T2:5:31Z</time></trkpt>
<trkpt lat="49.318463" lon="-0.596842"><ele></ele><time>2015-1-4T2:5:34Z</time></trkpt>
<trkpt lat="49.318388" lon="-0.596752"><ele></ele><time>2015-1-4T2:5:37Z</time></trkpt>
<trkpt lat="49.318303" lon="-0.596658"><ele></ele><time>2015-1-4T2:5:40Z</time></trkpt>
<trkpt lat="49.31822" lon="-0.596546"><ele></ele><time>2015-1-4T2:5:43Z</time></trkpt>
<trkpt lat="49.318148" lon="-0.596435"><ele></ele><time>2015-1-4T2:5:46Z</time></trkpt>
<trkpt lat="49.318079" lon="-0.596337"><ele></ele><time>2015-1-4T2:5:49Z</time></trkpt>
<trkpt lat="49.318033" lon="-0.596275"><ele></ele><time>2015-1-4T2:5:52Z</time></trkpt>
<trkpt lat="49.317971" lon="-0.596168"><ele></ele><time>2015-1-4T2:5:55Z</time></trkpt>
<trkpt lat="49.317898" lon="-0.596075"><ele></ele><time>2015-1-4T2:5:58Z</time></trkpt>
<trkpt lat="49.317809" lon="-0.595949"><ele></ele><time>2015-1-4T2:6:1Z</time></trkpt>
<trkpt lat="49.317719" lon="-0.59581"><ele></ele><time>2015-1-4T2:6:4Z</time></trkpt>
<trkpt lat="49.317615" lon="-0.595683"><ele></ele><time>2015-1-4T2:6:7Z</time></trkpt>
<trkpt lat="49.317518" lon="-0.595558"><ele></ele><time>2015-1-4T2:6:10Z</time></trkpt>
<trkpt lat="49.317432" lon="-0.595429"><ele></ele><time>2015-1-4T2:6:13Z</time></trkpt>
<trkpt lat="49.317334" lon="-0.595313"><ele></ele><time>2015-1-4T2:6:16Z</time></trkpt>
<trkpt lat="49.317223" lon="-0.595162"><ele></ele><time>2015-1-4T2:6:19Z</time></trkpt>
<trkpt lat="49.317142" lon="-0.595032"><ele></ele><time>2015-1-4T2:6:22Z</time></trkpt>
<trkpt lat="49.317055" lon="-0.594894"><ele></ele><time>2015-1-4T2:6:25Z</time></trkpt>
<trkpt lat="49.316973" lon="-0.594769"><ele></ele><time>2015-1-4T2:6:28Z</time></trkpt>
<trkpt lat="49.316863" lon="-0.594633"><ele></ele><time>2015-1-4T2:6:31Z</time></trkpt>
<trkpt lat="49.316777" lon="-0.594519"><ele></ele><time>2015-1-4T2:6:34Z</time></trkpt>
<trkpt lat="49.31666" lon="-0.59439"><ele></ele><time>2015-1-4T2:6:37Z</time></trkpt>
<trkpt lat="49.316564" lon="-0.594239"><ele></ele><time>2015-1-4T2:6:40Z</time></trkpt>
<trkpt lat="49.316472" lon="-0.594109"><ele></ele><time>2015-1-4T2:6:43Z</time></trkpt>
<trkpt lat="49.31639" lon="-0.593981"><ele></ele><time>2015-1-4T2:6:46Z</time></trkpt>
<trkpt lat="49.316289" lon="-0.593845"><ele></ele><time>2015-1-4T2:6:49Z</time></trkpt>
<trkpt lat="49.31619" lon="-0.593706"><ele></ele><time>2015-1-4T2:6:52Z</time></trkpt>
<trkpt lat="49.316098" lon="-0.593601"><ele></ele><time>2015-1-4T2:6:55Z</time></trkpt>
<trkpt lat="49.315985" lon="-0.593483"><ele></ele><time>2015-1-4T2:6:58Z</time></trkpt>
<trkpt lat="49.315884" lon="-0.59334"><ele></ele><time>2015-1-4T2:7:1Z</time></trkpt>
<trkpt lat="49.315783" lon="-0.593194"><ele></ele><time>2015-1-4T2:7:4Z</time></trkpt>
<trkpt lat="49.315702" lon="-0.593035"><ele></ele><time>2015-1-4T2:7:7Z</time></trkpt>
<trkpt lat="49.315617" lon="-0.592878"><ele></ele><time>2015-1-4T2:7:10Z</time></trkpt>
<trkpt lat="49.315534" lon="-0.592732"><ele></ele><time>2015-1-4T2:7:13Z</time></trkpt>
<trkpt lat="49.315445" lon="-0.592563"><ele></ele><time>2015-1-4T2:7:16Z</time></trkpt>
<trkpt lat="49.315347" lon="-0.592424"><ele></ele><time>2015-1-4T2:7:19Z</time></trkpt>
<trkpt lat="49.31527" lon="-0.592285"><ele></ele><time>2015-1-4T2:7:22Z</time></trkpt>
<trkpt lat="49.315166" lon="-0.592142"><ele></ele><time>2015-1-4T2:7:25Z</time></trkpt>
<trkpt lat="49.315084" lon="-0.591994"><ele></ele><time>2015-1-4T2:7:28Z</time></trkpt>
<trkpt lat="49.314989" lon="-0.591857"><ele></ele><time>2015-1-4T2:7:31Z</time></trkpt>
<trkpt lat="49.314902" lon="-0.59171"><ele></ele><time>2015-1-4T2:7:34Z</time></trkpt>
<trkpt lat="49.314811" lon="-0.591576"><ele></ele><time>2015-1-4T2:7:37Z</time></trkpt>
<trkpt lat="49.314707" lon="-0.591437"><ele></ele><time>2015-1-4T2:7:40Z</time></trkpt>
<trkpt lat="49.314619" lon="-0.591293"><ele></ele><time>2015-1-4T2:7:43Z</time></trkpt>
<trkpt lat="49.314517" lon="-0.591145"><ele></ele><time>2015-1-4T2:7:46Z</time></trkpt>
<trkpt lat="49.314414" lon="-0.591019"><ele></ele><time>2015-1-4T2:7:49Z</time></trkpt>
<trkpt lat="49.314341" lon="-0.590872"><ele></ele><time>2015-1-4T2:7:52Z</time></trkpt>
<trkpt lat="49.314256" lon="-0.590734"><ele></ele><time>2015-1-4T2:7:55Z</time></trkpt>
<trkpt lat="49.314175" lon="-0.590621"><ele></ele><time>2015-1-4T2:7:58Z</time></trkpt>
<trkpt lat="49.314111" lon="-0.590484"><ele></ele><time>2015-1-4T2:8:1Z</time></trkpt>
<trkpt lat="49.314038" lon="-0.590366"><ele></ele><time>2015-1-4T2:8:4Z</time></trkpt>
<trkpt lat="49.313955" lon="-0.590241"><ele></ele><time>2015-1-4T2:8:7Z</time></trkpt>
<trkpt lat="49.313869" lon="-0.59013"><ele></ele><time>2015-1-4T2:8:10Z</time></trkpt>
<trkpt lat="49.313801" lon="-0.590032"><ele></ele><time>2015-1-4T2:8:13Z</time></trkpt>
<trkpt lat="49.313721" lon="-0.589962"><ele></ele><time>2015-1-4T2:8:16Z</time></trkpt>
<trkpt lat="49.313649" lon="-0.589842"><ele></ele><time>2015-1-4T2:8:19Z</time></trkpt>
<trkpt lat="49.313581" lon="-0.589732"><ele></ele><time>2015-1-4T2:8:22Z</time></trkpt>
<trkpt lat="49.313525" lon="-0.589605"><ele></ele><time>2015-1-4T2:8:25Z</time></trkpt>
<trkpt lat="49.313438" lon="-0.589471"><ele></ele><time>2015-1-4T2:8:28Z</time></trkpt>
<trkpt lat="49.313373" lon="-0.589356"><ele></ele><time>2015-1-4T2:8:31Z</time></trkpt>
<trkpt lat="49.313283" lon="-0.589246"><ele></ele><time>2015-1-4T2:8:34Z</time></trkpt>
<trkpt lat="49.313227" lon="-0.589116"><ele></ele><time>2015-1-4T2:8:37Z</time></trkpt>
<trkpt lat="49.313147" lon="-0.589013"><ele></ele><time>2015-1-4T2:8:40Z</time></trkpt>
<trkpt lat="49.313057" lon="-0.5889"><ele></ele><time>2015-1-4T2:8:43Z</time></trkpt>
<trkpt lat="49.312996" lon="-0.588793"><ele></ele><time>2015-1-4T2:8:46Z</time></trkpt>
<trkpt lat="49.312907" lon="-0.588679"><ele></ele><time>2015-1-4T2:8:49Z</time></trkpt>
<trkpt lat="49.312815" lon="-0.588542"><ele></ele><time>2015-1-4T2:8:52Z</time></trkpt>
<trkpt lat="49.312723" lon="-0.588363"><ele></ele><time>2015-1-4T2:8:55Z</time></trkpt>
<trkpt lat="49.312696" lon="-0.588256"><ele></ele><time>2015-1-4T2:8:58Z</time></trkpt>
<trkpt lat="49.312654" lon="-0.588171"><ele></ele><time>2015-1-4T2:9:1Z</time></trkpt>
<trkpt lat="49.312576" lon="-0.588082"><ele></ele><time>2015-1-4T2:9:4Z</time></trkpt>
<trkpt lat="49.312506" lon="-0.588027"><ele></ele><time>2015-1-4T2:9:7Z</time></trkpt>
<trkpt lat="49.312442" lon="-0.587959"><ele></ele><time>2015-1-4T2:9:10Z</time></trkpt>
<trkpt lat="49.312371" lon="-0.58788"><ele></ele><time>2015-1-4T2:9:13Z</time></trkpt>
<trkpt lat="49.312253" lon="-0.587756"><ele></ele><time>2015-1-4T2:9:16Z</time></trkpt>
<trkpt lat="49.312099" lon="-0.587658"><ele></ele><time>2015-1-4T2:9:19Z</time></trkpt>
<trkpt lat="49.311996" lon="-0.587572"><ele></ele><time>2015-1-4T2:9:22Z</time></trkpt>
<trkpt lat="49.311916" lon="-0.587442"><ele></ele><time>2015-1-4T2:9:25Z</time></trkpt>
<trkpt lat="49.311854" lon="-0.587328"><ele></ele><time>2015-1-4T2:9:28Z</time></trkpt>
<trkpt lat="49.311855" lon="-0.587163"><ele></ele><time>2015-1-4T2:9:31Z</time></trkpt>
<trkpt lat="49.311788" lon="-0.587051"><ele></ele><time>2015-1-4T2:9:34Z</time></trkpt>
<trkpt lat="49.311672" lon="-0.587002"><ele></ele><time>2015-1-4T2:9:37Z</time></trkpt>
<trkpt lat="49.311584" lon="-0.586982"><ele></ele><time>2015-1-4T2:9:40Z</time></trkpt>
<trkpt lat="49.311479" lon="-0.586946"><ele></ele><time>2015-1-4T2:9:43Z</time></trkpt>
<trkpt lat="49.311391" lon="-0.586937"><ele></ele><time>2015-1-4T2:9:46Z</time></trkpt>
<trkpt lat="49.311311" lon="-0.586901"><ele></ele><time>2015-1-4T2:9:49Z</time></trkpt>
<trkpt lat="49.311204" lon="-0.586882"><ele></ele><time>2015-1-4T2:9:52Z</time></trkpt>
<trkpt lat="49.31112" lon="-0.586842"><ele></ele><time>2015-1-4T2:9:55Z</time></trkpt>
<trkpt lat="49.311025" lon="-0.58677"><ele></ele><time>2015-1-4T2:9:58Z</time></trkpt>
<trkpt lat="49.310919" lon="-0.586749"><ele></ele><time>2015-1-4T2:10:1Z</time></trkpt>
<trkpt lat="49.310821" lon="-0.586707"><ele></ele><time>2015-1-4T2:10:4Z</time></trkpt>
<trkpt lat="49.310731" lon="-0.586649"><ele></ele><time>2015-1-4T2:10:7Z</time></trkpt>
<trkpt lat="49.310627" lon="-0.586625"><ele></ele><time>2015-1-4T2:10:10Z</time></trkpt>
<trkpt lat="49.310552" lon="-0.586548"><ele></ele><time>2015-1-4T2:10:13Z</time></trkpt>
<trkpt lat="49.310578" lon="-0.586425"><ele></ele><time>2015-1-4T2:10:16Z</time></trkpt>
<trkpt lat="49.310627" lon="-0.5863"><ele></ele><time>2015-1-4T2:10:19Z</time></trkpt>
<trkpt lat="49.310624" lon="-0.586171"><ele></ele><time>2015-1-4T2:10:22Z</time></trkpt>
<trkpt lat="49.310644" lon="-0.586058"><ele></ele><time>2015-1-4T2:10:25Z</time></trkpt>
<trkpt lat="49.310666" lon="-0.58589"><ele></ele><time>2015-1-4T2:10:28Z</time></trkpt>
<trkpt lat="49.310703" lon="-0.585717"><ele></ele><time>2015-1-4T2:10:31Z</time></trkpt>
<trkpt lat="49.310807" lon="-0.585614"><ele></ele><time>2015-1-4T2:10:34Z</time></trkpt>
<trkpt lat="49.31092" lon="-0.585478"><ele></ele><time>2015-1-4T2:10:37Z</time></trkpt>
<trkpt lat="49.311031" lon="-0.585326"><ele></ele><time>2015-1-4T2:10:40Z</time></trkpt>
<trkpt lat="49.311097" lon="-0.585186"><ele></ele><time>2015-1-4T2:10:43Z</time></trkpt>
<trkpt lat="49.311153" lon="-0.585102"><ele></ele><time>2015-1-4T2:10:46Z</time></trkpt>
<trkpt lat="49.311206" lon="-0.58505"><ele></ele><time>2015-1-4T2:10:49Z</time></trkpt>
<trkpt lat="49.311155" lon="-0.585033"><ele></ele><time>2015-1-4T2:10:52Z</time></trkpt>
<trkpt lat="49.311075" lon="-0.585037"><ele></ele><time>2015-1-4T2:10:55Z</time></trkpt>
<trkpt lat="49.311007" lon="-0.584962"><ele></ele><time>2015-1-4T2:10:58Z</time></trkpt>
<trkpt lat="49.31095" lon="-0.584921"><ele></ele><time>2015-1-4T2:11:1Z</time></trkpt>
<trkpt lat="49.310885" lon="-0.584847"><ele></ele><time>2015-1-4T2:11:4Z</time></trkpt>
<trkpt lat="49.310824" lon="-0.584773"><ele></ele><time>2015-1-4T2:11:7Z</time></trkpt>
<trkpt lat="49.31077" lon="-0.584711"><ele></ele><time>2015-1-4T2:11:10Z</time></trkpt>
<trkpt lat="49.310722" lon="-0.584649"><ele></ele><time>2015-1-4T2:11:13Z</time></trkpt>
<trkpt lat="49.31065" lon="-0.584539"><ele></ele><time>2015-1-4T2:11:16Z</time></trkpt>
<trkpt lat="49.31059" lon="-0.584497"><ele></ele><time>2015-1-4T2:11:19Z</time></trkpt>
<trkpt lat="49.310534" lon="-0.584422"><ele></ele><time>2015-1-4T2:11:22Z</time></trkpt>
<trkpt lat="49.310494" lon="-0.584381"><ele></ele><time>2015-1-4T2:11:25Z</time></trkpt>
<trkpt lat="49.310396" lon="-0.584305"><ele></ele><time>2015-1-4T2:11:28Z</time></trkpt>
<trkpt lat="49.310314" lon="-0.584247"><ele></ele><time>2015-1-4T2:11:31Z</time></trkpt>
<trkpt lat="49.310227" lon="-0.584204"><ele></ele><time>2015-1-4T2:11:34Z</time></trkpt>
<trkpt lat="49.310142" lon="-0.584214"><ele></ele><time>2015-1-4T2:11:37Z</time></trkpt>
<trkpt lat="49.310089" lon="-0.584232"><ele></ele><time>2015-1-4T2:11:40Z</time></trkpt>
<trkpt lat="49.310032" lon="-0.584281"><ele></ele><time>2015-1-4T2:11:43Z</time></trkpt>
<trkpt lat="49.309944" lon="-0.584386"><ele></ele><time>2015-1-4T2:11:46Z</time></trkpt>
<trkpt lat="49.309865" lon="-0.584427"><ele></ele><time>2015-1-4T2:11:49Z</time></trkpt>
<trkpt lat="49.30976" lon="-0.584455"><ele></ele><time>2015-1-4T2:11:52Z</time></trkpt>
<trkpt lat="49.309658" lon="-0.584518"><ele></ele><time>2015-1-4T2:11:55Z</time></trkpt>
<trkpt lat="49.30956" lon="-0.584564"><ele></ele><time>2015-1-4T2:11:58Z</time></trkpt>
<trkpt lat="49.309478" lon="-0.584621"><ele></ele><time>2015-1-4T2:12:1Z</time></trkpt>
<trkpt lat="49.30941" lon="-0.584697"><ele></ele><time>2015-1-4T2:12:4Z</time></trkpt>
<trkpt lat="49.309331" lon="-0.584745"><ele></ele><time>2015-1-4T2:12:7Z</time></trkpt>
<trkpt lat="49.309201" lon="-0.584778"><ele></ele><time>2015-1-4T2:12:10Z</time></trkpt>
<trkpt lat="49.309113" lon="-0.584774"><ele></ele><time>2015-1-4T2:12:13Z</time></trkpt>
<trkpt lat="49.309051" lon="-0.584769"><ele></ele><time>2015-1-4T2:12:16Z</time></trkpt>
<trkpt lat="49.308953" lon="-0.584777"><ele></ele><time>2015-1-4T2:12:19Z</time></trkpt>
<trkpt lat="49.308857" lon="-0.584778"><ele></ele><time>2015-1-4T2:12:22Z</time></trkpt>
<trkpt lat="49.308801" lon="-0.584813"><ele></ele><time>2015-1-4T2:12:25Z</time></trkpt>
<trkpt lat="49.308749" lon="-0.584815"><ele></ele><time>2015-1-4T2:12:28Z</time></trkpt>
<trkpt lat="49.308763" lon="-0.584725"><ele></ele><time>2015-1-4T2:12:31Z</time></trkpt>
<trkpt lat="49.308825" lon="-0.584694"><ele></ele><time>2015-1-4T2:12:34Z</time></trkpt>
<trkpt lat="49.30878" lon="-0.584799"><ele></ele><time>2015-1-4T2:12:37Z</time></trkpt>
<trkpt lat="49.308679" lon="-0.584724"><ele></ele><time>2015-1-4T2:12:40Z</time></trkpt>
<trkpt lat="49.308574" lon="-0.584589"><ele></ele><time>2015-1-4T2:12:43Z</time></trkpt>
<trkpt lat="49.308472" lon="-0.584433"><ele></ele><time>2015-1-4T2:12:46Z</time></trkpt>
<trkpt lat="49.308361" lon="-0.584261"><ele></ele><time>2015-1-4T2:12:49Z</time></trkpt>
<trkpt lat="49.308231" lon="-0.584079"><ele></ele><time>2015-1-4T2:12:52Z</time></trkpt>
<trkpt lat="49.308094" lon="-0.5839"><ele></ele><time>2015-1-4T2:12:55Z</time></trkpt>
<trkpt lat="49.307984" lon="-0.583753"><ele></ele><time>2015-1-4T2:12:58Z</time></trkpt>
<trkpt lat="49.307851" lon="-0.583569"><ele></ele><time>2015-1-4T2:13:1Z</time></trkpt>
<trkpt lat="49.307713" lon="-0.583407"><ele></ele><time>2015-1-4T2:13:4Z</time></trkpt>
<trkpt lat="49.307553" lon="-0.583217"><ele></ele><time>2015-1-4T2:13:7Z</time></trkpt>
<trkpt lat="49.307419" lon="-0.583036"><ele></ele><time>2015-1-4T2:13:10Z</time></trkpt>
<trkpt lat="49.307272" lon="-0.582865"><ele></ele><time>2015-1-4T2:13:13Z</time></trkpt>
<trkpt lat="49.307155" lon="-0.582723"><ele></ele><time>2015-1-4T2:13:16Z</time></trkpt>
<trkpt lat="49.307024" lon="-0.582557"><ele></ele><time>2015-1-4T2:13:19Z</time></trkpt>
<trkpt lat="49.306867" lon="-0.582365"><ele></ele><time>2015-1-4T2:13:22Z</time></trkpt>
<trkpt lat="49.306724" lon="-0.582209"><ele></ele><time>2015-1-4T2:13:25Z</time></trkpt>
<trkpt lat="49.306603" lon="-0.582009"><ele></ele><time>2015-1-4T2:13:28Z</time></trkpt>
<trkpt lat="49.306462" lon="-0.58185"><ele></ele><time>2015-1-4T2:13:31Z</time></trkpt>
<trkpt lat="49.306359" lon="-0.581692"><ele></ele><time>2015-1-4T2:13:34Z</time></trkpt>
<trkpt lat="49.306364" lon="-0.581501"><ele></ele><time>2015-1-4T2:13:37Z</time></trkpt>
<trkpt lat="49.306383" lon="-0.581313"><ele></ele><time>2015-1-4T2:13:40Z</time></trkpt>
<trkpt lat="49.306411" lon="-0.581129"><ele></ele><time>2015-1-4T2:13:43Z</time></trkpt>
<trkpt lat="49.306434" lon="-0.580874"><ele></ele><time>2015-1-4T2:13:46Z</time></trkpt>
<trkpt lat="49.306438" lon="-0.580594"><ele></ele><time>2015-1-4T2:13:49Z</time></trkpt>
<trkpt lat="49.306438" lon="-0.580303"><ele></ele><time>2015-1-4T2:13:52Z</time></trkpt>
<trkpt lat="49.306447" lon="-0.579987"><ele></ele><time>2015-1-4T2:13:55Z</time></trkpt>
<trkpt lat="49.306461" lon="-0.579719"><ele></ele><time>2015-1-4T2:13:58Z</time></trkpt>
<trkpt lat="49.306454" lon="-0.579438"><ele></ele><time>2015-1-4T2:14:1Z</time></trkpt>
<trkpt lat="49.30637" lon="-0.579252"><ele></ele><time>2015-1-4T2:14:4Z</time></trkpt>
<trkpt lat="49.306294" lon="-0.579245"><ele></ele><time>2015-1-4T2:14:7Z</time></trkpt>
<trkpt lat="49.306364" lon="-0.57923"><ele></ele><time>2015-1-4T2:14:10Z</time></trkpt>
<trkpt lat="49.306464" lon="-0.579175"><ele></ele><time>2015-1-4T2:14:13Z</time></trkpt>
<trkpt lat="49.306481" lon="-0.578986"><ele></ele><time>2015-1-4T2:14:16Z</time></trkpt>
<trkpt lat="49.306488" lon="-0.578785"><ele></ele><time>2015-1-4T2:14:19Z</time></trkpt>
<trkpt lat="49.306481" lon="-0.578535"><ele></ele><time>2015-1-4T2:14:22Z</time></trkpt>
<trkpt lat="49.306468" lon="-0.57828"><ele></ele><time>2015-1-4T2:14:25Z</time></trkpt>
<trkpt lat="49.306462" lon="-0.57803"><ele></ele><time>2015-1-4T2:14:28Z</time></trkpt>
<trkpt lat="49.306433" lon="-0.577766"><ele></ele><time>2015-1-4T2:14:31Z</time></trkpt>
<trkpt lat="49.306406" lon="-0.577511"><ele></ele><time>2015-1-4T2:14:34Z</time></trkpt>
<trkpt lat="49.306298" lon="-0.577297"><ele></ele><time>2015-1-4T2:14:37Z</time></trkpt>
<trkpt lat="49.306219" lon="-0.577087"><ele></ele><time>2015-1-4T2:14:40Z</time></trkpt>
<trkpt lat="49.306106" lon="-0.576909"><ele></ele><time>2015-1-4T2:14:43Z</time></trkpt>
<trkpt lat="49.305961" lon="-0.576698"><ele></ele><time>2015-1-4T2:14:46Z</time></trkpt>
<trkpt lat="49.305813" lon="-0.576517"><ele></ele><time>2015-1-4T2:14:49Z</time></trkpt>
<trkpt lat="49.305677" lon="-0.576383"><ele></ele><time>2015-1-4T2:14:52Z</time></trkpt>
<trkpt lat="49.305552" lon="-0.576189"><ele></ele><time>2015-1-4T2:14:55Z</time></trkpt>
<trkpt lat="49.305408" lon="-0.575998"><ele></ele><time>2015-1-4T2:14:58Z</time></trkpt>
<trkpt lat="49.30528" lon="-0.57584"><ele></ele><time>2015-1-4T2:15:1Z</time></trkpt>
<trkpt lat="49.305171" lon="-0.575673"><ele></ele><time>2015-1-4T2:15:4Z</time></trkpt>
<trkpt lat="49.305229" lon="-0.575552"><ele></ele><time>2015-1-4T2:15:7Z</time></trkpt>
<trkpt lat="49.305247" lon="-0.575395"><ele></ele><time>2015-1-4T2:15:10Z</time></trkpt>
<trkpt lat="49.305149" lon="-0.575249"><ele></ele><time>2015-1-4T2:15:13Z</time></trkpt>
<trkpt lat="49.305033" lon="-0.575118"><ele></ele><time>2015-1-4T2:15:16Z</time></trkpt>
<trkpt lat="49.304914" lon="-0.574931"><ele></ele><time>2015-1-4T2:15:19Z</time></trkpt>
<trkpt lat="49.304797" lon="-0.574754"><ele></ele><time>2015-1-4T2:15:22Z</time></trkpt>
<trkpt lat="49.304671" lon="-0.574587"><ele></ele><time>2015-1-4T2:15:25Z</time></trkpt>
<trkpt lat="49.304534" lon="-0.574396"><ele></ele><time>2015-1-4T2:15:28Z</time></trkpt>
<trkpt lat="49.304369" lon="-0.574179"><ele></ele><time>2015-1-4T2:15:31Z</time></trkpt>
<trkpt lat="49.304219" lon="-0.573997"><ele></ele><time>2015-1-4T2:15:34Z</time></trkpt>
<trkpt lat="49.304073" lon="-0.573823"><ele></ele><time>2015-1-4T2:15:37Z</time></trkpt>
<trkpt lat="49.303919" lon="-0.573661"><ele></ele><time>2015-1-4T2:15:40Z</time></trkpt>
<trkpt lat="49.303805" lon="-0.573531"><ele></ele><time>2015-1-4T2:15:43Z</time></trkpt>
<trkpt lat="49.30368" lon="-0.573391"><ele></ele><time>2015-1-4T2:15:46Z</time></trkpt>
<trkpt lat="49.303574" lon="-0.573224"><ele></ele><time>2015-1-4T2:15:49Z</time></trkpt>
<trkpt lat="49.303465" lon="-0.573085"><ele></ele><time>2015-1-4T2:15:52Z</time></trkpt>
<trkpt lat="49.303362" lon="-0.572949"><ele></ele><time>2015-1-4T2:15:55Z</time></trkpt>
<trkpt lat="49.303243" lon="-0.572812"><ele></ele><time>2015-1-4T2:15:58Z</time></trkpt>
<trkpt lat="49.30309" lon="-0.572673"><ele></ele><time>2015-1-4T2:16:1Z</time></trkpt>
<trkpt lat="49.302965" lon="-0.572556"><ele></ele><time>2015-1-4T2:16:4Z</time></trkpt>
<trkpt lat="49.302838" lon="-0.572438"><ele></ele><time>2015-1-4T2:16:7Z</time></trkpt>
<trkpt lat="49.302711" lon="-0.572329"><ele></ele><time>2015-1-4T2:16:10Z</time></trkpt>
<trkpt lat="49.302583" lon="-0.572216"><ele></ele><time>2015-1-4T2:16:13Z</time></trkpt>
<trkpt lat="49.302465" lon="-0.572128"><ele></ele><time>2015-1-4T2:16:16Z</time></trkpt>
<trkpt lat="49.302374" lon="-0.572016"><ele></ele><time>2015-1-4T2:16:19Z</time></trkpt>
<trkpt lat="49.302308" lon="-0.571936"><ele></ele><time>2015-1-4T2:16:22Z</time></trkpt>
<trkpt lat="49.302219" lon="-0.571915"><ele></ele><time>2015-1-4T2:16:25Z</time></trkpt>
<trkpt lat="49.302148" lon="-0.571882"><ele></ele><time>2015-1-4T2:16:28Z</time></trkpt>
<trkpt lat="49.30205" lon="-0.571809"><ele></ele><time>2015-1-4T2:16:31Z</time></trkpt>
<trkpt lat="49.301939" lon="-0.571736"><ele></ele><time>2015-1-4T2:16:34Z</time></trkpt>
<trkpt lat="49.301833" lon="-0.571634"><ele></ele><time>2015-1-4T2:16:37Z</time></trkpt>
<trkpt lat="49.30171" lon="-0.571534"><ele></ele><time>2015-1-4T2:16:40Z</time></trkpt>
<trkpt lat="49.301591" lon="-0.571415"><ele></ele><time>2015-1-4T2:16:43Z</time></trkpt>
<trkpt lat="49.301484" lon="-0.571289"><ele></ele><time>2015-1-4T2:16:46Z</time></trkpt>
<trkpt lat="49.301349" lon="-0.57118"><ele></ele><time>2015-1-4T2:16:49Z</time></trkpt>
<trkpt lat="49.301215" lon="-0.571072"><ele></ele><time>2015-1-4T2:16:52Z</time></trkpt>
<trkpt lat="49.301087" lon="-0.570999"><ele></ele><time>2015-1-4T2:16:55Z</time></trkpt>
<trkpt lat="49.300982" lon="-0.570894"><ele></ele><time>2015-1-4T2:16:58Z</time></trkpt>
<trkpt lat="49.300883" lon="-0.570795"><ele></ele><time>2015-1-4T2:17:1Z</time></trkpt>
<trkpt lat="49.300748" lon="-0.570689"><ele></ele><time>2015-1-4T2:17:4Z</time></trkpt>
<trkpt lat="49.300637" lon="-0.570587"><ele></ele><time>2015-1-4T2:17:7Z</time></trkpt>
<trkpt lat="49.300522" lon="-0.570484"><ele></ele><time>2015-1-4T2:17:10Z</time></trkpt>
<trkpt lat="49.300377" lon="-0.570406"><ele></ele><time>2015-1-4T2:17:13Z</time></trkpt>
<trkpt lat="49.30023" lon="-0.570362"><ele></ele><time>2015-1-4T2:17:16Z</time></trkpt>
<trkpt lat="49.300104" lon="-0.570325"><ele></ele><time>2015-1-4T2:17:19Z</time></trkpt>
<trkpt lat="49.299978" lon="-0.570272"><ele></ele><time>2015-1-4T2:17:22Z</time></trkpt>
<trkpt lat="49.299868" lon="-0.570252"><ele></ele><time>2015-1-4T2:17:25Z</time></trkpt>
<trkpt lat="49.299763" lon="-0.570236"><ele></ele><time>2015-1-4T2:17:28Z</time></trkpt>
<trkpt lat="49.299636" lon="-0.570206"><ele></ele><time>2015-1-4T2:17:31Z</time></trkpt>
<trkpt lat="49.299508" lon="-0.570193"><ele></ele><time>2015-1-4T2:17:34Z</time></trkpt>
<trkpt lat="49.299414" lon="-0.570182"><ele></ele><time>2015-1-4T2:17:37Z</time></trkpt>
<trkpt lat="49.299294" lon="-0.570147"><ele></ele><time>2015-1-4T2:17:40Z</time></trkpt>
<trkpt lat="49.299156" lon="-0.570122"><ele></ele><time>2015-1-4T2:17:43Z</time></trkpt>
<trkpt lat="49.299015" lon="-0.570136"><ele></ele><time>2015-1-4T2:17:46Z</time></trkpt>
<trkpt lat="49.298882" lon="-0.57011"><ele></ele><time>2015-1-4T2:17:49Z</time></trkpt>
<trkpt lat="49.29876" lon="-0.570083"><ele></ele><time>2015-1-4T2:17:52Z</time></trkpt>
<trkpt lat="49.298636" lon="-0.570063"><ele></ele><time>2015-1-4T2:17:55Z</time></trkpt>
<trkpt lat="49.298502" lon="-0.570031"><ele></ele><time>2015-1-4T2:17:58Z</time></trkpt>
<trkpt lat="49.298373" lon="-0.56999"><ele></ele><time>2015-1-4T2:18:1Z</time></trkpt>
<trkpt lat="49.298246" lon="-0.569985"><ele></ele><time>2015-1-4T2:18:4Z</time></trkpt>
<trkpt lat="49.29812" lon="-0.569982"><ele></ele><time>2015-1-4T2:18:7Z</time></trkpt>
<trkpt lat="49.297973" lon="-0.569939"><ele></ele><time>2015-1-4T2:18:10Z</time></trkpt>
<trkpt lat="49.297855" lon="-0.569915"><ele></ele><time>2015-1-4T2:18:13Z</time></trkpt>
<trkpt lat="49.297726" lon="-0.569921"><ele></ele><time>2015-1-4T2:18:16Z</time></trkpt>
<trkpt lat="49.297601" lon="-0.569898"><ele></ele><time>2015-1-4T2:18:19Z</time></trkpt>
<trkpt lat="49.297498" lon="-0.569863"><ele></ele><time>2015-1-4T2:18:22Z</time></trkpt>
<trkpt lat="49.297359" lon="-0.569839"><ele></ele><time>2015-1-4T2:18:25Z</time></trkpt>
<trkpt lat="49.297234" lon="-0.569827"><ele></ele><time>2015-1-4T2:18:28Z</time></trkpt>
<trkpt lat="49.297095" lon="-0.569809"><ele></ele><time>2015-1-4T2:18:31Z</time></trkpt>
<trkpt lat="49.296983" lon="-0.569826"><ele></ele><time>2015-1-4T2:18:34Z</time></trkpt>
<trkpt lat="49.296872" lon="-0.569834"><ele></ele><time>2015-1-4T2:18:37Z</time></trkpt>
<trkpt lat="49.296735" lon="-0.569808"><ele></ele><time>2015-1-4T2:18:40Z</time></trkpt>
<trkpt lat="49.296565" lon="-0.569779"><ele></ele><time>2015-1-4T2:18:43Z</time></trkpt>
<trkpt lat="49.296393" lon="-0.569747"><ele></ele><time>2015-1-4T2:18:46Z</time></trkpt>
<trkpt lat="49.296229" lon="-0.569719"><ele></ele><time>2015-1-4T2:18:49Z</time></trkpt>
<trkpt lat="49.296065" lon="-0.569737"><ele></ele><time>2015-1-4T2:18:52Z</time></trkpt>
<trkpt lat="49.295897" lon="-0.569704"><ele></ele><time>2015-1-4T2:18:55Z</time></trkpt>
<trkpt lat="49.295715" lon="-0.569686"><ele></ele><time>2015-1-4T2:18:58Z</time></trkpt>
<trkpt lat="49.295532" lon="-0.56967"><ele></ele><time>2015-1-4T2:19:1Z</time></trkpt>
<trkpt lat="49.295358" lon="-0.569645"><ele></ele><time>2015-1-4T2:19:4Z</time></trkpt>
<trkpt lat="49.295185" lon="-0.569622"><ele></ele><time>2015-1-4T2:19:7Z</time></trkpt>
<trkpt lat="49.295015" lon="-0.569611"><ele></ele><time>2015-1-4T2:19:10Z</time></trkpt>
<trkpt lat="49.294853" lon="-0.569598"><ele></ele><time>2015-1-4T2:19:13Z</time></trkpt>
<trkpt lat="49.294674" lon="-0.569631"><ele></ele><time>2015-1-4T2:19:16Z</time></trkpt>
<trkpt lat="49.294494" lon="-0.569654"><ele></ele><time>2015-1-4T2:19:19Z</time></trkpt>
<trkpt lat="49.294304" lon="-0.569676"><ele></ele><time>2015-1-4T2:19:22Z</time></trkpt>
<trkpt lat="49.294123" lon="-0.569673"><ele></ele><time>2015-1-4T2:19:25Z</time></trkpt>
<trkpt lat="49.293942" lon="-0.569725"><ele></ele><time>2015-1-4T2:19:28Z</time></trkpt>
<trkpt lat="49.293734" lon="-0.569736"><ele></ele><time>2015-1-4T2:19:31Z</time></trkpt>
<trkpt lat="49.293544" lon="-0.569769"><ele></ele><time>2015-1-4T2:19:34Z</time></trkpt>
<trkpt lat="49.29336" lon="-0.569813"><ele></ele><time>2015-1-4T2:19:37Z</time></trkpt>
<trkpt lat="49.293195" lon="-0.569844"><ele></ele><time>2015-1-4T2:19:40Z</time></trkpt>
<trkpt lat="49.293064" lon="-0.569857"><ele></ele><time>2015-1-4T2:19:43Z</time></trkpt>
<trkpt lat="49.292897" lon="-0.569901"><ele></ele><time>2015-1-4T2:19:46Z</time></trkpt>
<trkpt lat="49.292739" lon="-0.569927"><ele></ele><time>2015-1-4T2:19:49Z</time></trkpt>
<trkpt lat="49.292584" lon="-0.569954"><ele></ele><time>2015-1-4T2:19:52Z</time></trkpt>
<trkpt lat="49.292441" lon="-0.569995"><ele></ele><time>2015-1-4T2:19:55Z</time></trkpt>
<trkpt lat="49.292296" lon="-0.57003"><ele></ele><time>2015-1-4T2:19:58Z</time></trkpt>
<trkpt lat="49.292146" lon="-0.570063"><ele></ele><time>2015-1-4T2:20:1Z</time></trkpt>
<trkpt lat="49.292007" lon="-0.570066"><ele></ele><time>2015-1-4T2:20:4Z</time></trkpt>
<trkpt lat="49.291867" lon="-0.570099"><ele></ele><time>2015-1-4T2:20:7Z</time></trkpt>
<trkpt lat="49.291711" lon="-0.570103"><ele></ele><time>2015-1-4T2:20:10Z</time></trkpt>
<trkpt lat="49.291526" lon="-0.57014"><ele></ele><time>2015-1-4T2:20:13Z</time></trkpt>
<trkpt lat="49.291347" lon="-0.570166"><ele></ele><time>2015-1-4T2:20:16Z</time></trkpt>
<trkpt lat="49.291179" lon="-0.570183"><ele></ele><time>2015-1-4T2:20:19Z</time></trkpt>
<trkpt lat="49.291074" lon="-0.570072"><ele></ele><time>2015-1-4T2:20:22Z</time></trkpt>
<trkpt lat="49.291103" lon="-0.569871"><ele></ele><time>2015-1-4T2:20:25Z</time></trkpt>
<trkpt lat="49.291162" lon="-0.56966"><ele></ele><time>2015-1-4T2:20:28Z</time></trkpt>
<trkpt lat="49.291179" lon="-0.569404"><ele></ele><time>2015-1-4T2:20:31Z</time></trkpt>
<trkpt lat="49.291158" lon="-0.56915"><ele></ele><time>2015-1-4T2:20:34Z</time></trkpt>
<trkpt lat="49.291174" lon="-0.568885"><ele></ele><time>2015-1-4T2:20:37Z</time></trkpt>
<trkpt lat="49.291193" lon="-0.568611"><ele></ele><time>2015-1-4T2:20:40Z</time></trkpt>
<trkpt lat="49.291219" lon="-0.568419"><ele></ele><time>2015-1-4T2:20:43Z</time></trkpt>
<trkpt lat="49.291138" lon="-0.568354"><ele></ele><time>2015-1-4T2:20:46Z</time></trkpt>
<trkpt lat="49.29106" lon="-0.568349"><ele></ele><time>2015-1-4T2:20:49Z</time></trkpt>
<trkpt lat="49.291017" lon="-0.56836"><ele></ele><time>2015-1-4T2:20:52Z</time></trkpt>
<trkpt lat="49.291013" lon="-0.568373"><ele></ele><time>2015-1-4T2:20:55Z</time></trkpt>
<trkpt lat="49.290989" lon="-0.568315"><ele></ele><time>2015-1-4T2:20:58Z</time></trkpt>
<trkpt lat="49.291078" lon="-0.568299"><ele></ele><time>2015-1-4T2:21:1Z</time></trkpt>
<trkpt lat="49.291126" lon="-0.568307"><ele></ele><time>2015-1-4T2:21:4Z</time></trkpt>
<trkpt lat="49.291158" lon="-0.568311"><ele></ele><time>2015-1-4T2:21:7Z</time></trkpt>
<trkpt lat="49.291163" lon="-0.568332"><ele></ele><time>2015-1-4T2:21:10Z</time></trkpt>
<trkpt lat="49.29121" lon="-0.568367"><ele></ele><time>2015-1-4T2:21:13Z</time></trkpt>
<trkpt lat="49.291256" lon="-0.568443"><ele></ele><time>2015-1-4T2:21:16Z</time></trkpt>
<trkpt lat="49.291201" lon="-0.568637"><ele></ele><time>2015-1-4T2:21:19Z</time></trkpt>
<trkpt lat="49.291155" lon="-0.568804"><ele></ele><time>2015-1-4T2:21:22Z</time></trkpt>
<trkpt lat="49.291132" lon="-0.568997"><ele></ele><time>2015-1-4T2:21:25Z</time></trkpt>
<trkpt lat="49.291139" lon="-0.569199"><ele></ele><time>2015-1-4T2:21:28Z</time></trkpt>
<trkpt lat="49.291152" lon="-0.569412"><ele></ele><time>2015-1-4T2:21:31Z</time></trkpt>
<trkpt lat="49.291115" lon="-0.569613"><ele></ele><time>2015-1-4T2:21:34Z</time></trkpt>
<trkpt lat="49.291073" lon="-0.569827"><ele></ele><time>2015-1-4T2:21:37Z</time></trkpt>
<trkpt lat="49.29105" lon="-0.570046"><ele></ele><time>2015-1-4T2:21:40Z</time></trkpt>
<trkpt lat="49.291147" lon="-0.570174"><ele></ele><time>2015-1-4T2:21:43Z</time></trkpt>
<trkpt lat="49.291272" lon="-0.570168"><ele></ele><time>2015-1-4T2:21:46Z</time></trkpt>
<trkpt lat="49.291453" lon="-0.570153"><ele></ele><time>2015-1-4T2:21:49Z</time></trkpt>
<trkpt lat="49.2916" lon="-0.570136"><ele></ele><time>2015-1-4T2:21:52Z</time></trkpt>
<trkpt lat="49.291756" lon="-0.570072"><ele></ele><time>2015-1-4T2:21:55Z</time></trkpt>
<trkpt lat="49.291921" lon="-0.570079"><ele></ele><time>2015-1-4T2:21:58Z</time></trkpt>
<trkpt lat="49.292086" lon="-0.570084"><ele></ele><time>2015-1-4T2:22:1Z</time></trkpt>
<trkpt lat="49.29222" lon="-0.570073"><ele></ele><time>2015-1-4T2:22:4Z</time></trkpt>
<trkpt lat="49.292373" lon="-0.570026"><ele></ele><time>2015-1-4T2:22:7Z</time></trkpt>
<trkpt lat="49.292491" lon="-0.569977"><ele></ele><time>2015-1-4T2:22:10Z</time></trkpt>
<trkpt lat="49.292627" lon="-0.569936"><ele></ele><time>2015-1-4T2:22:13Z</time></trkpt>
<trkpt lat="49.292753" lon="-0.569917"><ele></ele><time>2015-1-4T2:22:16Z</time></trkpt>
<trkpt lat="49.292885" lon="-0.569886"><ele></ele><time>2015-1-4T2:22:19Z</time></trkpt>
<trkpt lat="49.293032" lon="-0.569854"><ele></ele><time>2015-1-4T2:22:22Z</time></trkpt>
<trkpt lat="49.293172" lon="-0.569824"><ele></ele><time>2015-1-4T2:22:25Z</time></trkpt>
<trkpt lat="49.293306" lon="-0.569811"><ele></ele><time>2015-1-4T2:22:28Z</time></trkpt>
<trkpt lat="49.293437" lon="-0.569789"><ele></ele><time>2015-1-4T2:22:31Z</time></trkpt>
<trkpt lat="49.293591" lon="-0.569752"><ele></ele><time>2015-1-4T2:22:34Z</time></trkpt>
<trkpt lat="49.293743" lon="-0.569722"><ele></ele><time>2015-1-4T2:22:37Z</time></trkpt>
<trkpt lat="49.293875" lon="-0.56972"><ele></ele><time>2015-1-4T2:22:40Z</time></trkpt>
<trkpt lat="49.294021" lon="-0.569713"><ele></ele><time>2015-1-4T2:22:43Z</time></trkpt>
<trkpt lat="49.294161" lon="-0.569736"><ele></ele><time>2015-1-4T2:22:46Z</time></trkpt>
<trkpt lat="49.294321" lon="-0.569714"><ele></ele><time>2015-1-4T2:22:49Z</time></trkpt>
<trkpt lat="49.294449" lon="-0.56972"><ele></ele><time>2015-1-4T2:22:52Z</time></trkpt>
<trkpt lat="49.294623" lon="-0.569679"><ele></ele><time>2015-1-4T2:22:55Z</time></trkpt>
<trkpt lat="49.294751" lon="-0.569655"><ele></ele><time>2015-1-4T2:22:58Z</time></trkpt>
<trkpt lat="49.294889" lon="-0.569639"><ele></ele><time>2015-1-4T2:23:1Z</time></trkpt>
<trkpt lat="49.295034" lon="-0.569647"><ele></ele><time>2015-1-4T2:23:4Z</time></trkpt>
<trkpt lat="49.295157" lon="-0.569623"><ele></ele><time>2015-1-4T2:23:7Z</time></trkpt>
<trkpt lat="49.295289" lon="-0.569645"><ele></ele><time>2015-1-4T2:23:10Z</time></trkpt>
<trkpt lat="49.295411" lon="-0.569663"><ele></ele><time>2015-1-4T2:23:13Z</time></trkpt>
<trkpt lat="49.295544" lon="-0.569638"><ele></ele><time>2015-1-4T2:23:16Z</time></trkpt>
<trkpt lat="49.295672" lon="-0.569645"><ele></ele><time>2015-1-4T2:23:19Z</time></trkpt>
<trkpt lat="49.295833" lon="-0.569666"><ele></ele><time>2015-1-4T2:23:22Z</time></trkpt>
<trkpt lat="49.295976" lon="-0.569699"><ele></ele><time>2015-1-4T2:23:25Z</time></trkpt>
<trkpt lat="49.296111" lon="-0.569735"><ele></ele><time>2015-1-4T2:23:28Z</time></trkpt>
<trkpt lat="49.29626" lon="-0.569733"><ele></ele><time>2015-1-4T2:23:31Z</time></trkpt>
<trkpt lat="49.2964" lon="-0.569766"><ele></ele><time>2015-1-4T2:23:34Z</time></trkpt>
<trkpt lat="49.296545" lon="-0.56978"><ele></ele><time>2015-1-4T2:23:37Z</time></trkpt>
<trkpt lat="49.296672" lon="-0.569772"><ele></ele><time>2015-1-4T2:23:40Z</time></trkpt>
<trkpt lat="49.296802" lon="-0.569781"><ele></ele><time>2015-1-4T2:23:43Z</time></trkpt>
<trkpt lat="49.296948" lon="-0.569806"><ele></ele><time>2015-1-4T2:23:46Z</time></trkpt>
<trkpt lat="49.297072" lon="-0.569785"><ele></ele><time>2015-1-4T2:23:49Z</time></trkpt>
<trkpt lat="49.297193" lon="-0.569792"><ele></ele><time>2015-1-4T2:23:52Z</time></trkpt>
<trkpt lat="49.297334" lon="-0.569813"><ele></ele><time>2015-1-4T2:23:55Z</time></trkpt>
<trkpt lat="49.297463" lon="-0.569836"><ele></ele><time>2015-1-4T2:23:58Z</time></trkpt>
<trkpt lat="49.297629" lon="-0.569867"><ele></ele><time>2015-1-4T2:24:1Z</time></trkpt>
<trkpt lat="49.297768" lon="-0.56989"><ele></ele><time>2015-1-4T2:24:4Z</time></trkpt>
<trkpt lat="49.297905" lon="-0.569922"><ele></ele><time>2015-1-4T2:24:7Z</time></trkpt>
<trkpt lat="49.298064" lon="-0.569955"><ele></ele><time>2015-1-4T2:24:10Z</time></trkpt>
<trkpt lat="49.298199" lon="-0.569975"><ele></ele><time>2015-1-4T2:24:13Z</time></trkpt>
<trkpt lat="49.298359" lon="-0.570009"><ele></ele><time>2015-1-4T2:24:16Z</time></trkpt>
<trkpt lat="49.298522" lon="-0.570034"><ele></ele><time>2015-1-4T2:24:19Z</time></trkpt>
<trkpt lat="49.298672" lon="-0.570059"><ele></ele><time>2015-1-4T2:24:22Z</time></trkpt>
<trkpt lat="49.298812" lon="-0.570098"><ele></ele><time>2015-1-4T2:24:25Z</time></trkpt>
<trkpt lat="49.298969" lon="-0.570155"><ele></ele><time>2015-1-4T2:24:28Z</time></trkpt>
<trkpt lat="49.299138" lon="-0.570169"><ele></ele><time>2015-1-4T2:24:31Z</time></trkpt>
<trkpt lat="49.29928" lon="-0.570194"><ele></ele><time>2015-1-4T2:24:34Z</time></trkpt>
<trkpt lat="49.299448" lon="-0.570202"><ele></ele><time>2015-1-4T2:24:37Z</time></trkpt>
<trkpt lat="49.299597" lon="-0.570231"><ele></ele><time>2015-1-4T2:24:40Z</time></trkpt>
<trkpt lat="49.299751" lon="-0.570258"><ele></ele><time>2015-1-4T2:24:43Z</time></trkpt>
<trkpt lat="49.299918" lon="-0.570283"><ele></ele><time>2015-1-4T2:24:46Z</time></trkpt>
<trkpt lat="49.300094" lon="-0.570294"><ele></ele><time>2015-1-4T2:24:49Z</time></trkpt>
<trkpt lat="49.300257" lon="-0.57036"><ele></ele><time>2015-1-4T2:24:52Z</time></trkpt>
<trkpt lat="49.300419" lon="-0.570427"><ele></ele><time>2015-1-4T2:24:55Z</time></trkpt>
<trkpt lat="49.300558" lon="-0.570525"><ele></ele><time>2015-1-4T2:24:58Z</time></trkpt>
<trkpt lat="49.300703" lon="-0.570635"><ele></ele><time>2015-1-4T2:25:1Z</time></trkpt>
<trkpt lat="49.300859" lon="-0.570738"><ele></ele><time>2015-1-4T2:25:4Z</time></trkpt>
<trkpt lat="49.300987" lon="-0.570865"><ele></ele><time>2015-1-4T2:25:7Z</time></trkpt>
<trkpt lat="49.301106" lon="-0.570977"><ele></ele><time>2015-1-4T2:25:10Z</time></trkpt>
<trkpt lat="49.301253" lon="-0.571102"><ele></ele><time>2015-1-4T2:25:13Z</time></trkpt>
<trkpt lat="49.301393" lon="-0.571218"><ele></ele><time>2015-1-4T2:25:16Z</time></trkpt>
<trkpt lat="49.301536" lon="-0.571352"><ele></ele><time>2015-1-4T2:25:19Z</time></trkpt>
<trkpt lat="49.301677" lon="-0.571486"><ele></ele><time>2015-1-4T2:25:22Z</time></trkpt>
<trkpt lat="49.301841" lon="-0.57162"><ele></ele><time>2015-1-4T2:25:25Z</time></trkpt>
<trkpt lat="49.301983" lon="-0.571761"><ele></ele><time>2015-1-4T2:25:28Z</time></trkpt>
<trkpt lat="49.302096" lon="-0.571874"><ele></ele><time>2015-1-4T2:25:31Z</time></trkpt>
<trkpt lat="49.302223" lon="-0.57199"><ele></ele><time>2015-1-4T2:25:34Z</time></trkpt>
<trkpt lat="49.302338" lon="-0.572049"><ele></ele><time>2015-1-4T2:25:37Z</time></trkpt>
<trkpt lat="49.302462" lon="-0.572152"><ele></ele><time>2015-1-4T2:25:40Z</time></trkpt>
<trkpt lat="49.302586" lon="-0.572255"><ele></ele><time>2015-1-4T2:25:43Z</time></trkpt>
<trkpt lat="49.302714" lon="-0.572341"><ele></ele><time>2015-1-4T2:25:46Z</time></trkpt>
<trkpt lat="49.302838" lon="-0.572452"><ele></ele><time>2015-1-4T2:25:49Z</time></trkpt>
<trkpt lat="49.302964" lon="-0.572555"><ele></ele><time>2015-1-4T2:25:52Z</time></trkpt>
<trkpt lat="49.303083" lon="-0.572611"><ele></ele><time>2015-1-4T2:25:55Z</time></trkpt>
<trkpt lat="49.303189" lon="-0.572714"><ele></ele><time>2015-1-4T2:25:58Z</time></trkpt>
<trkpt lat="49.303313" lon="-0.572885"><ele></ele><time>2015-1-4T2:26:1Z</time></trkpt>
<trkpt lat="49.30342" lon="-0.573031"><ele></ele><time>2015-1-4T2:26:4Z</time></trkpt>
<trkpt lat="49.303529" lon="-0.573144"><ele></ele><time>2015-1-4T2:26:7Z</time></trkpt>
<trkpt lat="49.303606" lon="-0.573231"><ele></ele><time>2015-1-4T2:26:10Z</time></trkpt>
<trkpt lat="49.303694" lon="-0.573332"><ele></ele><time>2015-1-4T2:26:13Z</time></trkpt>
<trkpt lat="49.303779" lon="-0.573464"><ele></ele><time>2015-1-4T2:26:16Z</time></trkpt>
<trkpt lat="49.30388" lon="-0.573616"><ele></ele><time>2015-1-4T2:26:19Z</time></trkpt>
<trkpt lat="49.303991" lon="-0.573757"><ele></ele><time>2015-1-4T2:26:22Z</time></trkpt>
<trkpt lat="49.304088" lon="-0.573893"><ele></ele><time>2015-1-4T2:26:25Z</time></trkpt>
<trkpt lat="49.304197" lon="-0.574015"><ele></ele><time>2015-1-4T2:26:28Z</time></trkpt>
<trkpt lat="49.304325" lon="-0.574196"><ele></ele><time>2015-1-4T2:26:31Z</time></trkpt>
<trkpt lat="49.30444" lon="-0.574334"><ele></ele><time>2015-1-4T2:26:34Z</time></trkpt>
<trkpt lat="49.304586" lon="-0.574482"><ele></ele><time>2015-1-4T2:26:37Z</time></trkpt>
<trkpt lat="49.304714" lon="-0.574627"><ele></ele><time>2015-1-4T2:26:40Z</time></trkpt>
<trkpt lat="49.304852" lon="-0.574792"><ele></ele><time>2015-1-4T2:26:43Z</time></trkpt>
<trkpt lat="49.304987" lon="-0.574978"><ele></ele><time>2015-1-4T2:26:46Z</time></trkpt>
<trkpt lat="49.305122" lon="-0.575153"><ele></ele><time>2015-1-4T2:26:49Z</time></trkpt>
<trkpt lat="49.305192" lon="-0.575306"><ele></ele><time>2015-1-4T2:26:52Z</time></trkpt>
<trkpt lat="49.305176" lon="-0.57545"><ele></ele><time>2015-1-4T2:26:55Z</time></trkpt>
<trkpt lat="49.30513" lon="-0.575656"><ele></ele><time>2015-1-4T2:26:58Z</time></trkpt>
<trkpt lat="49.305206" lon="-0.575796"><ele></ele><time>2015-1-4T2:27:1Z</time></trkpt>
<trkpt lat="49.30532" lon="-0.575931"><ele></ele><time>2015-1-4T2:27:4Z</time></trkpt>
<trkpt lat="49.305451" lon="-0.576049"><ele></ele><time>2015-1-4T2:27:7Z</time></trkpt>
<trkpt lat="49.305544" lon="-0.576195"><ele></ele><time>2015-1-4T2:27:10Z</time></trkpt>
<trkpt lat="49.30567" lon="-0.576348"><ele></ele><time>2015-1-4T2:27:13Z</time></trkpt>
<trkpt lat="49.305763" lon="-0.576503"><ele></ele><time>2015-1-4T2:27:16Z</time></trkpt>
<trkpt lat="49.305853" lon="-0.576634"><ele></ele><time>2015-1-4T2:27:19Z</time></trkpt>
<trkpt lat="49.305978" lon="-0.576808"><ele></ele><time>2015-1-4T2:27:22Z</time></trkpt>
<trkpt lat="49.30607" lon="-0.576925"><ele></ele><time>2015-1-4T2:27:25Z</time></trkpt>
<trkpt lat="49.306187" lon="-0.577141"><ele></ele><time>2015-1-4T2:27:28Z</time></trkpt>
<trkpt lat="49.306296" lon="-0.57734"><ele></ele><time>2015-1-4T2:27:31Z</time></trkpt>
<trkpt lat="49.306405" lon="-0.577556"><ele></ele><time>2015-1-4T2:27:34Z</time></trkpt>
<trkpt lat="49.306439" lon="-0.577823"><ele></ele><time>2015-1-4T2:27:37Z</time></trkpt>
<trkpt lat="49.306445" lon="-0.578098"><ele></ele><time>2015-1-4T2:27:40Z</time></trkpt>
<trkpt lat="49.306492" lon="-0.578358"><ele></ele><time>2015-1-4T2:27:43Z</time></trkpt>
<trkpt lat="49.306523" lon="-0.578622"><ele></ele><time>2015-1-4T2:27:46Z</time></trkpt>
<trkpt lat="49.306534" lon="-0.578907"><ele></ele><time>2015-1-4T2:27:49Z</time></trkpt>
<trkpt lat="49.306488" lon="-0.579193"><ele></ele><time>2015-1-4T2:27:52Z</time></trkpt>
<trkpt lat="49.306471" lon="-0.579502"><ele></ele><time>2015-1-4T2:27:55Z</time></trkpt>
<trkpt lat="49.306474" lon="-0.5798"><ele></ele><time>2015-1-4T2:27:58Z</time></trkpt>
<trkpt lat="49.306467" lon="-0.580097"><ele></ele><time>2015-1-4T2:28:1Z</time></trkpt>
<trkpt lat="49.306468" lon="-0.580349"><ele></ele><time>2015-1-4T2:28:4Z</time></trkpt>
<trkpt lat="49.306457" lon="-0.580627"><ele></ele><time>2015-1-4T2:28:7Z</time></trkpt>
<trkpt lat="49.306438" lon="-0.580915"><ele></ele><time>2015-1-4T2:28:10Z</time></trkpt>
<trkpt lat="49.306394" lon="-0.581182"><ele></ele><time>2015-1-4T2:28:13Z</time></trkpt>
<trkpt lat="49.306344" lon="-0.581472"><ele></ele><time>2015-1-4T2:28:16Z</time></trkpt>
<trkpt lat="49.306313" lon="-0.581684"><ele></ele><time>2015-1-4T2:28:19Z</time></trkpt>
<trkpt lat="49.306323" lon="-0.581733"><ele></ele><time>2015-1-4T2:28:22Z</time></trkpt>
<trkpt lat="49.306326" lon="-0.581751"><ele></ele><time>2015-1-4T2:28:25Z</time></trkpt>
<trkpt lat="49.306273" lon="-0.581758"><ele></ele><time>2015-1-4T2:28:28Z</time></trkpt>
<trkpt lat="49.306211" lon="-0.58186"><ele></ele><time>2015-1-4T2:28:31Z</time></trkpt>
<trkpt lat="49.306143" lon="-0.582016"><ele></ele><time>2015-1-4T2:28:34Z</time></trkpt>
<trkpt lat="49.306077" lon="-0.582177"><ele></ele><time>2015-1-4T2:28:37Z</time></trkpt>
<trkpt lat="49.305969" lon="-0.582376"><ele></ele><time>2015-1-4T2:28:40Z</time></trkpt>
<trkpt lat="49.305844" lon="-0.582569"><ele></ele><time>2015-1-4T2:28:43Z</time></trkpt>
<trkpt lat="49.305742" lon="-0.58278"><ele></ele><time>2015-1-4T2:28:46Z</time></trkpt>
<trkpt lat="49.305616" lon="-0.583024"><ele></ele><time>2015-1-4T2:28:49Z</time></trkpt>
<trkpt lat="49.305503" lon="-0.583286"><ele></ele><time>2015-1-4T2:28:52Z</time></trkpt>
<trkpt lat="49.305366" lon="-0.583578"><ele></ele><time>2015-1-4T2:28:55Z</time></trkpt>
<trkpt lat="49.305251" lon="-0.583868"><ele></ele><time>2015-1-4T2:28:58Z</time></trkpt>
<trkpt lat="49.305134" lon="-0.584139"><ele></ele><time>2015-1-4T2:29:1Z</time></trkpt>
<trkpt lat="49.305005" lon="-0.584411"><ele></ele><time>2015-1-4T2:29:4Z</time></trkpt>
<trkpt lat="49.304902" lon="-0.584662"><ele></ele><time>2015-1-4T2:29:7Z</time></trkpt>
<trkpt lat="49.304833" lon="-0.584975"><ele></ele><time>2015-1-4T2:29:10Z</time></trkpt>
<trkpt lat="49.304717" lon="-0.585271"><ele></ele><time>2015-1-4T2:29:13Z</time></trkpt>
<trkpt lat="49.304629" lon="-0.585577"><ele></ele><time>2015-1-4T2:29:16Z</time></trkpt>
<trkpt lat="49.304529" lon="-0.585881"><ele></ele><time>2015-1-4T2:29:19Z</time></trkpt>
<trkpt lat="49.304456" lon="-0.586185"><ele></ele><time>2015-1-4T2:29:22Z</time></trkpt>
<trkpt lat="49.304373" lon="-0.586503"><ele></ele><time>2015-1-4T2:29:25Z</time></trkpt>
<trkpt lat="49.304321" lon="-0.586819"><ele></ele><time>2015-1-4T2:29:28Z</time></trkpt>
<trkpt lat="49.3043" lon="-0.587104"><ele></ele><time>2015-1-4T2:29:31Z</time></trkpt>
<trkpt lat="49.304303" lon="-0.587392"><ele></ele><time>2015-1-4T2:29:34Z</time></trkpt>
<trkpt lat="49.304317" lon="-0.587641"><ele></ele><time>2015-1-4T2:29:37Z</time></trkpt>
<trkpt lat="49.304328" lon="-0.587891"><ele></ele><time>2015-1-4T2:29:40Z</time></trkpt>
<trkpt lat="49.304313" lon="-0.588071"><ele></ele><time>2015-1-4T2:29:43Z</time></trkpt>
<trkpt lat="49.304265" lon="-0.588268"><ele></ele><time>2015-1-4T2:29:46Z</time></trkpt>
<trkpt lat="49.304199" lon="-0.588492"><ele></ele><time>2015-1-4T2:29:49Z</time></trkpt>
<trkpt lat="49.304159" lon="-0.588695"><ele></ele><time>2015-1-4T2:29:52Z</time></trkpt>
<trkpt lat="49.304102" lon="-0.588913"><ele></ele><time>2015-1-4T2:29:55Z</time></trkpt>
<trkpt lat="49.304048" lon="-0.589124"><ele></ele><time>2015-1-4T2:29:58Z</time></trkpt>
<trkpt lat="49.30401" lon="-0.589288"><ele></ele><time>2015-1-4T2:30:1Z</time></trkpt>
<trkpt lat="49.303946" lon="-0.589542"><ele></ele><time>2015-1-4T2:30:4Z</time></trkpt>
<trkpt lat="49.303892" lon="-0.589737"><ele></ele><time>2015-1-4T2:30:7Z</time></trkpt>
<trkpt lat="49.303836" lon="-0.589978"><ele></ele><time>2015-1-4T2:30:10Z</time></trkpt>
<trkpt lat="49.303788" lon="-0.590236"><ele></ele><time>2015-1-4T2:30:13Z</time></trkpt>
<trkpt lat="49.303732" lon="-0.590453"><ele></ele><time>2015-1-4T2:30:16Z</time></trkpt>
<trkpt lat="49.30365" lon="-0.590684"><ele></ele><time>2015-1-4T2:30:19Z</time></trkpt>
<trkpt lat="49.303595" lon="-0.590945"><ele></ele><time>2015-1-4T2:30:22Z</time></trkpt>
<trkpt lat="49.303561" lon="-0.591176"><ele></ele><time>2015-1-4T2:30:25Z</time></trkpt>
<trkpt lat="49.303543" lon="-0.591425"><ele></ele><time>2015-1-4T2:30:28Z</time></trkpt>
<trkpt lat="49.303463" lon="-0.591683"><ele></ele><time>2015-1-4T2:30:31Z</time></trkpt>
<trkpt lat="49.303369" lon="-0.591939"><ele></ele><time>2015-1-4T2:30:34Z</time></trkpt>
<trkpt lat="49.303309" lon="-0.592187"><ele></ele><time>2015-1-4T2:30:37Z</time></trkpt>
<trkpt lat="49.30323" lon="-0.592397"><ele></ele><time>2015-1-4T2:30:40Z</time></trkpt>
<trkpt lat="49.30313" lon="-0.592635"><ele></ele><time>2015-1-4T2:30:43Z</time></trkpt>
<trkpt lat="49.303066" lon="-0.592865"><ele></ele><time>2015-1-4T2:30:46Z</time></trkpt>
<trkpt lat="49.302983" lon="-0.593094"><ele></ele><time>2015-1-4T2:30:49Z</time></trkpt>
<trkpt lat="49.302895" lon="-0.593343"><ele></ele><time>2015-1-4T2:30:52Z</time></trkpt>
<trkpt lat="49.302809" lon="-0.593593"><ele></ele><time>2015-1-4T2:30:55Z</time></trkpt>
<trkpt lat="49.302758" lon="-0.593877"><ele></ele><time>2015-1-4T2:30:58Z</time></trkpt>
<trkpt lat="49.302678" lon="-0.594121"><ele></ele><time>2015-1-4T2:31:1Z</time></trkpt>
<trkpt lat="49.30261" lon="-0.594407"><ele></ele><time>2015-1-4T2:31:4Z</time></trkpt>
<trkpt lat="49.302563" lon="-0.594669"><ele></ele><time>2015-1-4T2:31:7Z</time></trkpt>
<trkpt lat="49.30252" lon="-0.594929"><ele></ele><time>2015-1-4T2:31:10Z</time></trkpt>
<trkpt lat="49.302456" lon="-0.595178"><ele></ele><time>2015-1-4T2:31:13Z</time></trkpt>
<trkpt lat="49.302409" lon="-0.59542"><ele></ele><time>2015-1-4T2:31:16Z</time></trkpt>
<trkpt lat="49.302385" lon="-0.595683"><ele></ele><time>2015-1-4T2:31:19Z</time></trkpt>
<trkpt lat="49.302353" lon="-0.595908"><ele></ele><time>2015-1-4T2:31:22Z</time></trkpt>
<trkpt lat="49.30233" lon="-0.596142"><ele></ele><time>2015-1-4T2:31:25Z</time></trkpt>
<trkpt lat="49.302293" lon="-0.596406"><ele></ele><time>2015-1-4T2:31:28Z</time></trkpt>
<trkpt lat="49.302294" lon="-0.596651"><ele></ele><time>2015-1-4T2:31:31Z</time></trkpt>
<trkpt lat="49.302335" lon="-0.596913"><ele></ele><time>2015-1-4T2:31:34Z</time></trkpt>
<trkpt lat="49.302394" lon="-0.597171"><ele></ele><time>2015-1-4T2:31:37Z</time></trkpt>
<trkpt lat="49.30247" lon="-0.597421"><ele></ele><time>2015-1-4T2:31:40Z</time></trkpt>
<trkpt lat="49.302552" lon="-0.597678"><ele></ele><time>2015-1-4T2:31:43Z</time></trkpt>
<trkpt lat="49.302618" lon="-0.597946"><ele></ele><time>2015-1-4T2:31:46Z</time></trkpt>
<trkpt lat="49.302689" lon="-0.598206"><ele></ele><time>2015-1-4T2:31:49Z</time></trkpt>
<trkpt lat="49.302749" lon="-0.59847"><ele></ele><time>2015-1-4T2:31:52Z</time></trkpt>
<trkpt lat="49.302809" lon="-0.598708"><ele></ele><time>2015-1-4T2:31:55Z</time></trkpt>
<trkpt lat="49.302859" lon="-0.598951"><ele></ele><time>2015-1-4T2:31:58Z</time></trkpt>
<trkpt lat="49.302937" lon="-0.5992"><ele></ele><time>2015-1-4T2:32:1Z</time></trkpt>
<trkpt lat="49.303007" lon="-0.599453"><ele></ele><time>2015-1-4T2:32:4Z</time></trkpt>
<trkpt lat="49.303089" lon="-0.599698"><ele></ele><time>2015-1-4T2:32:7Z</time></trkpt>
<trkpt lat="49.303169" lon="-0.599915"><ele></ele><time>2015-1-4T2:32:10Z</time></trkpt>
<trkpt lat="49.303223" lon="-0.600136"><ele></ele><time>2015-1-4T2:32:13Z</time></trkpt>
<trkpt lat="49.303263" lon="-0.600314"><ele></ele><time>2015-1-4T2:32:16Z</time></trkpt>
<trkpt lat="49.303308" lon="-0.600482"><ele></ele><time>2015-1-4T2:32:19Z</time></trkpt>
<trkpt lat="49.303273" lon="-0.60065"><ele></ele><time>2015-1-4T2:32:22Z</time></trkpt>
<trkpt lat="49.303154" lon="-0.600823"><ele></ele><time>2015-1-4T2:32:25Z</time></trkpt>
<trkpt lat="49.303033" lon="-0.601059"><ele></ele><time>2015-1-4T2:32:28Z</time></trkpt>
<trkpt lat="49.302917" lon="-0.601313"><ele></ele><time>2015-1-4T2:32:31Z</time></trkpt>
<trkpt lat="49.302794" lon="-0.601403"><ele></ele><time>2015-1-4T2:32:34Z</time></trkpt>
<trkpt lat="49.302714" lon="-0.601417"><ele></ele><time>2015-1-4T2:32:37Z</time></trkpt>
<trkpt lat="49.302614" lon="-0.601411"><ele></ele><time>2015-1-4T2:32:40Z</time></trkpt>
<trkpt lat="49.30253" lon="-0.601418"><ele></ele><time>2015-1-4T2:32:43Z</time></trkpt>
<trkpt lat="49.302456" lon="-0.60142"><ele></ele><time>2015-1-4T2:32:46Z</time></trkpt>
<trkpt lat="49.302341" lon="-0.601472"><ele></ele><time>2015-1-4T2:32:49Z</time></trkpt>
<trkpt lat="49.302234" lon="-0.601471"><ele></ele><time>2015-1-4T2:32:52Z</time></trkpt>
<trkpt lat="49.302123" lon="-0.601451"><ele></ele><time>2015-1-4T2:32:55Z</time></trkpt>
<trkpt lat="49.301988" lon="-0.601463"><ele></ele><time>2015-1-4T2:32:58Z</time></trkpt>
<trkpt lat="49.301857" lon="-0.601464"><ele></ele><time>2015-1-4T2:33:1Z</time></trkpt>
<trkpt lat="49.301697" lon="-0.601461"><ele></ele><time>2015-1-4T2:33:4Z</time></trkpt>
<trkpt lat="49.301531" lon="-0.601463"><ele></ele><time>2015-1-4T2:33:7Z</time></trkpt>
<trkpt lat="49.301383" lon="-0.601483"><ele></ele><time>2015-1-4T2:33:10Z</time></trkpt>
<trkpt lat="49.301254" lon="-0.601507"><ele></ele><time>2015-1-4T2:33:13Z</time></trkpt>
<trkpt lat="49.301097" lon="-0.60151"><ele></ele><time>2015-1-4T2:33:16Z</time></trkpt>
<trkpt lat="49.300948" lon="-0.601524"><ele></ele><time>2015-1-4T2:33:19Z</time></trkpt>
<trkpt lat="49.300822" lon="-0.601569"><ele></ele><time>2015-1-4T2:33:22Z</time></trkpt>
<trkpt lat="49.300672" lon="-0.601582"><ele></ele><time>2015-1-4T2:33:25Z</time></trkpt>
<trkpt lat="49.300559" lon="-0.601583"><ele></ele><time>2015-1-4T2:33:28Z</time></trkpt>
<trkpt lat="49.300413" lon="-0.601604"><ele></ele><time>2015-1-4T2:33:31Z</time></trkpt>
<trkpt lat="49.30029" lon="-0.601626"><ele></ele><time>2015-1-4T2:33:34Z</time></trkpt>
<trkpt lat="49.300139" lon="-0.601643"><ele></ele><time>2015-1-4T2:33:37Z</time></trkpt>
<trkpt lat="49.299975" lon="-0.601627"><ele></ele><time>2015-1-4T2:33:40Z</time></trkpt>
<trkpt lat="49.299871" lon="-0.601647"><ele></ele><time>2015-1-4T2:33:43Z</time></trkpt>
<trkpt lat="49.299806" lon="-0.601586"><ele></ele><time>2015-1-4T2:33:46Z</time></trkpt>
<trkpt lat="49.299764" lon="-0.601492"><ele></ele><time>2015-1-4T2:33:49Z</time></trkpt>
<trkpt lat="49.299711" lon="-0.601329"><ele></ele><time>2015-1-4T2:33:52Z</time></trkpt>
<trkpt lat="49.299634" lon="-0.601113"><ele></ele><time>2015-1-4T2:33:55Z</time></trkpt>
<trkpt lat="49.299571" lon="-0.600899"><ele></ele><time>2015-1-4T2:33:58Z</time></trkpt>
<trkpt lat="49.299486" lon="-0.600688"><ele></ele><time>2015-1-4T2:34:1Z</time></trkpt>
<trkpt lat="49.299425" lon="-0.60046"><ele></ele><time>2015-1-4T2:34:4Z</time></trkpt>
<trkpt lat="49.299363" lon="-0.600214"><ele></ele><time>2015-1-4T2:34:7Z</time></trkpt>
<trkpt lat="49.299276" lon="-0.599981"><ele></ele><time>2015-1-4T2:34:10Z</time></trkpt>
<trkpt lat="49.299177" lon="-0.599755"><ele></ele><time>2015-1-4T2:34:13Z</time></trkpt>
<trkpt lat="49.299098" lon="-0.59953"><ele></ele><time>2015-1-4T2:34:16Z</time></trkpt>
<trkpt lat="49.299018" lon="-0.599315"><ele></ele><time>2015-1-4T2:34:19Z</time></trkpt>
<trkpt lat="49.298929" lon="-0.599083"><ele></ele><time>2015-1-4T2:34:22Z</time></trkpt>
<trkpt lat="49.298854" lon="-0.598825"><ele></ele><time>2015-1-4T2:34:25Z</time></trkpt>
<trkpt lat="49.298784" lon="-0.598602"><ele></ele><time>2015-1-4T2:34:28Z</time></trkpt>
<trkpt lat="49.298692" lon="-0.598376"><ele></ele><time>2015-1-4T2:34:31Z</time></trkpt>
<trkpt lat="49.29862" lon="-0.598125"><ele></ele><time>2015-1-4T2:34:34Z</time></trkpt>
<trkpt lat="49.298551" lon="-0.597867"><ele></ele><time>2015-1-4T2:34:37Z</time></trkpt>
<trkpt lat="49.298497" lon="-0.597626"><ele></ele><time>2015-1-4T2:34:40Z</time></trkpt>
<trkpt lat="49.298406" lon="-0.597387"><ele></ele><time>2015-1-4T2:34:43Z</time></trkpt>
<trkpt lat="49.298302" lon="-0.597178"><ele></ele><time>2015-1-4T2:34:46Z</time></trkpt>
<trkpt lat="49.298173" lon="-0.596938"><ele></ele><time>2015-1-4T2:34:49Z</time></trkpt>
<trkpt lat="49.298049" lon="-0.596675"><ele></ele><time>2015-1-4T2:34:52Z</time></trkpt>
<trkpt lat="49.297944" lon="-0.596423"><ele></ele><time>2015-1-4T2:34:55Z</time></trkpt>
<trkpt lat="49.297877" lon="-0.596136"><ele></ele><time>2015-1-4T2:34:58Z</time></trkpt>
<trkpt lat="49.297799" lon="-0.595877"><ele></ele><time>2015-1-4T2:35:1Z</time></trkpt>
<trkpt lat="49.29772" lon="-0.595579"><ele></ele><time>2015-1-4T2:35:4Z</time></trkpt>
<trkpt lat="49.297618" lon="-0.595298"><ele></ele><time>2015-1-4T2:35:7Z</time></trkpt>
<trkpt lat="49.297481" lon="-0.595061"><ele></ele><time>2015-1-4T2:35:10Z</time></trkpt>
<trkpt lat="49.29734" lon="-0.594827"><ele></ele><time>2015-1-4T2:35:13Z</time></trkpt>
<trkpt lat="49.297219" lon="-0.594571"><ele></ele><time>2015-1-4T2:35:16Z</time></trkpt>
<trkpt lat="49.297107" lon="-0.594281"><ele></ele><time>2015-1-4T2:35:19Z</time></trkpt>
<trkpt lat="49.296983" lon="-0.594007"><ele></ele><time>2015-1-4T2:35:22Z</time></trkpt>
<trkpt lat="49.296887" lon="-0.593715"><ele></ele><time>2015-1-4T2:35:25Z</time></trkpt>
<trkpt lat="49.296803" lon="-0.59344"><ele></ele><time>2015-1-4T2:35:28Z</time></trkpt>
<trkpt lat="49.296718" lon="-0.593143"><ele></ele><time>2015-1-4T2:35:31Z</time></trkpt>
<trkpt lat="49.296623" lon="-0.592822"><ele></ele><time>2015-1-4T2:35:34Z</time></trkpt>
<trkpt lat="49.296526" lon="-0.592571"><ele></ele><time>2015-1-4T2:35:37Z</time></trkpt>
<trkpt lat="49.296362" lon="-0.592576"><ele></ele><time>2015-1-4T2:35:40Z</time></trkpt>
<trkpt lat="49.296172" lon="-0.592684"><ele></ele><time>2015-1-4T2:35:43Z</time></trkpt>
<trkpt lat="49.295977" lon="-0.592781"><ele></ele><time>2015-1-4T2:35:46Z</time></trkpt>
<trkpt lat="49.295782" lon="-0.592857"><ele></ele><time>2015-1-4T2:35:49Z</time></trkpt>
<trkpt lat="49.295575" lon="-0.592945"><ele></ele><time>2015-1-4T2:35:52Z</time></trkpt>
<trkpt lat="49.29541" lon="-0.592978"><ele></ele><time>2015-1-4T2:35:55Z</time></trkpt>
<trkpt lat="49.295237" lon="-0.593046"><ele></ele><time>2015-1-4T2:35:58Z</time></trkpt>
<trkpt lat="49.295099" lon="-0.593098"><ele></ele><time>2015-1-4T2:36:1Z</time></trkpt>
<trkpt lat="49.294976" lon="-0.593163"><ele></ele><time>2015-1-4T2:36:4Z</time></trkpt>
<trkpt lat="49.29483" lon="-0.593229"><ele></ele><time>2015-1-4T2:36:7Z</time></trkpt>
<trkpt lat="49.294681" lon="-0.593301"><ele></ele><time>2015-1-4T2:36:10Z</time></trkpt>
<trkpt lat="49.294497" lon="-0.593356"><ele></ele><time>2015-1-4T2:36:13Z</time></trkpt>
<trkpt lat="49.29434" lon="-0.593385"><ele></ele><time>2015-1-4T2:36:16Z</time></trkpt>
<trkpt lat="49.294169" lon="-0.593414"><ele></ele><time>2015-1-4T2:36:19Z</time></trkpt>
<trkpt lat="49.294011" lon="-0.593443"><ele></ele><time>2015-1-4T2:36:22Z</time></trkpt>
<trkpt lat="49.29384" lon="-0.593467"><ele></ele><time>2015-1-4T2:36:25Z</time></trkpt>
<trkpt lat="49.293665" lon="-0.593503"><ele></ele><time>2015-1-4T2:36:28Z</time></trkpt>
<trkpt lat="49.293513" lon="-0.593468"><ele></ele><time>2015-1-4T2:36:31Z</time></trkpt>
<trkpt lat="49.293369" lon="-0.59346"><ele></ele><time>2015-1-4T2:36:34Z</time></trkpt>
<trkpt lat="49.293194" lon="-0.593443"><ele></ele><time>2015-1-4T2:36:37Z</time></trkpt>
<trkpt lat="49.293028" lon="-0.593429"><ele></ele><time>2015-1-4T2:36:40Z</time></trkpt>
<trkpt lat="49.292908" lon="-0.593453"><ele></ele><time>2015-1-4T2:36:43Z</time></trkpt>
<trkpt lat="49.292796" lon="-0.593574"><ele></ele><time>2015-1-4T2:36:46Z</time></trkpt>
<trkpt lat="49.292655" lon="-0.593684"><ele></ele><time>2015-1-4T2:36:49Z</time></trkpt>
<trkpt lat="49.292477" lon="-0.59377"><ele></ele><time>2015-1-4T2:36:52Z</time></trkpt>
<trkpt lat="49.292339" lon="-0.593836"><ele></ele><time>2015-1-4T2:36:55Z</time></trkpt>
<trkpt lat="49.292254" lon="-0.593912"><ele></ele><time>2015-1-4T2:36:58Z</time></trkpt>
<trkpt lat="49.292192" lon="-0.594042"><ele></ele><time>2015-1-4T2:37:1Z</time></trkpt>
<trkpt lat="49.292136" lon="-0.594171"><ele></ele><time>2015-1-4T2:37:4Z</time></trkpt>
<trkpt lat="49.29203" lon="-0.59426"><ele></ele><time>2015-1-4T2:37:7Z</time></trkpt>
<trkpt lat="49.291909" lon="-0.594405"><ele></ele><time>2015-1-4T2:37:10Z</time></trkpt>
<trkpt lat="49.291774" lon="-0.59455"><ele></ele><time>2015-1-4T2:37:13Z</time></trkpt>
<trkpt lat="49.291687" lon="-0.594657"><ele></ele><time>2015-1-4T2:37:16Z</time></trkpt>
<trkpt lat="49.291619" lon="-0.594783"><ele></ele><time>2015-1-4T2:37:19Z</time></trkpt>
<trkpt lat="49.291526" lon="-0.594867"><ele></ele><time>2015-1-4T2:37:22Z</time></trkpt>
<trkpt lat="49.291448" lon="-0.594975"><ele></ele><time>2015-1-4T2:37:25Z</time></trkpt>
<trkpt lat="49.291347" lon="-0.5951"><ele></ele><time>2015-1-4T2:37:28Z</time></trkpt>
<trkpt lat="49.291302" lon="-0.595244"><ele></ele><time>2015-1-4T2:37:31Z</time></trkpt>
<trkpt lat="49.291249" lon="-0.595291"><ele></ele><time>2015-1-4T2:37:34Z</time></trkpt>
<trkpt lat="49.291216" lon="-0.595321"><ele></ele><time>2015-1-4T2:37:37Z</time></trkpt>
<trkpt lat="49.291131" lon="-0.595386"><ele></ele><time>2015-1-4T2:37:40Z</time></trkpt>
<trkpt lat="49.291086" lon="-0.595511"><ele></ele><time>2015-1-4T2:37:43Z</time></trkpt>
<trkpt lat="49.29096" lon="-0.59558"><ele></ele><time>2015-1-4T2:37:46Z</time></trkpt>
<trkpt lat="49.290894" lon="-0.595657"><ele></ele><time>2015-1-4T2:37:49Z</time></trkpt>
<trkpt lat="49.29078" lon="-0.595765"><ele></ele><time>2015-1-4T2:37:52Z</time></trkpt>
<trkpt lat="49.290652" lon="-0.595866"><ele></ele><time>2015-1-4T2:37:55Z</time></trkpt>
<trkpt lat="49.290493" lon="-0.595949"><ele></ele><time>2015-1-4T2:37:58Z</time></trkpt>
<trkpt lat="49.290347" lon="-0.595974"><ele></ele><time>2015-1-4T2:38:1Z</time></trkpt>
<trkpt lat="49.29026" lon="-0.595981"><ele></ele><time>2015-1-4T2:38:4Z</time></trkpt>
<trkpt lat="49.290144" lon="-0.595971"><ele></ele><time>2015-1-4T2:38:7Z</time></trkpt>
<trkpt lat="49.290053" lon="-0.595977"><ele></ele><time>2015-1-4T2:38:10Z</time></trkpt>
<trkpt lat="49.289949" lon="-0.596037"><ele></ele><time>2015-1-4T2:38:13Z</time></trkpt>
<trkpt lat="49.289826" lon="-0.596154"><ele></ele><time>2015-1-4T2:38:16Z</time></trkpt>
<trkpt lat="49.28971" lon="-0.596258"><ele></ele><time>2015-1-4T2:38:19Z</time></trkpt>
<trkpt lat="49.289583" lon="-0.596343"><ele></ele><time>2015-1-4T2:38:22Z</time></trkpt>
<trkpt lat="49.289443" lon="-0.596471"><ele></ele><time>2015-1-4T2:38:25Z</time></trkpt>
<trkpt lat="49.289283" lon="-0.596592"><ele></ele><time>2015-1-4T2:38:28Z</time></trkpt>
<trkpt lat="49.289096" lon="-0.596696"><ele></ele><time>2015-1-4T2:38:31Z</time></trkpt>
<trkpt lat="49.288839" lon="-0.596763"><ele></ele><time>2015-1-4T2:38:34Z</time></trkpt>
<trkpt lat="49.288568" lon="-0.596813"><ele></ele><time>2015-1-4T2:38:37Z</time></trkpt>
<trkpt lat="49.288283" lon="-0.596811"><ele></ele><time>2015-1-4T2:38:40Z</time></trkpt>
<trkpt lat="49.288024" lon="-0.596795"><ele></ele><time>2015-1-4T2:38:43Z</time></trkpt>
<trkpt lat="49.28778" lon="-0.596799"><ele></ele><time>2015-1-4T2:38:46Z</time></trkpt>
<trkpt lat="49.28764" lon="-0.5968"><ele></ele><time>2015-1-4T2:38:49Z</time></trkpt>
<trkpt lat="49.287592" lon="-0.596696"><ele></ele><time>2015-1-4T2:38:52Z</time></trkpt>
<trkpt lat="49.287624" lon="-0.596519"><ele></ele><time>2015-1-4T2:38:55Z</time></trkpt>
<trkpt lat="49.287608" lon="-0.596596"><ele></ele><time>2015-1-4T2:38:58Z</time></trkpt>
<trkpt lat="49.287629" lon="-0.596753"><ele></ele><time>2015-1-4T2:39:1Z</time></trkpt>
<trkpt lat="49.287729" lon="-0.596743"><ele></ele><time>2015-1-4T2:39:4Z</time></trkpt>
<trkpt lat="49.287858" lon="-0.596749"><ele></ele><time>2015-1-4T2:39:7Z</time></trkpt>
<trkpt lat="49.287994" lon="-0.596754"><ele></ele><time>2015-1-4T2:39:10Z</time></trkpt>
<trkpt lat="49.288131" lon="-0.596764"><ele></ele><time>2015-1-4T2:39:13Z</time></trkpt>
<trkpt lat="49.288256" lon="-0.596768"><ele></ele><time>2015-1-4T2:39:16Z</time></trkpt>
<trkpt lat="49.288391" lon="-0.59675"><ele></ele><time>2015-1-4T2:39:19Z</time></trkpt>
<trkpt lat="49.288521" lon="-0.596722"><ele></ele><time>2015-1-4T2:39:22Z</time></trkpt>
<trkpt lat="49.288633" lon="-0.596706"><ele></ele><time>2015-1-4T2:39:25Z</time></trkpt>
<trkpt lat="49.288749" lon="-0.596676"><ele></ele><time>2015-1-4T2:39:28Z</time></trkpt>
<trkpt lat="49.288857" lon="-0.596604"><ele></ele><time>2015-1-4T2:39:31Z</time></trkpt>
<trkpt lat="49.288966" lon="-0.596602"><ele></ele><time>2015-1-4T2:39:34Z</time></trkpt>
<trkpt lat="49.289052" lon="-0.596573"><ele></ele><time>2015-1-4T2:39:37Z</time></trkpt>
<trkpt lat="49.289158" lon="-0.59656"><ele></ele><time>2015-1-4T2:39:40Z</time></trkpt>
<trkpt lat="49.289247" lon="-0.596515"><ele></ele><time>2015-1-4T2:39:43Z</time></trkpt>
<trkpt lat="49.289336" lon="-0.596501"><ele></ele><time>2015-1-4T2:39:46Z</time></trkpt>
<trkpt lat="49.289418" lon="-0.596463"><ele></ele><time>2015-1-4T2:39:49Z</time></trkpt>
<trkpt lat="49.289461" lon="-0.596411"><ele></ele><time>2015-1-4T2:39:52Z</time></trkpt>
<trkpt lat="49.289528" lon="-0.596355"><ele></ele><time>2015-1-4T2:39:55Z</time></trkpt>
<trkpt lat="49.289598" lon="-0.596295"><ele></ele><time>2015-1-4T2:39:58Z</time></trkpt>
<trkpt lat="49.289619" lon="-0.596255"><ele></ele><time>2015-1-4T2:40:1Z</time></trkpt>
<trkpt lat="49.289678" lon="-0.596185"><ele></ele><time>2015-1-4T2:40:4Z</time></trkpt>
<trkpt lat="49.289708" lon="-0.596143"><ele></ele><time>2015-1-4T2:40:7Z</time></trkpt>
<trkpt lat="49.289747" lon="-0.596089"><ele></ele><time>2015-1-4T2:40:10Z</time></trkpt>
<trkpt lat="49.289777" lon="-0.596034"><ele></ele><time>2015-1-4T2:40:13Z</time></trkpt>
<trkpt lat="49.289821" lon="-0.596019"><ele></ele><time>2015-1-4T2:40:16Z</time></trkpt>
<trkpt lat="49.289885" lon="-0.595975"><ele></ele><time>2015-1-4T2:40:19Z</time></trkpt>
<trkpt lat="49.289963" lon="-0.59597"><ele></ele><time>2015-1-4T2:40:22Z</time></trkpt>
<trkpt lat="49.290035" lon="-0.595955"><ele></ele><time>2015-1-4T2:40:25Z</time></trkpt>
<trkpt lat="49.290104" lon="-0.595961"><ele></ele><time>2015-1-4T2:40:28Z</time></trkpt>
<trkpt lat="49.290123" lon="-0.59593"><ele></ele><time>2015-1-4T2:40:31Z</time></trkpt>
<trkpt lat="49.290169" lon="-0.595939"><ele></ele><time>2015-1-4T2:40:34Z</time></trkpt>
<trkpt lat="49.290245" lon="-0.59597"><ele></ele><time>2015-1-4T2:40:37Z</time></trkpt>
<trkpt lat="49.290291" lon="-0.595978"><ele></ele><time>2015-1-4T2:40:40Z</time></trkpt>
<trkpt lat="49.290355" lon="-0.595979"><ele></ele><time>2015-1-4T2:40:43Z</time></trkpt>
<trkpt lat="49.290417" lon="-0.595949"><ele></ele><time>2015-1-4T2:40:46Z</time></trkpt>
<trkpt lat="49.290471" lon="-0.595892"><ele></ele><time>2015-1-4T2:40:49Z</time></trkpt>
<trkpt lat="49.290462" lon="-0.595783"><ele></ele><time>2015-1-4T2:40:52Z</time></trkpt>
<trkpt lat="49.290465" lon="-0.595668"><ele></ele><time>2015-1-4T2:40:55Z</time></trkpt>
<trkpt lat="49.290459" lon="-0.595517"><ele></ele><time>2015-1-4T2:40:58Z</time></trkpt>
<trkpt lat="49.29049" lon="-0.595359"><ele></ele><time>2015-1-4T2:41:1Z</time></trkpt>
<trkpt lat="49.290517" lon="-0.595221"><ele></ele><time>2015-1-4T2:41:4Z</time></trkpt>
<trkpt lat="49.290564" lon="-0.595083"><ele></ele><time>2015-1-4T2:41:7Z</time></trkpt>
<trkpt lat="49.290546" lon="-0.594905"><ele></ele><time>2015-1-4T2:41:10Z</time></trkpt>
<trkpt lat="49.290573" lon="-0.594769"><ele></ele><time>2015-1-4T2:41:13Z</time></trkpt>
<trkpt lat="49.290572" lon="-0.594603"><ele></ele><time>2015-1-4T2:41:16Z</time></trkpt>
<trkpt lat="49.290595" lon="-0.594447"><ele></ele><time>2015-1-4T2:41:19Z</time></trkpt>
<trkpt lat="49.290625" lon="-0.594287"><ele></ele><time>2015-1-4T2:41:22Z</time></trkpt>
<trkpt lat="49.290655" lon="-0.5941"><ele></ele><time>2015-1-4T2:41:25Z</time></trkpt>
<trkpt lat="49.290661" lon="-0.593903"><ele></ele><time>2015-1-4T2:41:28Z</time></trkpt>
<trkpt lat="49.290675" lon="-0.593718"><ele></ele><time>2015-1-4T2:41:31Z</time></trkpt>
<trkpt lat="49.290685" lon="-0.593552"><ele></ele><time>2015-1-4T2:41:34Z</time></trkpt>
<trkpt lat="49.290656" lon="-0.59334"><ele></ele><time>2015-1-4T2:41:37Z</time></trkpt>
<trkpt lat="49.290639" lon="-0.59315"><ele></ele><time>2015-1-4T2:41:40Z</time></trkpt>
<trkpt lat="49.290668" lon="-0.592986"><ele></ele><time>2015-1-4T2:41:43Z</time></trkpt>
<trkpt lat="49.290735" lon="-0.592789"><ele></ele><time>2015-1-4T2:41:46Z</time></trkpt>
<trkpt lat="49.290786" lon="-0.592616"><ele></ele><time>2015-1-4T2:41:49Z</time></trkpt>
<trkpt lat="49.290836" lon="-0.592525"><ele></ele><time>2015-1-4T2:41:52Z</time></trkpt>
<trkpt lat="49.290858" lon="-0.592502"><ele></ele><time>2015-1-4T2:41:55Z</time></trkpt>
<trkpt lat="49.290847" lon="-0.592522"><ele></ele><time>2015-1-4T2:41:58Z</time></trkpt>
<trkpt lat="49.29087" lon="-0.592506"><ele></ele><time>2015-1-4T2:42:1Z</time></trkpt>
<trkpt lat="49.290913" lon="-0.592515"><ele></ele><time>2015-1-4T2:42:4Z</time></trkpt>
<trkpt lat="49.290969" lon="-0.592535"><ele></ele><time>2015-1-4T2:42:7Z</time></trkpt>
<trkpt lat="49.291" lon="-0.592488"><ele></ele><time>2015-1-4T2:42:10Z</time></trkpt>
<trkpt lat="49.291009" lon="-0.592416"><ele></ele><time>2015-1-4T2:42:13Z</time></trkpt>
<trkpt lat="49.291033" lon="-0.592287"><ele></ele><time>2015-1-4T2:42:16Z</time></trkpt>
<trkpt lat="49.291055" lon="-0.592128"><ele></ele><time>2015-1-4T2:42:19Z</time></trkpt>
<trkpt lat="49.291058" lon="-0.591996"><ele></ele><time>2015-1-4T2:42:22Z</time></trkpt>
<trkpt lat="49.291042" lon="-0.591892"><ele></ele><time>2015-1-4T2:42:25Z</time></trkpt>
<trkpt lat="49.291051" lon="-0.591742"><ele></ele><time>2015-1-4T2:42:28Z</time></trkpt>
<trkpt lat="49.291079" lon="-0.59159"><ele></ele><time>2015-1-4T2:42:31Z</time></trkpt>
<trkpt lat="49.291114" lon="-0.591439"><ele></ele><time>2015-1-4T2:42:34Z</time></trkpt>
<trkpt lat="49.291118" lon="-0.591297"><ele></ele><time>2015-1-4T2:42:37Z</time></trkpt>
<trkpt lat="49.291135" lon="-0.591161"><ele></ele><time>2015-1-4T2:42:40Z</time></trkpt>
<trkpt lat="49.291128" lon="-0.591031"><ele></ele><time>2015-1-4T2:42:43Z</time></trkpt>
<trkpt lat="49.291112" lon="-0.590858"><ele></ele><time>2015-1-4T2:42:46Z</time></trkpt>
<trkpt lat="49.291109" lon="-0.590719"><ele></ele><time>2015-1-4T2:42:49Z</time></trkpt>
<trkpt lat="49.29111" lon="-0.590602"><ele></ele><time>2015-1-4T2:42:52Z</time></trkpt>
<trkpt lat="49.291121" lon="-0.590471"><ele></ele><time>2015-1-4T2:42:55Z</time></trkpt>
<trkpt lat="49.291124" lon="-0.590348"><ele></ele><time>2015-1-4T2:42:58Z</time></trkpt>
<trkpt lat="49.291131" lon="-0.590217"><ele></ele><time>2015-1-4T2:43:1Z</time></trkpt>
<trkpt lat="49.291168" lon="-0.590015"><ele></ele><time>2015-1-4T2:43:4Z</time></trkpt>
<trkpt lat="49.291184" lon="-0.589889"><ele></ele><time>2015-1-4T2:43:7Z</time></trkpt>
<trkpt lat="49.291197" lon="-0.589763"><ele></ele><time>2015-1-4T2:43:10Z</time></trkpt>
<trkpt lat="49.291242" lon="-0.589616"><ele></ele><time>2015-1-4T2:43:13Z</time></trkpt>
<trkpt lat="49.291262" lon="-0.589491"><ele></ele><time>2015-1-4T2:43:16Z</time></trkpt>
<trkpt lat="49.291248" lon="-0.58945"><ele></ele><time>2015-1-4T2:43:19Z</time></trkpt>
<trkpt lat="49.291256" lon="-0.589428"><ele></ele><time>2015-1-4T2:43:22Z</time></trkpt>
<trkpt lat="49.291188" lon="-0.589485"><ele></ele><time>2015-1-4T2:43:25Z</time></trkpt>
<trkpt lat="49.291189" lon="-0.589564"><ele></ele><time>2015-1-4T2:43:28Z</time></trkpt>
<trkpt lat="49.291219" lon="-0.58963"><ele></ele><time>2015-1-4T2:43:31Z</time></trkpt>
<trkpt lat="49.291227" lon="-0.589756"><ele></ele><time>2015-1-4T2:43:34Z</time></trkpt>
<trkpt lat="49.291249" lon="-0.589852"><ele></ele><time>2015-1-4T2:43:37Z</time></trkpt>
<trkpt lat="49.291242" lon="-0.589971"><ele></ele><time>2015-1-4T2:43:40Z</time></trkpt>
<trkpt lat="49.291218" lon="-0.590134"><ele></ele><time>2015-1-4T2:43:43Z</time></trkpt>
<trkpt lat="49.29121" lon="-0.590277"><ele></ele><time>2015-1-4T2:43:46Z</time></trkpt>
<trkpt lat="49.291197" lon="-0.590419"><ele></ele><time>2015-1-4T2:43:49Z</time></trkpt>
<trkpt lat="49.291173" lon="-0.59055"><ele></ele><time>2015-1-4T2:43:52Z</time></trkpt>
<trkpt lat="49.291169" lon="-0.590705"><ele></ele><time>2015-1-4T2:43:55Z</time></trkpt>
<trkpt lat="49.291168" lon="-0.590843"><ele></ele><time>2015-1-4T2:43:58Z</time></trkpt>
<trkpt lat="49.291163" lon="-0.591017"><ele></ele><time>2015-1-4T2:44:1Z</time></trkpt>
<trkpt lat="49.29114" lon="-0.591176"><ele></ele><time>2015-1-4T2:44:4Z</time></trkpt>
<trkpt lat="49.291126" lon="-0.591333"><ele></ele><time>2015-1-4T2:44:7Z</time></trkpt>
<trkpt lat="49.291117" lon="-0.591499"><ele></ele><time>2015-1-4T2:44:10Z</time></trkpt>
<trkpt lat="49.291111" lon="-0.591643"><ele></ele><time>2015-1-4T2:44:13Z</time></trkpt>
<trkpt lat="49.291095" lon="-0.591774"><ele></ele><time>2015-1-4T2:44:16Z</time></trkpt>
<trkpt lat="49.291099" lon="-0.59188"><ele></ele><time>2015-1-4T2:44:19Z</time></trkpt>
<trkpt lat="49.291084" lon="-0.592047"><ele></ele><time>2015-1-4T2:44:22Z</time></trkpt>
<trkpt lat="49.291086" lon="-0.592185"><ele></ele><time>2015-1-4T2:44:25Z</time></trkpt>
<trkpt lat="49.291065" lon="-0.592343"><ele></ele><time>2015-1-4T2:44:28Z</time></trkpt>
<trkpt lat="49.291024" lon="-0.592444"><ele></ele><time>2015-1-4T2:44:31Z</time></trkpt>
<trkpt lat="49.290938" lon="-0.592453"><ele></ele><time>2015-1-4T2:44:34Z</time></trkpt>
<trkpt lat="49.290856" lon="-0.592447"><ele></ele><time>2015-1-4T2:44:37Z</time></trkpt>
<trkpt lat="49.290752" lon="-0.592471"><ele></ele><time>2015-1-4T2:44:40Z</time></trkpt>
<trkpt lat="49.2907" lon="-0.592631"><ele></ele><time>2015-1-4T2:44:43Z</time></trkpt>
<trkpt lat="49.290658" lon="-0.59287"><ele></ele><time>2015-1-4T2:44:46Z</time></trkpt>
<trkpt lat="49.290628" lon="-0.593057"><ele></ele><time>2015-1-4T2:44:49Z</time></trkpt>
<trkpt lat="49.290625" lon="-0.593194"><ele></ele><time>2015-1-4T2:44:52Z</time></trkpt>
<trkpt lat="49.290618" lon="-0.593365"><ele></ele><time>2015-1-4T2:44:55Z</time></trkpt>
<trkpt lat="49.290586" lon="-0.593544"><ele></ele><time>2015-1-4T2:44:58Z</time></trkpt>
<trkpt lat="49.290577" lon="-0.593707"><ele></ele><time>2015-1-4T2:45:1Z</time></trkpt>
<trkpt lat="49.290565" lon="-0.593857"><ele></ele><time>2015-1-4T2:45:4Z</time></trkpt>
<trkpt lat="49.290545" lon="-0.594063"><ele></ele><time>2015-1-4T2:45:7Z</time></trkpt>
<trkpt lat="49.290559" lon="-0.59424"><ele></ele><time>2015-1-4T2:45:10Z</time></trkpt>
<trkpt lat="49.290528" lon="-0.594427"><ele></ele><time>2015-1-4T2:45:13Z</time></trkpt>
<trkpt lat="49.290469" lon="-0.594606"><ele></ele><time>2015-1-4T2:45:16Z</time></trkpt>
<trkpt lat="49.290486" lon="-0.594783"><ele></ele><time>2015-1-4T2:45:19Z</time></trkpt>
<trkpt lat="49.290474" lon="-0.594968"><ele></ele><time>2015-1-4T2:45:22Z</time></trkpt>
<trkpt lat="49.290472" lon="-0.595155"><ele></ele><time>2015-1-4T2:45:25Z</time></trkpt>
<trkpt lat="49.290454" lon="-0.595394"><ele></ele><time>2015-1-4T2:45:28Z</time></trkpt>
<trkpt lat="49.290401" lon="-0.595576"><ele></ele><time>2015-1-4T2:45:31Z</time></trkpt>
<trkpt lat="49.290393" lon="-0.595754"><ele></ele><time>2015-1-4T2:45:34Z</time></trkpt>
<trkpt lat="49.290398" lon="-0.595912"><ele></ele><time>2015-1-4T2:45:37Z</time></trkpt>
<trkpt lat="49.290368" lon="-0.595996"><ele></ele><time>2015-1-4T2:45:40Z</time></trkpt>
<trkpt lat="49.290307" lon="-0.596057"><ele></ele><time>2015-1-4T2:45:43Z</time></trkpt>
<trkpt lat="49.290187" lon="-0.596047"><ele></ele><time>2015-1-4T2:45:46Z</time></trkpt>
<trkpt lat="49.290081" lon="-0.596047"><ele></ele><time>2015-1-4T2:45:49Z</time></trkpt>
<trkpt lat="49.289959" lon="-0.596061"><ele></ele><time>2015-1-4T2:45:52Z</time></trkpt>
<trkpt lat="49.28984" lon="-0.59611"><ele></ele><time>2015-1-4T2:45:55Z</time></trkpt>
<trkpt lat="49.289725" lon="-0.596178"><ele></ele><time>2015-1-4T2:45:58Z</time></trkpt>
<trkpt lat="49.28957" lon="-0.596275"><ele></ele><time>2015-1-4T2:46:1Z</time></trkpt>
<trkpt lat="49.289435" lon="-0.596441"><ele></ele><time>2015-1-4T2:46:4Z</time></trkpt>
<trkpt lat="49.289297" lon="-0.596558"><ele></ele><time>2015-1-4T2:46:7Z</time></trkpt>
<trkpt lat="49.289091" lon="-0.596629"><ele></ele><time>2015-1-4T2:46:10Z</time></trkpt>
<trkpt lat="49.288832" lon="-0.596707"><ele></ele><time>2015-1-4T2:46:13Z</time></trkpt>
<trkpt lat="49.288527" lon="-0.596776"><ele></ele><time>2015-1-4T2:46:16Z</time></trkpt>
<trkpt lat="49.288234" lon="-0.596781"><ele></ele><time>2015-1-4T2:46:19Z</time></trkpt>
<trkpt lat="49.287941" lon="-0.596781"><ele></ele><time>2015-1-4T2:46:22Z</time></trkpt>
<trkpt lat="49.287698" lon="-0.596774"><ele></ele><time>2015-1-4T2:46:25Z</time></trkpt>
<trkpt lat="49.287567" lon="-0.596773"><ele></ele><time>2015-1-4T2:46:28Z</time></trkpt>
<trkpt lat="49.287548" lon="-0.596768"><ele></ele><time>2015-1-4T2:46:31Z</time></trkpt>
<trkpt lat="49.287537" lon="-0.596763"><ele></ele><time>2015-1-4T2:46:34Z</time></trkpt>
<trkpt lat="49.287508" lon="-0.596658"><ele></ele><time>2015-1-4T2:46:37Z</time></trkpt>
<trkpt lat="49.287528" lon="-0.596438"><ele></ele><time>2015-1-4T2:46:40Z</time></trkpt>
<trkpt lat="49.28753" lon="-0.596203"><ele></ele><time>2015-1-4T2:46:43Z</time></trkpt>
<trkpt lat="49.287547" lon="-0.595953"><ele></ele><time>2015-1-4T2:46:46Z</time></trkpt>
<trkpt lat="49.287552" lon="-0.595689"><ele></ele><time>2015-1-4T2:46:49Z</time></trkpt>
<trkpt lat="49.287583" lon="-0.595425"><ele></ele><time>2015-1-4T2:46:52Z</time></trkpt>
<trkpt lat="49.287574" lon="-0.595155"><ele></ele><time>2015-1-4T2:46:55Z</time></trkpt>
<trkpt lat="49.287584" lon="-0.594846"><ele></ele><time>2015-1-4T2:46:58Z</time></trkpt>
<trkpt lat="49.287625" lon="-0.594568"><ele></ele><time>2015-1-4T2:47:1Z</time></trkpt>
<trkpt lat="49.287659" lon="-0.594283"><ele></ele><time>2015-1-4T2:47:4Z</time></trkpt>
<trkpt lat="49.28767" lon="-0.593973"><ele></ele><time>2015-1-4T2:47:7Z</time></trkpt>
<trkpt lat="49.287681" lon="-0.593675"><ele></ele><time>2015-1-4T2:47:10Z</time></trkpt>
<trkpt lat="49.287729" lon="-0.593348"><ele></ele><time>2015-1-4T2:47:13Z</time></trkpt>
<trkpt lat="49.287787" lon="-0.59302"><ele></ele><time>2015-1-4T2:47:16Z</time></trkpt>
<trkpt lat="49.287839" lon="-0.5927"><ele></ele><time>2015-1-4T2:47:19Z</time></trkpt>
<trkpt lat="49.28788" lon="-0.592363"><ele></ele><time>2015-1-4T2:47:22Z</time></trkpt>
<trkpt lat="49.287916" lon="-0.592041"><ele></ele><time>2015-1-4T2:47:25Z</time></trkpt>
<trkpt lat="49.287949" lon="-0.591726"><ele></ele><time>2015-1-4T2:47:28Z</time></trkpt>
<trkpt lat="49.287997" lon="-0.591413"><ele></ele><time>2015-1-4T2:47:31Z</time></trkpt>
<trkpt lat="49.288036" lon="-0.591104"><ele></ele><time>2015-1-4T2:47:34Z</time></trkpt>
<trkpt lat="49.288089" lon="-0.5908"><ele></ele><time>2015-1-4T2:47:37Z</time></trkpt>
<trkpt lat="49.288098" lon="-0.590511"><ele></ele><time>2015-1-4T2:47:40Z</time></trkpt>
<trkpt lat="49.288086" lon="-0.590503"><ele></ele><time>2015-1-4T2:47:43Z</time></trkpt>
<trkpt lat="49.288078" lon="-0.590631"><ele></ele><time>2015-1-4T2:47:46Z</time></trkpt>
<trkpt lat="49.288061" lon="-0.590846"><ele></ele><time>2015-1-4T2:47:49Z</time></trkpt>
<trkpt lat="49.288046" lon="-0.59107"><ele></ele><time>2015-1-4T2:47:52Z</time></trkpt>
<trkpt lat="49.288002" lon="-0.591237"><ele></ele><time>2015-1-4T2:47:55Z</time></trkpt>
<trkpt lat="49.288014" lon="-0.591113"><ele></ele><time>2015-1-4T2:47:58Z</time></trkpt>
<trkpt lat="49.288036" lon="-0.590943"><ele></ele><time>2015-1-4T2:48:1Z</time></trkpt>
<trkpt lat="49.288045" lon="-0.590775"><ele></ele><time>2015-1-4T2:48:4Z</time></trkpt>
<trkpt lat="49.288045" lon="-0.590688"><ele></ele><time>2015-1-4T2:48:7Z</time></trkpt>
<trkpt lat="49.288033" lon="-0.590695"><ele></ele><time>2015-1-4T2:48:10Z</time></trkpt>
<trkpt lat="49.28804" lon="-0.590664"><ele></ele><time>2015-1-4T2:48:13Z</time></trkpt>
<trkpt lat="49.288087" lon="-0.590532"><ele></ele><time>2015-1-4T2:48:16Z</time></trkpt>
<trkpt lat="49.288099" lon="-0.590369"><ele></ele><time>2015-1-4T2:48:19Z</time></trkpt>
<trkpt lat="49.288138" lon="-0.590155"><ele></ele><time>2015-1-4T2:48:22Z</time></trkpt>
<trkpt lat="49.288166" lon="-0.589923"><ele></ele><time>2015-1-4T2:48:25Z</time></trkpt>
<trkpt lat="49.288223" lon="-0.589682"><ele></ele><time>2015-1-4T2:48:28Z</time></trkpt>
<trkpt lat="49.288273" lon="-0.589387"><ele></ele><time>2015-1-4T2:48:31Z</time></trkpt>
<trkpt lat="49.288292" lon="-0.589081"><ele></ele><time>2015-1-4T2:48:34Z</time></trkpt>
<trkpt lat="49.288339" lon="-0.588744"><ele></ele><time>2015-1-4T2:48:37Z</time></trkpt>
<trkpt lat="49.28838" lon="-0.588441"><ele></ele><time>2015-1-4T2:48:40Z</time></trkpt>
<trkpt lat="49.2884" lon="-0.588133"><ele></ele><time>2015-1-4T2:48:43Z</time></trkpt>
<trkpt lat="49.288436" lon="-0.587836"><ele></ele><time>2015-1-4T2:48:46Z</time></trkpt>
<trkpt lat="49.288448" lon="-0.587582"><ele></ele><time>2015-1-4T2:48:49Z</time></trkpt>
<trkpt lat="49.28846" lon="-0.587328"><ele></ele><time>2015-1-4T2:48:52Z</time></trkpt>
<trkpt lat="49.288488" lon="-0.58707"><ele></ele><time>2015-1-4T2:48:55Z</time></trkpt>
<trkpt lat="49.28845" lon="-0.586891"><ele></ele><time>2015-1-4T2:48:58Z</time></trkpt>
<trkpt lat="49.288253" lon="-0.586864"><ele></ele><time>2015-1-4T2:49:1Z</time></trkpt>
<trkpt lat="49.287976" lon="-0.586886"><ele></ele><time>2015-1-4T2:49:4Z</time></trkpt>
<trkpt lat="49.287672" lon="-0.586915"><ele></ele><time>2015-1-4T2:49:7Z</time></trkpt>
<trkpt lat="49.287375" lon="-0.586932"><ele></ele><time>2015-1-4T2:49:10Z</time></trkpt>
<trkpt lat="49.287134" lon="-0.586994"><ele></ele><time>2015-1-4T2:49:13Z</time></trkpt>
<trkpt lat="49.286885" lon="-0.586994"><ele></ele><time>2015-1-4T2:49:16Z</time></trkpt>
<trkpt lat="49.286649" lon="-0.587001"><ele></ele><time>2015-1-4T2:49:19Z</time></trkpt>
<trkpt lat="49.286401" lon="-0.58701"><ele></ele><time>2015-1-4T2:49:22Z</time></trkpt>
<trkpt lat="49.286212" lon="-0.587051"><ele></ele><time>2015-1-4T2:49:25Z</time></trkpt>
<trkpt lat="49.286168" lon="-0.586983"><ele></ele><time>2015-1-4T2:49:28Z</time></trkpt>
<trkpt lat="49.286176" lon="-0.586834"><ele></ele><time>2015-1-4T2:49:31Z</time></trkpt>
<trkpt lat="49.286157" lon="-0.586627"><ele></ele><time>2015-1-4T2:49:34Z</time></trkpt>
<trkpt lat="49.286134" lon="-0.586414"><ele></ele><time>2015-1-4T2:49:37Z</time></trkpt>
<trkpt lat="49.286095" lon="-0.586236"><ele></ele><time>2015-1-4T2:49:40Z</time></trkpt>
<trkpt lat="49.286097" lon="-0.586025"><ele></ele><time>2015-1-4T2:49:43Z</time></trkpt>
<trkpt lat="49.286082" lon="-0.585809"><ele></ele><time>2015-1-4T2:49:46Z</time></trkpt>
<trkpt lat="49.286141" lon="-0.585628"><ele></ele><time>2015-1-4T2:49:49Z</time></trkpt>
<trkpt lat="49.286114" lon="-0.585463"><ele></ele><time>2015-1-4T2:49:52Z</time></trkpt>
<trkpt lat="49.286072" lon="-0.585299"><ele></ele><time>2015-1-4T2:49:55Z</time></trkpt>
<trkpt lat="49.286069" lon="-0.585164"><ele></ele><time>2015-1-4T2:49:58Z</time></trkpt>
<trkpt lat="49.286056" lon="-0.585037"><ele></ele><time>2015-1-4T2:50:1Z</time></trkpt>
<trkpt lat="49.28608" lon="-0.5849"><ele></ele><time>2015-1-4T2:50:4Z</time></trkpt>
<trkpt lat="49.286058" lon="-0.584794"><ele></ele><time>2015-1-4T2:50:7Z</time></trkpt>
<trkpt lat="49.286004" lon="-0.584724"><ele></ele><time>2015-1-4T2:50:10Z</time></trkpt>
<trkpt lat="49.285997" lon="-0.584618"><ele></ele><time>2015-1-4T2:50:13Z</time></trkpt>
<trkpt lat="49.285999" lon="-0.584505"><ele></ele><time>2015-1-4T2:50:16Z</time></trkpt>
<trkpt lat="49.28602" lon="-0.584403"><ele></ele><time>2015-1-4T2:50:19Z</time></trkpt>
<trkpt lat="49.286029" lon="-0.584276"><ele></ele><time>2015-1-4T2:50:22Z</time></trkpt>
<trkpt lat="49.286044" lon="-0.584171"><ele></ele><time>2015-1-4T2:50:25Z</time></trkpt>
<trkpt lat="49.286063" lon="-0.584102"><ele></ele><time>2015-1-4T2:50:28Z</time></trkpt>
<trkpt lat="49.286047" lon="-0.584027"><ele></ele><time>2015-1-4T2:50:31Z</time></trkpt>
<trkpt lat="49.28604" lon="-0.583956"><ele></ele><time>2015-1-4T2:50:34Z</time></trkpt>
<trkpt lat="49.286045" lon="-0.583895"><ele></ele><time>2015-1-4T2:50:37Z</time></trkpt>
<trkpt lat="49.286054" lon="-0.583758"><ele></ele><time>2015-1-4T2:50:40Z</time></trkpt>
<trkpt lat="49.286075" lon="-0.583668"><ele></ele><time>2015-1-4T2:50:43Z</time></trkpt>
<trkpt lat="49.286054" lon="-0.583566"><ele></ele><time>2015-1-4T2:50:46Z</time></trkpt>
<trkpt lat="49.286055" lon="-0.583444"><ele></ele><time>2015-1-4T2:50:49Z</time></trkpt>
<trkpt lat="49.28607" lon="-0.583333"><ele></ele><time>2015-1-4T2:50:52Z</time></trkpt>
<trkpt lat="49.286083" lon="-0.583219"><ele></ele><time>2015-1-4T2:50:55Z</time></trkpt>
<trkpt lat="49.286122" lon="-0.583095"><ele></ele><time>2015-1-4T2:50:58Z</time></trkpt>
<trkpt lat="49.286123" lon="-0.582979"><ele></ele><time>2015-1-4T2:51:1Z</time></trkpt>
<trkpt lat="49.286125" lon="-0.582843"><ele></ele><time>2015-1-4T2:51:4Z</time></trkpt>
<trkpt lat="49.286137" lon="-0.582679"><ele></ele><time>2015-1-4T2:51:7Z</time></trkpt>
<trkpt lat="49.286154" lon="-0.58253"><ele></ele><time>2015-1-4T2:51:10Z</time></trkpt>
<trkpt lat="49.286173" lon="-0.582378"><ele></ele><time>2015-1-4T2:51:13Z</time></trkpt>
<trkpt lat="49.286197" lon="-0.582224"><ele></ele><time>2015-1-4T2:51:16Z</time></trkpt>
<trkpt lat="49.286217" lon="-0.582072"><ele></ele><time>2015-1-4T2:51:19Z</time></trkpt>
<trkpt lat="49.286259" lon="-0.581941"><ele></ele><time>2015-1-4T2:51:22Z</time></trkpt>
<trkpt lat="49.286293" lon="-0.581804"><ele></ele><time>2015-1-4T2:51:25Z</time></trkpt>
<trkpt lat="49.286299" lon="-0.581659"><ele></ele><time>2015-1-4T2:51:28Z</time></trkpt>
<trkpt lat="49.286314" lon="-0.581503"><ele></ele><time>2015-1-4T2:51:31Z</time></trkpt>
<trkpt lat="49.286371" lon="-0.581343"><ele></ele><time>2015-1-4T2:51:34Z</time></trkpt>
<trkpt lat="49.2864" lon="-0.581195"><ele></ele><time>2015-1-4T2:51:37Z</time></trkpt>
<trkpt lat="49.286435" lon="-0.581054"><ele></ele><time>2015-1-4T2:51:40Z</time></trkpt>
<trkpt lat="49.286458" lon="-0.58088"><ele></ele><time>2015-1-4T2:51:43Z</time></trkpt>
<trkpt lat="49.286518" lon="-0.580734"><ele></ele><time>2015-1-4T2:51:46Z</time></trkpt>
<trkpt lat="49.28658" lon="-0.580632"><ele></ele><time>2015-1-4T2:51:49Z</time></trkpt>
<trkpt lat="49.286609" lon="-0.580498"><ele></ele><time>2015-1-4T2:51:52Z</time></trkpt>
<trkpt lat="49.286651" lon="-0.58035"><ele></ele><time>2015-1-4T2:51:55Z</time></trkpt>
<trkpt lat="49.286684" lon="-0.580195"><ele></ele><time>2015-1-4T2:51:58Z</time></trkpt>
<trkpt lat="49.28672" lon="-0.580023"><ele></ele><time>2015-1-4T2:52:1Z</time></trkpt>
<trkpt lat="49.286756" lon="-0.579841"><ele></ele><time>2015-1-4T2:52:4Z</time></trkpt>
<trkpt lat="49.286822" lon="-0.579652"><ele></ele><time>2015-1-4T2:52:7Z</time></trkpt>
<trkpt lat="49.286886" lon="-0.579436"><ele></ele><time>2015-1-4T2:52:10Z</time></trkpt>
<trkpt lat="49.28694" lon="-0.579255"><ele></ele><time>2015-1-4T2:52:13Z</time></trkpt>
<trkpt lat="49.286974" lon="-0.57909"><ele></ele><time>2015-1-4T2:52:16Z</time></trkpt>
<trkpt lat="49.287029" lon="-0.578921"><ele></ele><time>2015-1-4T2:52:19Z</time></trkpt>
<trkpt lat="49.28708" lon="-0.578729"><ele></ele><time>2015-1-4T2:52:22Z</time></trkpt>
<trkpt lat="49.287124" lon="-0.578541"><ele></ele><time>2015-1-4T2:52:25Z</time></trkpt>
<trkpt lat="49.28718" lon="-0.578398"><ele></ele><time>2015-1-4T2:52:28Z</time></trkpt>
<trkpt lat="49.287227" lon="-0.5782"><ele></ele><time>2015-1-4T2:52:31Z</time></trkpt>
<trkpt lat="49.287254" lon="-0.578017"><ele></ele><time>2015-1-4T2:52:34Z</time></trkpt>
<trkpt lat="49.287254" lon="-0.577843"><ele></ele><time>2015-1-4T2:52:37Z</time></trkpt>
<trkpt lat="49.28729" lon="-0.577672"><ele></ele><time>2015-1-4T2:52:40Z</time></trkpt>
<trkpt lat="49.287319" lon="-0.577537"><ele></ele><time>2015-1-4T2:52:43Z</time></trkpt>
<trkpt lat="49.287362" lon="-0.577363"><ele></ele><time>2015-1-4T2:52:46Z</time></trkpt>
<trkpt lat="49.287376" lon="-0.577161"><ele></ele><time>2015-1-4T2:52:49Z</time></trkpt>
<trkpt lat="49.287372" lon="-0.576973"><ele></ele><time>2015-1-4T2:52:52Z</time></trkpt>
<trkpt lat="49.287392" lon="-0.576767"><ele></ele><time>2015-1-4T2:52:55Z</time></trkpt>
<trkpt lat="49.287429" lon="-0.57657"><ele></ele><time>2015-1-4T2:52:58Z</time></trkpt>
<trkpt lat="49.287428" lon="-0.576388"><ele></ele><time>2015-1-4T2:53:1Z</time></trkpt>
<trkpt lat="49.28748" lon="-0.576203"><ele></ele><time>2015-1-4T2:53:4Z</time></trkpt>
<trkpt lat="49.287499" lon="-0.575968"><ele></ele><time>2015-1-4T2:53:7Z</time></trkpt>
<trkpt lat="49.28751" lon="-0.575756"><ele></ele><time>2015-1-4T2:53:10Z</time></trkpt>
<trkpt lat="49.287586" lon="-0.575623"><ele></ele><time>2015-1-4T2:53:13Z</time></trkpt>
<trkpt lat="49.28771" lon="-0.575638"><ele></ele><time>2015-1-4T2:53:16Z</time></trkpt>
<trkpt lat="49.287845" lon="-0.57568"><ele></ele><time>2015-1-4T2:53:19Z</time></trkpt>
<trkpt lat="49.287999" lon="-0.575742"><ele></ele><time>2015-1-4T2:53:22Z</time></trkpt>
<trkpt lat="49.288146" lon="-0.575768"><ele></ele><time>2015-1-4T2:53:25Z</time></trkpt>
<trkpt lat="49.288287" lon="-0.575742"><ele></ele><time>2015-1-4T2:53:28Z</time></trkpt>
<trkpt lat="49.288461" lon="-0.575759"><ele></ele><time>2015-1-4T2:53:31Z</time></trkpt>
<trkpt lat="49.288609" lon="-0.575752"><ele></ele><time>2015-1-4T2:53:34Z</time></trkpt>
<trkpt lat="49.288722" lon="-0.575765"><ele></ele><time>2015-1-4T2:53:37Z</time></trkpt>
<trkpt lat="49.288812" lon="-0.575753"><ele></ele><time>2015-1-4T2:53:40Z</time></trkpt>
<trkpt lat="49.288838" lon="-0.575777"><ele></ele><time>2015-1-4T2:53:43Z</time></trkpt>
<trkpt lat="49.288787" lon="-0.575819"><ele></ele><time>2015-1-4T2:53:46Z</time></trkpt>
<trkpt lat="49.288767" lon="-0.575782"><ele></ele><time>2015-1-4T2:53:49Z</time></trkpt>
<trkpt lat="49.288808" lon="-0.57577"><ele></ele><time>2015-1-4T2:53:52Z</time></trkpt>
<trkpt lat="49.288926" lon="-0.575776"><ele></ele><time>2015-1-4T2:53:55Z</time></trkpt>
<trkpt lat="49.289084" lon="-0.575831"><ele></ele><time>2015-1-4T2:53:58Z</time></trkpt>
<trkpt lat="49.289216" lon="-0.575812"><ele></ele><time>2015-1-4T2:54:1Z</time></trkpt>
<trkpt lat="49.289339" lon="-0.575777"><ele></ele><time>2015-1-4T2:54:4Z</time></trkpt>
<trkpt lat="49.289451" lon="-0.575813"><ele></ele><time>2015-1-4T2:54:7Z</time></trkpt>
<trkpt lat="49.289542" lon="-0.575769"><ele></ele><time>2015-1-4T2:54:10Z</time></trkpt>
<trkpt lat="49.289562" lon="-0.575783"><ele></ele><time>2015-1-4T2:54:13Z</time></trkpt>
<trkpt lat="49.289604" lon="-0.57568"><ele></ele><time>2015-1-4T2:54:16Z</time></trkpt>
<trkpt lat="49.289615" lon="-0.575566"><ele></ele><time>2015-1-4T2:54:19Z</time></trkpt>
<trkpt lat="49.28963" lon="-0.575367"><ele></ele><time>2015-1-4T2:54:22Z</time></trkpt>
<trkpt lat="49.289689" lon="-0.575132"><ele></ele><time>2015-1-4T2:54:25Z</time></trkpt>
<trkpt lat="49.289711" lon="-0.574862"><ele></ele><time>2015-1-4T2:54:28Z</time></trkpt>
<trkpt lat="49.289753" lon="-0.574578"><ele></ele><time>2015-1-4T2:54:31Z</time></trkpt>
<trkpt lat="49.289809" lon="-0.57429"><ele></ele><time>2015-1-4T2:54:34Z</time></trkpt>
<trkpt lat="49.289828" lon="-0.574082"><ele></ele><time>2015-1-4T2:54:37Z</time></trkpt>
<trkpt lat="49.289852" lon="-0.573719"><ele></ele><time>2015-1-4T2:54:40Z</time></trkpt>
<trkpt lat="49.28988" lon="-0.573357"><ele></ele><time>2015-1-4T2:54:43Z</time></trkpt>
<trkpt lat="49.289877" lon="-0.573051"><ele></ele><time>2015-1-4T2:54:46Z</time></trkpt>
<trkpt lat="49.289883" lon="-0.572735"><ele></ele><time>2015-1-4T2:54:49Z</time></trkpt>
<trkpt lat="49.289941" lon="-0.572419"><ele></ele><time>2015-1-4T2:54:52Z</time></trkpt>
<trkpt lat="49.290004" lon="-0.572117"><ele></ele><time>2015-1-4T2:54:55Z</time></trkpt>
<trkpt lat="49.290001" lon="-0.571777"><ele></ele><time>2015-1-4T2:54:58Z</time></trkpt>
<trkpt lat="49.29003" lon="-0.571429"><ele></ele><time>2015-1-4T2:55:1Z</time></trkpt>
<trkpt lat="49.29005" lon="-0.571129"><ele></ele><time>2015-1-4T2:55:4Z</time></trkpt>
<trkpt lat="49.290085" lon="-0.570684"><ele></ele><time>2015-1-4T2:55:7Z</time></trkpt>
<trkpt lat="49.290136" lon="-0.570344"><ele></ele><time>2015-1-4T2:55:10Z</time></trkpt>
<trkpt lat="49.290172" lon="-0.570129"><ele></ele><time>2015-1-4T2:55:13Z</time></trkpt>
<trkpt lat="49.29023" lon="-0.570132"><ele></ele><time>2015-1-4T2:55:16Z</time></trkpt>
<trkpt lat="49.290337" lon="-0.570145"><ele></ele><time>2015-1-4T2:55:19Z</time></trkpt>
<trkpt lat="49.290468" lon="-0.570124"><ele></ele><time>2015-1-4T2:55:22Z</time></trkpt>
<trkpt lat="49.290591" lon="-0.570116"><ele></ele><time>2015-1-4T2:55:25Z</time></trkpt>
<trkpt lat="49.290743" lon="-0.570065"><ele></ele><time>2015-1-4T2:55:28Z</time></trkpt>
<trkpt lat="49.290877" lon="-0.570002"><ele></ele><time>2015-1-4T2:55:31Z</time></trkpt>
<trkpt lat="49.290971" lon="-0.569833"><ele></ele><time>2015-1-4T2:55:34Z</time></trkpt>
<trkpt lat="49.29107" lon="-0.569642"><ele></ele><time>2015-1-4T2:55:37Z</time></trkpt>
<trkpt lat="49.291101" lon="-0.569393"><ele></ele><time>2015-1-4T2:55:40Z</time></trkpt>
<trkpt lat="49.291073" lon="-0.569135"><ele></ele><time>2015-1-4T2:55:43Z</time></trkpt>
<trkpt lat="49.291086" lon="-0.568835"><ele></ele><time>2015-1-4T2:55:46Z</time></trkpt>
<trkpt lat="49.291143" lon="-0.568525"><ele></ele><time>2015-1-4T2:55:49Z</time></trkpt>
<trkpt lat="49.291117" lon="-0.568324"><ele></ele><time>2015-1-4T2:55:52Z</time></trkpt>
<trkpt lat="49.291028" lon="-0.568287"><ele></ele><time>2015-1-4T2:55:55Z</time></trkpt>
<trkpt lat="49.290974" lon="-0.568276"><ele></ele><time>2015-1-4T2:55:58Z</time></trkpt>
<trkpt lat="49.290927" lon="-0.568275"><ele></ele><time>2015-1-4T2:56:1Z</time></trkpt>
<trkpt lat="49.290859" lon="-0.568289"><ele></ele><time>2015-1-4T2:56:4Z</time></trkpt>
<trkpt lat="49.290882" lon="-0.56821"><ele></ele><time>2015-1-4T2:56:7Z</time></trkpt>
<trkpt lat="49.290909" lon="-0.5682"><ele></ele><time>2015-1-4T2:56:10Z</time></trkpt>
<trkpt lat="49.290898" lon="-0.568237"><ele></ele><time>2015-1-4T2:56:13Z</time></trkpt>
</trkseg></trk></gpx>